Darstellungsparameter: Aktuell verwendete Einstellungen:
Skalierung der Graphiken ... ?
xyx+y,   Skalierungsfaktor:      Skalierung: Modus: x, Faktor: 1
Darstellungszeitraum ... ?
Vom - - bis: - -   Zeitraum: 15.01.2015 - 14.02.2015
Min/Max/Avg-Anzeige ... ?
Zeige MMA aktuell
Zeige MMA Monat
Zeige MMA alles
Zeige --A aktuell
Zeige --A Monat
Zeige --A alles
Keine MMA-Anzeige
MMA:
Keine MMA-Graphiken
MMA-Basis: 15.01.2015 - 14.02.2015
Quicknavigation für Darstellung... ?
Tage:      1T, 2T, 3T, 5T -1T -2T -3T -5T +1T +2T +3T +5T
Wochen: 1W, 2W, 3W -1W -2W -3W +1W +2W +3W
Monate: 1M, 3M, 6M -1M -3M -6M +1M +3M +6M
Jahre:    1J, 3J, 5J, 10J -1J -3J -5J -10J +1J +3J +5J +10J
Nutze für die Darstellung ... ?
Originaldaten oder Mittelwerte auf ...
Stundenbasis Tagesbasis Wochenbasis
Monatsbasis Jahresbasis      Datenbasis: Original-Daten
Darstellen als:
Statistik (Auto) Statistik J:M      Darstellung:
Zur Graphik,    zurück zur Übersicht aller Sensoren.
 
Tabellarische Datenbersicht: ?
 
Sensor: Nr:Datum:Temp:Feuchte:Taupunkt:
Aussen-T/F 1 15-01-2015 08:10:00 7.8 C 86 % 5.61 C
2 15-01-2015 08:15:00 7.8 C 86 % 5.61 C
3 15-01-2015 08:20:00 7.8 C 86 % 5.61 C
4 15-01-2015 08:25:00 7.9 C 86 % 5.71 C
5 15-01-2015 08:30:00 7.8 C 86 % 5.61 C
6 15-01-2015 08:35:00 7.9 C 86 % 5.71 C
7 15-01-2015 08:40:00 7.9 C 86 % 5.71 C
8 15-01-2015 08:45:00 7.9 C 86 % 5.71 C
9 15-01-2015 08:50:00 8 C 86 % 5.81 C
10 15-01-2015 08:55:00 8.1 C 85 % 5.73 C
11 15-01-2015 09:00:00 8.2 C 85 % 5.83 C
12 15-01-2015 09:05:00 8.3 C 85 % 5.93 C
13 15-01-2015 09:10:00 8.3 C 84 % 5.76 C
14 15-01-2015 09:15:00 8.3 C 84 % 5.76 C
15 15-01-2015 09:20:00 8.4 C 83 % 5.69 C
16 15-01-2015 09:25:00 8.5 C 83 % 5.78 C
17 15-01-2015 09:30:00 8.6 C 83 % 5.88 C
18 15-01-2015 09:35:00 8.6 C 83 % 5.88 C
19 15-01-2015 09:40:00 8.7 C 83 % 5.98 C
20 15-01-2015 09:45:00 8.8 C 81 % 5.72 C
21 15-01-2015 09:50:00 8.8 C 81 % 5.72 C
22 15-01-2015 09:55:00 8.8 C 81 % 5.72 C
23 15-01-2015 10:00:00 8.9 C 80 % 5.64 C
24 15-01-2015 10:05:00 8.9 C 80 % 5.64 C
25 15-01-2015 10:10:00 8.9 C 80 % 5.64 C
Sensor: Nr:Datum:Temp:Feuchte:Taupunkt:
Aussen-T/F 26 15-01-2015 10:15:00 8.9 C 80 % 5.64 C
27 15-01-2015 10:20:00 8.9 C 80 % 5.64 C
28 15-01-2015 17:05:00 11.5 C 100 % 11.5 C
29 15-01-2015 17:10:00 11.4 C 66 % 5.28 C
30 15-01-2015 17:15:00 11.5 C 67 % 5.59 C
31 15-01-2015 17:20:00 11.5 C 67 % 5.59 C
32 15-01-2015 17:25:00 11.5 C 67 % 5.59 C
33 15-01-2015 17:30:00 11.4 C 66 % 5.28 C
34 15-01-2015 17:35:00 11.4 C 66 % 5.28 C
35 15-01-2015 17:40:00 11.4 C 66 % 5.28 C
36 15-01-2015 17:45:00 11.4 C 66 % 5.28 C
37 15-01-2015 17:50:00 11.4 C 66 % 5.28 C
38 15-01-2015 17:55:00 11.4 C 66 % 5.28 C
39 15-01-2015 18:10:00 11.4 C 66 % 5.28 C
40 15-01-2015 18:15:00 11.3 C 66 % 5.19 C
41 15-01-2015 18:20:00 11.3 C 67 % 5.4 C
42 15-01-2015 18:25:00 11.2 C 66 % 5.09 C
43 15-01-2015 18:30:00 11.3 C 66 % 5.19 C
44 15-01-2015 18:35:00 11.3 C 66 % 5.19 C
45 15-01-2015 18:40:00 11.3 C 66 % 5.19 C
46 15-01-2015 18:45:00 11.4 C 66 % 5.28 C
47 15-01-2015 18:50:00 11.4 C 67 % 5.5 C
48 15-01-2015 18:55:00 11.3 C 67 % 5.4 C
49 15-01-2015 19:00:00 11.3 C 67 % 5.4 C
50 15-01-2015 19:05:00 11.2 C 68 % 5.52 C
Sensor: Nr:Datum:Temp:Feuchte:Taupunkt:
Aussen-T/F 51 15-01-2015 19:10:00 11.2 C 68 % 5.52 C
52 15-01-2015 19:15:00 11.2 C 68 % 5.52 C
53 15-01-2015 19:20:00 11.2 C 68 % 5.52 C
54 15-01-2015 19:25:00 11.2 C 69 % 5.73 C
55 15-01-2015 19:30:00 11.2 C 69 % 5.73 C
56 15-01-2015 19:35:00 11.1 C 70 % 5.84 C
57 15-01-2015 19:40:00 11.1 C 71 % 6.05 C
58 15-01-2015 19:45:00 10.9 C 71 % 5.86 C
59 15-01-2015 19:50:00 10.9 C 71 % 5.86 C
60 15-01-2015 19:55:00 10.9 C 71 % 5.86 C
61 15-01-2015 20:00:00 10.9 C 72 % 6.06 C
62 15-01-2015 20:05:00 10.9 C 72 % 6.06 C
63 15-01-2015 20:10:00 10.9 C 72 % 6.06 C
64 15-01-2015 20:15:00 10.9 C 72 % 6.06 C
65 15-01-2015 20:20:00 10.9 C 72 % 6.06 C
66 15-01-2015 20:25:00 11 C 72 % 6.15 C
67 15-01-2015 20:30:00 10.9 C 73 % 6.26 C
68 15-01-2015 20:35:00 10.9 C 73 % 6.26 C
69 15-01-2015 20:40:00 10.9 C 73 % 6.26 C
70 15-01-2015 20:45:00 10.8 C 73 % 6.16 C
71 15-01-2015 20:50:00 10.8 C 74 % 6.36 C
72 15-01-2015 20:55:00 10.7 C 74 % 6.26 C
73 15-01-2015 21:00:00 10.7 C 75 % 6.46 C
74 15-01-2015 21:05:00 10.6 C 75 % 6.36 C
75 15-01-2015 21:10:00 10.6 C 75 % 6.36 C
Sensor: Nr:Datum:Temp:Feuchte:Taupunkt:
Aussen-T/F 76 15-01-2015 21:15:00 10.5 C 75 % 6.26 C
77 15-01-2015 21:20:00 10.4 C 76 % 6.36 C
78 15-01-2015 21:25:00 10.3 C 76 % 6.26 C
79 15-01-2015 21:30:00 10.2 C 77 % 6.35 C
80 15-01-2015 21:35:00 10.2 C 76 % 6.16 C
81 15-01-2015 21:40:00 10.3 C 76 % 6.26 C
82 15-01-2015 21:45:00 10.4 C 76 % 6.36 C
83 15-01-2015 21:50:00 10.4 C 76 % 6.36 C
84 15-01-2015 21:55:00 10.4 C 77 % 6.55 C
85 15-01-2015 22:00:00 10.4 C 77 % 6.55 C
86 15-01-2015 22:05:00 10.3 C 77 % 6.45 C
87 15-01-2015 22:10:00 10.3 C 78 % 6.64 C
88 15-01-2015 22:15:00 10.3 C 78 % 6.64 C
89 15-01-2015 22:20:00 10.3 C 78 % 6.64 C
90 15-01-2015 22:25:00 10.3 C 78 % 6.64 C
91 15-01-2015 22:30:00 10.3 C 78 % 6.64 C
92 15-01-2015 22:35:00 10.3 C 79 % 6.82 C
93 15-01-2015 22:40:00 10.3 C 79 % 6.82 C
94 15-01-2015 22:45:00 10.3 C 79 % 6.82 C
95 15-01-2015 22:50:00 10.3 C 79 % 6.82 C
96 15-01-2015 22:55:00 10.3 C 79 % 6.82 C
97 15-01-2015 23:00:00 10.3 C 79 % 6.82 C
98 15-01-2015 23:05:00 10.3 C 80 % 7.01 C
99 15-01-2015 23:10:00 10.2 C 80 % 6.91 C
100 15-01-2015 23:15:00 10.2 C 80 % 6.91 C
Sensor: Nr:Datum:Temp:Feuchte:Taupunkt:
Aussen-T/F 101 15-01-2015 23:20:00 10.1 C 81 % 6.99 C
102 15-01-2015 23:25:00 10 C 83 % 7.25 C
103 15-01-2015 23:30:00 9.8 C 84 % 7.23 C
104 15-01-2015 23:35:00 9.6 C 84 % 7.03 C
105 15-01-2015 23:40:00 9.5 C 85 % 7.11 C
106 15-01-2015 23:45:00 9.4 C 85 % 7.01 C
107 15-01-2015 23:50:00 9.4 C 85 % 7.01 C
108 15-01-2015 23:55:00 9.4 C 86 % 7.18 C
109 16-01-2015 00:00:00 9.3 C 86 % 7.08 C
110 16-01-2015 00:05:00 9.3 C 85 % 6.91 C
111 16-01-2015 00:10:00 9.3 C 85 % 6.91 C
112 16-01-2015 00:15:00 9.3 C 85 % 6.91 C
113 16-01-2015 00:20:00 9.3 C 85 % 6.91 C
114 16-01-2015 00:25:00 9.3 C 86 % 7.08 C
115 16-01-2015 00:30:00 9.3 C 86 % 7.08 C
116 16-01-2015 00:35:00 9.3 C 85 % 6.91 C
117 16-01-2015 00:40:00 9.3 C 85 % 6.91 C
118 16-01-2015 00:45:00 9.3 C 84 % 6.74 C
119 16-01-2015 00:50:00 9.3 C 83 % 6.57 C
120 16-01-2015 00:55:00 9.3 C 82 % 6.39 C
121 16-01-2015 01:00:00 9.3 C 82 % 6.39 C
122 16-01-2015 01:05:00 9.3 C 82 % 6.39 C
123 16-01-2015 01:10:00 9.2 C 83 % 6.47 C
124 16-01-2015 01:15:00 9.1 C 84 % 6.54 C
125 16-01-2015 01:20:00 9.1 C 83 % 6.37 C
Sensor: Nr:Datum:Temp:Feuchte:Taupunkt:
Aussen-T/F 126 16-01-2015 01:25:00 9.1 C 83 % 6.37 C
127 16-01-2015 01:30:00 9.1 C 83 % 6.37 C
128 16-01-2015 01:35:00 9.1 C 83 % 6.37 C
129 16-01-2015 01:40:00 9 C 84 % 6.45 C
130 16-01-2015 01:45:00 8.9 C 85 % 6.52 C
131 16-01-2015 01:50:00 8.8 C 85 % 6.42 C
132 16-01-2015 01:55:00 8.7 C 87 % 6.66 C
133 16-01-2015 02:00:00 8.6 C 88 % 6.73 C
134 16-01-2015 02:05:00 8.4 C 89 % 6.7 C
135 16-01-2015 02:10:00 8.3 C 88 % 6.43 C
136 16-01-2015 02:15:00 8.3 C 88 % 6.43 C
137 16-01-2015 02:20:00 8.3 C 88 % 6.43 C
138 16-01-2015 02:25:00 8.2 C 88 % 6.33 C
139 16-01-2015 02:30:00 8.2 C 88 % 6.33 C
140 16-01-2015 02:35:00 8.2 C 88 % 6.33 C
141 16-01-2015 02:40:00 8.1 C 88 % 6.24 C
142 16-01-2015 02:45:00 8.1 C 88 % 6.24 C
143 16-01-2015 02:50:00 7.9 C 86 % 5.71 C
144 16-01-2015 02:55:00 8.1 C 86 % 5.9 C
145 16-01-2015 03:00:00 8.1 C 86 % 5.9 C
146 16-01-2015 03:05:00 8.1 C 86 % 5.9 C
147 16-01-2015 03:10:00 8.1 C 86 % 5.9 C
148 16-01-2015 03:15:00 8.1 C 86 % 5.9 C
149 16-01-2015 03:20:00 8.1 C 86 % 5.9 C
150 16-01-2015 03:25:00 8.1 C 87 % 6.07 C
Sensor: Nr:Datum:Temp:Feuchte:Taupunkt:
Aussen-T/F 151 16-01-2015 03:30:00 8 C 87 % 5.97 C
152 16-01-2015 03:35:00 7.9 C 87 % 5.87 C
153 16-01-2015 03:40:00 7.8 C 88 % 5.94 C
154 16-01-2015 03:45:00 7.6 C 88 % 5.74 C
155 16-01-2015 03:50:00 7.6 C 88 % 5.74 C
156 16-01-2015 03:55:00 7.6 C 89 % 5.91 C
157 16-01-2015 04:00:00 7.4 C 88 % 5.55 C
158 16-01-2015 04:05:00 7.4 C 89 % 5.71 C
159 16-01-2015 04:10:00 7.6 C 87 % 5.58 C
160 16-01-2015 04:15:00 7.6 C 87 % 5.58 C
161 16-01-2015 04:20:00 7.7 C 86 % 5.51 C
162 16-01-2015 04:25:00 7.7 C 87 % 5.68 C
163 16-01-2015 04:30:00 7.5 C 88 % 5.64 C
164 16-01-2015 04:35:00 7.3 C 88 % 5.45 C
165 16-01-2015 04:40:00 7.2 C 88 % 5.35 C
166 16-01-2015 04:45:00 7.2 C 89 % 5.51 C
167 16-01-2015 04:50:00 7 C 89 % 5.31 C
168 16-01-2015 04:55:00 6.9 C 89 % 5.22 C
169 16-01-2015 05:00:00 6.8 C 89 % 5.12 C
170 16-01-2015 05:05:00 6.8 C 90 % 5.28 C
171 16-01-2015 05:10:00 6.9 C 89 % 5.22 C
172 16-01-2015 05:15:00 7.1 C 88 % 5.25 C
173 16-01-2015 05:20:00 7.1 C 88 % 5.25 C
174 16-01-2015 05:25:00 7.1 C 88 % 5.25 C
175 16-01-2015 05:30:00 7.1 C 88 % 5.25 C
Sensor: Nr:Datum:Temp:Feuchte:Taupunkt:
Aussen-T/F 176 16-01-2015 05:35:00 7 C 88 % 5.15 C
177 16-01-2015 05:40:00 6.9 C 89 % 5.22 C
178 16-01-2015 05:45:00 6.9 C 89 % 5.22 C
179 16-01-2015 05:50:00 6.8 C 89 % 5.12 C
180 16-01-2015 05:55:00 6.8 C 88 % 4.96 C
181 16-01-2015 06:00:00 6.8 C 88 % 4.96 C
182 16-01-2015 06:05:00 6.9 C 88 % 5.05 C
183 16-01-2015 06:10:00 6.9 C 88 % 5.05 C
184 16-01-2015 06:15:00 6.9 C 88 % 5.05 C
185 16-01-2015 06:20:00 6.9 C 88 % 5.05 C
186 16-01-2015 06:25:00 6.8 C 88 % 4.96 C
187 16-01-2015 06:30:00 6.7 C 89 % 5.02 C
188 16-01-2015 06:35:00 6.7 C 89 % 5.02 C
189 16-01-2015 06:40:00 6.9 C 88 % 5.05 C
190 16-01-2015 06:45:00 7 C 87 % 4.99 C
191 16-01-2015 06:50:00 7 C 88 % 5.15 C
192 16-01-2015 06:55:00 6.9 C 88 % 5.05 C
193 16-01-2015 07:00:00 6.9 C 88 % 5.05 C
194 16-01-2015 07:05:00 6.8 C 88 % 4.96 C
195 16-01-2015 07:10:00 6.7 C 89 % 5.02 C
196 16-01-2015 07:15:00 6.7 C 89 % 5.02 C
197 16-01-2015 07:20:00 6.6 C 89 % 4.92 C
198 16-01-2015 07:25:00 6.5 C 89 % 4.82 C
199 16-01-2015 07:30:00 6.4 C 90 % 4.88 C
200 16-01-2015 07:35:00 6.4 C 90 % 4.88 C
Sensor: Nr:Datum:Temp:Feuchte:Taupunkt:
Aussen-T/F 201 16-01-2015 07:40:00 6.4 C 90 % 4.88 C
202 16-01-2015 07:45:00 6.4 C 90 % 4.88 C
203 16-01-2015 07:50:00 6.4 C 90 % 4.88 C
204 16-01-2015 07:55:00 6.4 C 89 % 4.72 C
205 16-01-2015 08:00:00 6.5 C 89 % 4.82 C
206 16-01-2015 08:05:00 6.7 C 88 % 4.86 C
207 16-01-2015 08:10:00 6.8 C 87 % 4.79 C
208 16-01-2015 08:15:00 6.9 C 87 % 4.89 C
209 16-01-2015 08:20:00 6.9 C 87 % 4.89 C
210 16-01-2015 08:25:00 6.8 C 88 % 4.96 C
211 16-01-2015 08:30:00 6.8 C 87 % 4.79 C
212 16-01-2015 08:35:00 6.8 C 87 % 4.79 C
213 16-01-2015 08:40:00 6.8 C 87 % 4.79 C
214 16-01-2015 08:45:00 6.9 C 86 % 4.72 C
215 16-01-2015 08:50:00 6.9 C 86 % 4.72 C
216 16-01-2015 08:55:00 6.9 C 87 % 4.89 C
217 16-01-2015 09:00:00 6.8 C 87 % 4.79 C
218 16-01-2015 09:05:00 6.8 C 87 % 4.79 C
219 16-01-2015 09:10:00 6.7 C 88 % 4.86 C
220 16-01-2015 09:15:00 6.7 C 88 % 4.86 C
221 16-01-2015 09:20:00 6.7 C 88 % 4.86 C
222 16-01-2015 09:25:00 6.6 C 89 % 4.92 C
223 16-01-2015 09:30:00 6.6 C 89 % 4.92 C
224 16-01-2015 09:35:00 6.6 C 90 % 5.08 C
225 16-01-2015 09:40:00 6.6 C 90 % 5.08 C
Sensor: Nr:Datum:Temp:Feuchte:Taupunkt:
Aussen-T/F 226 16-01-2015 09:45:00 6.6 C 89 % 4.92 C
227 16-01-2015 09:50:00 6.6 C 90 % 5.08 C
228 16-01-2015 09:55:00 6.6 C 89 % 4.92 C
229 16-01-2015 10:00:00 6.7 C 88 % 4.86 C
230 16-01-2015 10:05:00 6.7 C 88 % 4.86 C
231 16-01-2015 10:10:00 6.8 C 88 % 4.96 C
232 16-01-2015 10:15:00 6.9 C 86 % 4.72 C
233 16-01-2015 10:20:00 6.9 C 86 % 4.72 C
234 16-01-2015 10:25:00 7.1 C 85 % 4.75 C
235 16-01-2015 10:30:00 7.2 C 85 % 4.85 C
236 16-01-2015 10:35:00 7.2 C 84 % 4.68 C
237 16-01-2015 10:40:00 7.3 C 83 % 4.61 C
238 16-01-2015 10:45:00 7.3 C 83 % 4.61 C
239 16-01-2015 10:50:00 7.3 C 83 % 4.61 C
240 16-01-2015 10:55:00 7.3 C 83 % 4.61 C
241 16-01-2015 11:00:00 7.3 C 83 % 4.61 C
242 16-01-2015 11:05:00 7.3 C 84 % 4.78 C
243 16-01-2015 11:10:00 7.3 C 86 % 5.12 C
244 16-01-2015 11:15:00 7.3 C 86 % 5.12 C
245 16-01-2015 11:20:00 7.3 C 86 % 5.12 C
246 16-01-2015 11:25:00 7.3 C 86 % 5.12 C
247 16-01-2015 11:30:00 7.3 C 86 % 5.12 C
248 16-01-2015 11:35:00 7.3 C 86 % 5.12 C
249 16-01-2015 11:40:00 7.4 C 86 % 5.22 C
250 16-01-2015 11:45:00 7.4 C 85 % 5.05 C
Sensor: Nr:Datum:Temp:Feuchte:Taupunkt:
Aussen-T/F 251 16-01-2015 11:50:00 7.4 C 86 % 5.22 C
252 16-01-2015 11:55:00 7.4 C 86 % 5.22 C
253 16-01-2015 12:00:00 7.4 C 85 % 5.05 C
254 16-01-2015 12:05:00 7.5 C 85 % 5.15 C
255 16-01-2015 12:10:00 7.5 C 85 % 5.15 C
256 16-01-2015 12:15:00 7.4 C 85 % 5.05 C
257 16-01-2015 12:20:00 7.4 C 84 % 4.88 C
258 16-01-2015 12:25:00 7.4 C 84 % 4.88 C
259 16-01-2015 12:30:00 7.4 C 83 % 4.71 C
260 16-01-2015 12:35:00 7.4 C 84 % 4.88 C
261 16-01-2015 12:40:00 7.5 C 84 % 4.98 C
262 16-01-2015 12:45:00 7.4 C 80 % 4.18 C
263 16-01-2015 12:50:00 7.5 C 82 % 4.63 C
264 16-01-2015 12:55:00 7.5 C 83 % 4.81 C
265 16-01-2015 13:00:00 7.4 C 80 % 4.18 C
266 16-01-2015 13:05:00 7.4 C 79 % 4 C
267 16-01-2015 13:10:00 7.4 C 80 % 4.18 C
268 16-01-2015 13:15:00 7.4 C 80 % 4.18 C
269 16-01-2015 13:20:00 7.3 C 80 % 4.09 C
270 16-01-2015 13:25:00 7.3 C 81 % 4.26 C
271 16-01-2015 13:30:00 7.3 C 81 % 4.26 C
272 16-01-2015 13:35:00 7.2 C 80 % 3.99 C
273 16-01-2015 13:40:00 7.2 C 81 % 4.16 C
274 16-01-2015 13:45:00 7.2 C 81 % 4.16 C
275 16-01-2015 13:50:00 7.1 C 81 % 4.07 C
Sensor: Nr:Datum:Temp:Feuchte:Taupunkt:
Aussen-T/F 276 16-01-2015 13:55:00 7 C 81 % 3.97 C
277 16-01-2015 14:00:00 6.9 C 82 % 4.05 C
278 16-01-2015 14:05:00 6.9 C 82 % 4.05 C
279 16-01-2015 14:10:00 6.9 C 82 % 4.05 C
280 16-01-2015 14:15:00 6.9 C 82 % 4.05 C
281 16-01-2015 14:20:00 6.9 C 82 % 4.05 C
282 16-01-2015 14:25:00 6.9 C 81 % 3.87 C
283 16-01-2015 14:30:00 6.9 C 82 % 4.05 C
284 16-01-2015 14:35:00 6.9 C 82 % 4.05 C
285 16-01-2015 14:40:00 6.9 C 82 % 4.05 C
286 16-01-2015 14:45:00 6.9 C 83 % 4.22 C
287 16-01-2015 14:50:00 6.9 C 83 % 4.22 C
288 16-01-2015 14:55:00 6.8 C 82 % 3.95 C
289 16-01-2015 15:00:00 6.8 C 82 % 3.95 C
290 16-01-2015 15:05:00 6.7 C 82 % 3.85 C
291 16-01-2015 15:10:00 6.7 C 83 % 4.02 C
292 16-01-2015 15:15:00 6.7 C 83 % 4.02 C
293 16-01-2015 15:20:00 6.7 C 83 % 4.02 C
294 16-01-2015 15:25:00 6.7 C 84 % 4.19 C
295 16-01-2015 15:30:00 6.7 C 84 % 4.19 C
296 16-01-2015 15:35:00 6.6 C 85 % 4.26 C
297 16-01-2015 15:40:00 6.6 C 86 % 4.43 C
298 16-01-2015 15:45:00 6.5 C 87 % 4.5 C
299 16-01-2015 15:50:00 6.4 C 88 % 4.56 C
300 16-01-2015 15:55:00 6.4 C 88 % 4.56 C
Sensor: Nr:Datum:Temp:Feuchte:Taupunkt:
Aussen-T/F 301 16-01-2015 16:00:00 6.3 C 89 % 4.62 C
302 16-01-2015 16:05:00 6.2 C 90 % 4.69 C
303 16-01-2015 16:10:00 6.2 C 91 % 4.84 C
304 16-01-2015 16:15:00 6.1 C 91 % 4.74 C
305 16-01-2015 16:20:00 6.1 C 91 % 4.74 C
306 16-01-2015 16:25:00 5.9 C 92 % 4.7 C
307 16-01-2015 16:30:00 5.8 C 92 % 4.6 C
308 16-01-2015 16:35:00 5.8 C 92 % 4.6 C
309 16-01-2015 16:40:00 5.7 C 93 % 4.66 C
310 16-01-2015 16:45:00 5.7 C 93 % 4.66 C
311 16-01-2015 16:50:00 5.7 C 93 % 4.66 C
312 16-01-2015 16:55:00 5.6 C 93 % 4.56 C
313 16-01-2015 17:00:00 5.6 C 93 % 4.56 C
314 16-01-2015 17:05:00 5.5 C 93 % 4.46 C
315 16-01-2015 17:10:00 5.5 C 93 % 4.46 C
316 16-01-2015 17:15:00 5.4 C 94 % 4.51 C
317 16-01-2015 17:20:00 5.4 C 94 % 4.51 C
318 16-01-2015 17:25:00 5.4 C 94 % 4.51 C
319 16-01-2015 17:30:00 5.4 C 94 % 4.51 C
320 16-01-2015 17:35:00 5.3 C 94 % 4.41 C
321 16-01-2015 17:40:00 5.3 C 94 % 4.41 C
322 16-01-2015 17:45:00 5.3 C 94 % 4.41 C
323 16-01-2015 17:50:00 5.3 C 94 % 4.41 C
324 16-01-2015 17:55:00 5.3 C 94 % 4.41 C
325 16-01-2015 18:00:00 5.2 C 94 % 4.32 C
Sensor: Nr:Datum:Temp:Feuchte:Taupunkt:
Aussen-T/F 326 16-01-2015 18:05:00 5.2 C 94 % 4.32 C
327 16-01-2015 18:10:00 5.2 C 94 % 4.32 C
328 16-01-2015 18:15:00 5.2 C 94 % 4.32 C
329 16-01-2015 18:20:00 5.2 C 94 % 4.32 C
330 16-01-2015 18:25:00 5.1 C 94 % 4.22 C
331 16-01-2015 18:30:00 5.1 C 94 % 4.22 C
332 16-01-2015 18:35:00 5.1 C 94 % 4.22 C
333 16-01-2015 18:40:00 5.1 C 94 % 4.22 C
334 16-01-2015 18:45:00 5.1 C 94 % 4.22 C
335 16-01-2015 18:50:00 5.1 C 94 % 4.22 C
336 16-01-2015 18:55:00 5.1 C 94 % 4.22 C
337 16-01-2015 19:00:00 5.1 C 94 % 4.22 C
338 16-01-2015 19:05:00 5.1 C 94 % 4.22 C
339 16-01-2015 19:10:00 5.1 C 94 % 4.22 C
340 16-01-2015 19:15:00 5.1 C 94 % 4.22 C
341 16-01-2015 19:20:00 5.1 C 94 % 4.22 C
342 16-01-2015 19:25:00 5.1 C 94 % 4.22 C
343 16-01-2015 19:30:00 5.1 C 94 % 4.22 C
344 16-01-2015 19:35:00 5.1 C 94 % 4.22 C
345 16-01-2015 19:40:00 5.1 C 94 % 4.22 C
346 16-01-2015 19:45:00 5.1 C 94 % 4.22 C
347 16-01-2015 19:50:00 5.2 C 94 % 4.32 C
348 16-01-2015 19:55:00 5.2 C 94 % 4.32 C
349 16-01-2015 20:00:00 5.2 C 94 % 4.32 C
350 16-01-2015 20:05:00 5.2 C 94 % 4.32 C
Sensor: Nr:Datum:Temp:Feuchte:Taupunkt:
Aussen-T/F 351 16-01-2015 20:10:00 5.2 C 94 % 4.32 C
352 16-01-2015 20:15:00 5.1 C 93 % 4.06 C
353 16-01-2015 20:20:00 5.2 C 93 % 4.16 C
354 16-01-2015 20:25:00 5.2 C 93 % 4.16 C
355 16-01-2015 20:30:00 5.2 C 93 % 4.16 C
356 16-01-2015 20:35:00 5.1 C 93 % 4.06 C
357 16-01-2015 20:40:00 5.1 C 93 % 4.06 C
358 16-01-2015 20:45:00 5.1 C 93 % 4.06 C
359 16-01-2015 20:50:00 5 C 94 % 4.12 C
360 16-01-2015 20:55:00 4.9 C 94 % 4.02 C
361 16-01-2015 21:00:00 4.9 C 94 % 4.02 C
362 16-01-2015 21:05:00 4.9 C 94 % 4.02 C
363 16-01-2015 21:10:00 4.9 C 94 % 4.02 C
364 16-01-2015 21:15:00 4.9 C 94 % 4.02 C
365 16-01-2015 21:20:00 4.9 C 94 % 4.02 C
366 16-01-2015 21:25:00 4.9 C 94 % 4.02 C
367 16-01-2015 21:30:00 4.9 C 94 % 4.02 C
368 16-01-2015 21:35:00 4.9 C 94 % 4.02 C
369 16-01-2015 21:40:00 4.9 C 94 % 4.02 C
370 16-01-2015 21:45:00 4.9 C 94 % 4.02 C
371 16-01-2015 21:50:00 4.9 C 94 % 4.02 C
372 16-01-2015 21:55:00 4.9 C 94 % 4.02 C
373 16-01-2015 22:00:00 4.9 C 94 % 4.02 C
374 16-01-2015 22:05:00 5 C 94 % 4.12 C
375 16-01-2015 22:10:00 5.1 C 94 % 4.22 C
Sensor: Nr:Datum:Temp:Feuchte:Taupunkt:
Aussen-T/F 376 16-01-2015 22:15:00 5.1 C 94 % 4.22 C
377 16-01-2015 22:20:00 5.1 C 93 % 4.06 C
378 16-01-2015 22:25:00 5.1 C 93 % 4.06 C
379 16-01-2015 22:30:00 5.1 C 93 % 4.06 C
380 16-01-2015 22:35:00 5 C 94 % 4.12 C
381 16-01-2015 22:40:00 5.1 C 94 % 4.22 C
382 16-01-2015 22:45:00 5.2 C 93 % 4.16 C
383 16-01-2015 22:50:00 5.2 C 93 % 4.16 C
384 16-01-2015 22:55:00 5.2 C 93 % 4.16 C
385 16-01-2015 23:00:00 5.2 C 93 % 4.16 C
386 16-01-2015 23:05:00 5.1 C 93 % 4.06 C
387 16-01-2015 23:10:00 5.1 C 93 % 4.06 C
388 16-01-2015 23:15:00 4.9 C 93 % 3.87 C
389 16-01-2015 23:20:00 4.9 C 93 % 3.87 C
390 16-01-2015 23:25:00 4.8 C 93 % 3.77 C
391 16-01-2015 23:30:00 4.8 C 94 % 3.92 C
392 16-01-2015 23:35:00 4.8 C 94 % 3.92 C
393 16-01-2015 23:40:00 4.8 C 94 % 3.92 C
394 16-01-2015 23:45:00 4.9 C 94 % 4.02 C
395 16-01-2015 23:50:00 4.9 C 94 % 4.02 C
396 16-01-2015 23:55:00 4.9 C 94 % 4.02 C
397 17-01-2015 00:00:00 4.9 C 94 % 4.02 C
398 17-01-2015 00:05:00 4.9 C 94 % 4.02 C
399 17-01-2015 00:10:00 4.9 C 94 % 4.02 C
400 17-01-2015 00:15:00 5 C 93 % 3.96 C
Sensor: Nr:Datum:Temp:Feuchte:Taupunkt:
Aussen-T/F 401 17-01-2015 00:20:00 5 C 93 % 3.96 C
402 17-01-2015 00:25:00 5.1 C 93 % 4.06 C
403 17-01-2015 00:30:00 5.1 C 93 % 4.06 C
404 17-01-2015 00:35:00 5.1 C 93 % 4.06 C
405 17-01-2015 00:40:00 5 C 92 % 3.81 C
406 17-01-2015 00:45:00 4.9 C 92 % 3.71 C
407 17-01-2015 00:50:00 4.8 C 92 % 3.61 C
408 17-01-2015 00:55:00 4.8 C 92 % 3.61 C
409 17-01-2015 01:00:00 4.8 C 93 % 3.77 C
410 17-01-2015 01:05:00 4.8 C 93 % 3.77 C
411 17-01-2015 01:10:00 4.7 C 93 % 3.67 C
412 17-01-2015 01:15:00 4.7 C 93 % 3.67 C
413 17-01-2015 01:20:00 4.7 C 93 % 3.67 C
414 17-01-2015 01:25:00 4.6 C 93 % 3.57 C
415 17-01-2015 01:30:00 4.6 C 93 % 3.57 C
416 17-01-2015 01:35:00 4.6 C 93 % 3.57 C
417 17-01-2015 01:40:00 4.6 C 92 % 3.42 C
418 17-01-2015 01:45:00 4.6 C 92 % 3.42 C
419 17-01-2015 01:50:00 4.6 C 92 % 3.42 C
420 17-01-2015 01:55:00 4.6 C 92 % 3.42 C
421 17-01-2015 02:00:00 4.6 C 91 % 3.26 C
422 17-01-2015 02:05:00 4.6 C 92 % 3.42 C
423 17-01-2015 02:10:00 4.5 C 92 % 3.32 C
424 17-01-2015 02:15:00 4.5 C 92 % 3.32 C
425 17-01-2015 02:20:00 4.6 C 91 % 3.26 C
Sensor: Nr:Datum:Temp:Feuchte:Taupunkt:
Aussen-T/F 426 17-01-2015 02:25:00 4.7 C 91 % 3.36 C
427 17-01-2015 02:30:00 4.7 C 91 % 3.36 C
428 17-01-2015 02:35:00 4.9 C 91 % 3.56 C
429 17-01-2015 02:40:00 4.9 C 90 % 3.4 C
430 17-01-2015 02:45:00 5 C 90 % 3.5 C
431 17-01-2015 02:50:00 5.1 C 90 % 3.6 C
432 17-01-2015 02:55:00 5.1 C 90 % 3.6 C
433 17-01-2015 03:00:00 5.1 C 90 % 3.6 C
434 17-01-2015 03:05:00 5.1 C 90 % 3.6 C
435 17-01-2015 03:10:00 5 C 90 % 3.5 C
436 17-01-2015 03:15:00 5 C 90 % 3.5 C
437 17-01-2015 03:20:00 5 C 90 % 3.5 C
438 17-01-2015 03:25:00 5 C 91 % 3.66 C
439 17-01-2015 03:30:00 5 C 91 % 3.66 C
440 17-01-2015 03:35:00 5 C 90 % 3.5 C
441 17-01-2015 03:40:00 5 C 90 % 3.5 C
442 17-01-2015 03:45:00 5 C 90 % 3.5 C
443 17-01-2015 03:50:00 5 C 90 % 3.5 C
444 17-01-2015 03:55:00 5 C 90 % 3.5 C
445 17-01-2015 04:00:00 5 C 91 % 3.66 C
446 17-01-2015 04:05:00 5 C 91 % 3.66 C
447 17-01-2015 04:10:00 4.9 C 91 % 3.56 C
448 17-01-2015 04:15:00 4.9 C 91 % 3.56 C
449 17-01-2015 04:20:00 4.9 C 91 % 3.56 C
450 17-01-2015 04:25:00 4.9 C 91 % 3.56 C
Sensor: Nr:Datum:Temp:Feuchte:Taupunkt:
Aussen-T/F 451 17-01-2015 04:30:00 4.9 C 91 % 3.56 C
452 17-01-2015 04:35:00 4.9 C 91 % 3.56 C
453 17-01-2015 04:40:00 4.9 C 91 % 3.56 C
454 17-01-2015 04:45:00 4.8 C 91 % 3.46 C
455 17-01-2015 04:50:00 4.9 C 91 % 3.56 C
456 17-01-2015 04:55:00 4.9 C 90 % 3.4 C
457 17-01-2015 05:00:00 4.9 C 91 % 3.56 C
458 17-01-2015 05:05:00 4.9 C 91 % 3.56 C
459 17-01-2015 05:10:00 4.9 C 91 % 3.56 C
460 17-01-2015 05:15:00 4.8 C 91 % 3.46 C
461 17-01-2015 05:20:00 4.8 C 92 % 3.61 C
462 17-01-2015 05:25:00 4.7 C 92 % 3.51 C
463 17-01-2015 05:30:00 4.6 C 92 % 3.42 C
464 17-01-2015 05:35:00 4.6 C 92 % 3.42 C
465 17-01-2015 05:40:00 4.5 C 93 % 3.47 C
466 17-01-2015 05:45:00 4.4 C 93 % 3.37 C
467 17-01-2015 05:50:00 4.4 C 93 % 3.37 C
468 17-01-2015 05:55:00 4.3 C 94 % 3.42 C
469 17-01-2015 06:00:00 4.3 C 94 % 3.42 C
470 17-01-2015 06:05:00 4.3 C 94 % 3.42 C
471 17-01-2015 06:10:00 4.3 C 94 % 3.42 C
472 17-01-2015 06:15:00 4.2 C 94 % 3.32 C
473 17-01-2015 06:20:00 4.1 C 94 % 3.22 C
474 17-01-2015 06:25:00 4 C 94 % 3.12 C
475 17-01-2015 06:30:00 3.9 C 95 % 3.17 C
Sensor: Nr:Datum:Temp:Feuchte:Taupunkt:
Aussen-T/F 476 17-01-2015 06:35:00 3.9 C 95 % 3.17 C
477 17-01-2015 06:40:00 3.9 C 95 % 3.17 C
478 17-01-2015 06:45:00 3.9 C 95 % 3.17 C
479 17-01-2015 06:50:00 3.9 C 95 % 3.17 C
480 17-01-2015 06:55:00 3.8 C 95 % 3.07 C
481 17-01-2015 07:00:00 3.7 C 95 % 2.98 C
482 17-01-2015 07:05:00 3.6 C 95 % 2.88 C
483 17-01-2015 07:10:00 3.5 C 95 % 2.78 C
484 17-01-2015 07:15:00 3.4 C 95 % 2.68 C
485 17-01-2015 07:20:00 3.3 C 95 % 2.58 C
486 17-01-2015 07:25:00 3.3 C 95 % 2.58 C
487 17-01-2015 07:30:00 3.2 C 96 % 2.63 C
488 17-01-2015 07:35:00 3.2 C 96 % 2.63 C
489 17-01-2015 07:40:00 3.1 C 96 % 2.53 C
490 17-01-2015 07:45:00 2.9 C 95 % 2.18 C
491 17-01-2015 07:50:00 2.8 C 95 % 2.08 C
492 17-01-2015 07:55:00 2.7 C 95 % 1.98 C
493 17-01-2015 08:00:00 2.7 C 96 % 2.13 C
494 17-01-2015 08:05:00 2.6 C 96 % 2.03 C
495 17-01-2015 08:10:00 2.6 C 96 % 2.03 C
496 17-01-2015 08:15:00 2.5 C 96 % 1.93 C
497 17-01-2015 08:20:00 2.5 C 96 % 1.93 C
498 17-01-2015 08:25:00 2.5 C 96 % 1.93 C
499 17-01-2015 08:30:00 2.4 C 96 % 1.83 C
500 17-01-2015 08:35:00 2.4 C 96 % 1.83 C
Sensor: Nr:Datum:Temp:Feuchte:Taupunkt:
Aussen-T/F 501 17-01-2015 08:40:00 2.3 C 96 % 1.73 C
502 17-01-2015 08:45:00 2.3 C 96 % 1.73 C
503 17-01-2015 08:50:00 2.4 C 96 % 1.83 C
504 17-01-2015 08:55:00 2.4 C 96 % 1.83 C
505 17-01-2015 09:00:00 2.3 C 96 % 1.73 C
506 17-01-2015 09:05:00 2.3 C 96 % 1.73 C
507 17-01-2015 09:10:00 2.3 C 96 % 1.73 C
508 17-01-2015 09:15:00 2.3 C 96 % 1.73 C
509 17-01-2015 09:20:00 2.3 C 96 % 1.73 C
510 17-01-2015 09:25:00 2.3 C 96 % 1.73 C
511 17-01-2015 09:30:00 2.3 C 96 % 1.73 C
512 17-01-2015 09:35:00 2.3 C 96 % 1.73 C
513 17-01-2015 09:40:00 2.3 C 96 % 1.73 C
514 17-01-2015 09:45:00 2.3 C 97 % 1.87 C
515 17-01-2015 09:50:00 2.3 C 96 % 1.73 C
516 17-01-2015 09:55:00 2.4 C 97 % 1.97 C
517 17-01-2015 10:00:00 2.4 C 97 % 1.97 C
518 17-01-2015 10:05:00 2.5 C 97 % 2.07 C
519 17-01-2015 10:10:00 2.6 C 97 % 2.17 C
520 17-01-2015 10:15:00 2.7 C 97 % 2.27 C
521 17-01-2015 10:20:00 2.8 C 97 % 2.37 C
522 17-01-2015 10:25:00 2.8 C 97 % 2.37 C
523 17-01-2015 10:30:00 2.8 C 97 % 2.37 C
524 17-01-2015 10:35:00 2.8 C 97 % 2.37 C
525 17-01-2015 10:40:00 2.9 C 97 % 2.47 C
Sensor: Nr:Datum:Temp:Feuchte:Taupunkt:
Aussen-T/F 526 17-01-2015 10:45:00 2.9 C 97 % 2.47 C
527 17-01-2015 10:50:00 2.9 C 96 % 2.33 C
528 17-01-2015 10:55:00 2.9 C 96 % 2.33 C
529 17-01-2015 11:00:00 2.9 C 96 % 2.33 C
530 17-01-2015 11:05:00 2.9 C 96 % 2.33 C
531 17-01-2015 11:10:00 3 C 96 % 2.43 C
532 17-01-2015 11:15:00 3 C 96 % 2.43 C
533 17-01-2015 11:20:00 3.1 C 96 % 2.53 C
534 17-01-2015 11:25:00 3.2 C 97 % 2.77 C
535 17-01-2015 11:30:00 3.3 C 96 % 2.72 C
536 17-01-2015 11:35:00 3.3 C 96 % 2.72 C
537 17-01-2015 11:40:00 3.4 C 96 % 2.82 C
538 17-01-2015 11:45:00 3.5 C 96 % 2.92 C
539 17-01-2015 11:50:00 3.6 C 96 % 3.02 C
540 17-01-2015 11:55:00 3.6 C 95 % 2.88 C
541 17-01-2015 12:00:00 3.7 C 95 % 2.98 C
542 17-01-2015 12:05:00 3.7 C 94 % 2.83 C
543 17-01-2015 12:10:00 3.8 C 93 % 2.77 C
544 17-01-2015 12:15:00 3.8 C 93 % 2.77 C
545 17-01-2015 12:20:00 3.9 C 92 % 2.72 C
546 17-01-2015 12:25:00 4 C 92 % 2.82 C
547 17-01-2015 12:30:00 4.1 C 91 % 2.77 C
548 17-01-2015 12:35:00 4.2 C 91 % 2.87 C
549 17-01-2015 12:40:00 4.2 C 90 % 2.71 C
550 17-01-2015 12:45:00 4.2 C 89 % 2.55 C
Sensor: Nr:Datum:Temp:Feuchte:Taupunkt:
Aussen-T/F 551 17-01-2015 12:50:00 4.3 C 89 % 2.65 C
552 17-01-2015 12:55:00 4.3 C 88 % 2.49 C
553 17-01-2015 13:00:00 4.4 C 89 % 2.75 C
554 17-01-2015 13:05:00 4.4 C 88 % 2.59 C
555 17-01-2015 13:10:00 4.4 C 88 % 2.59 C
556 17-01-2015 13:15:00 4.5 C 88 % 2.69 C
557 17-01-2015 13:20:00 4.6 C 87 % 2.63 C
558 17-01-2015 13:25:00 4.8 C 85 % 2.5 C
559 17-01-2015 13:30:00 4.9 C 84 % 2.43 C
560 17-01-2015 13:35:00 5.1 C 83 % 2.46 C
561 17-01-2015 13:40:00 5.2 C 81 % 2.21 C
562 17-01-2015 13:45:00 5.3 C 82 % 2.48 C
563 17-01-2015 13:50:00 5.3 C 81 % 2.31 C
564 17-01-2015 13:55:00 5.3 C 81 % 2.31 C
565 17-01-2015 14:00:00 5.3 C 80 % 2.14 C
566 17-01-2015 14:05:00 5.4 C 79 % 2.06 C
567 17-01-2015 14:10:00 5.4 C 79 % 2.06 C
568 17-01-2015 14:15:00 5.5 C 79 % 2.16 C
569 17-01-2015 14:20:00 5.6 C 80 % 2.43 C
570 17-01-2015 14:25:00 5.6 C 80 % 2.43 C
571 17-01-2015 14:30:00 5.6 C 81 % 2.6 C
572 17-01-2015 14:35:00 5.6 C 80 % 2.43 C
573 17-01-2015 14:40:00 5.6 C 81 % 2.6 C
574 17-01-2015 14:45:00 5.5 C 80 % 2.33 C
575 17-01-2015 14:50:00 5.5 C 78 % 1.98 C
Sensor: Nr:Datum:Temp:Feuchte:Taupunkt:
Aussen-T/F 576 17-01-2015 14:55:00 5.6 C 79 % 2.25 C
577 17-01-2015 15:00:00 5.6 C 80 % 2.43 C
578 17-01-2015 15:05:00 5.6 C 79 % 2.25 C
579 17-01-2015 15:10:00 5.6 C 79 % 2.25 C
580 17-01-2015 15:15:00 5.6 C 80 % 2.43 C
581 17-01-2015 15:20:00 5.6 C 81 % 2.6 C
582 17-01-2015 15:25:00 5.6 C 82 % 2.78 C
583 17-01-2015 15:30:00 5.5 C 80 % 2.33 C
584 17-01-2015 15:35:00 5.4 C 81 % 2.41 C
585 17-01-2015 15:40:00 5.4 C 80 % 2.23 C
586 17-01-2015 15:45:00 5.4 C 80 % 2.23 C
587 17-01-2015 15:50:00 5.4 C 82 % 2.58 C
588 17-01-2015 15:55:00 5.3 C 83 % 2.65 C
589 17-01-2015 16:00:00 5.2 C 84 % 2.72 C
590 17-01-2015 16:05:00 5.2 C 85 % 2.89 C
591 17-01-2015 16:10:00 5.1 C 84 % 2.63 C
592 17-01-2015 16:15:00 5 C 83 % 2.36 C
593 17-01-2015 16:20:00 5 C 84 % 2.53 C
594 17-01-2015 16:25:00 4.9 C 84 % 2.43 C
595 17-01-2015 16:30:00 4.8 C 86 % 2.66 C
596 17-01-2015 16:35:00 4.8 C 87 % 2.82 C
597 17-01-2015 16:40:00 4.7 C 87 % 2.73 C
598 17-01-2015 16:45:00 4.4 C 88 % 2.59 C
599 17-01-2015 16:50:00 4.2 C 89 % 2.55 C
600 17-01-2015 16:55:00 3.9 C 89 % 2.26 C
Sensor: Nr:Datum:Temp:Feuchte:Taupunkt:
Aussen-T/F 601 17-01-2015 17:00:00 3.6 C 90 % 2.12 C
602 17-01-2015 17:05:00 3.3 C 90 % 1.82 C
603 17-01-2015 17:10:00 3.2 C 91 % 1.88 C
604 17-01-2015 17:15:00 2.9 C 91 % 1.58 C
605 17-01-2015 17:20:00 2.8 C 91 % 1.48 C
606 17-01-2015 17:25:00 2.7 C 92 % 1.53 C
607 17-01-2015 17:30:00 2.6 C 92 % 1.43 C
608 17-01-2015 17:35:00 2.5 C 92 % 1.34 C
609 17-01-2015 17:40:00 2.4 C 92 % 1.24 C
610 17-01-2015 17:45:00 2.3 C 93 % 1.29 C
611 17-01-2015 17:50:00 2.2 C 93 % 1.19 C
612 17-01-2015 17:55:00 2.2 C 93 % 1.19 C
613 17-01-2015 18:00:00 2.1 C 93 % 1.09 C
614 17-01-2015 18:05:00 1.9 C 93 % 0.89 C
615 17-01-2015 18:10:00 1.9 C 93 % 0.89 C
616 17-01-2015 18:15:00 1.9 C 94 % 1.04 C
617 17-01-2015 18:20:00 1.8 C 94 % 0.94 C
618 17-01-2015 18:25:00 1.8 C 94 % 0.94 C
619 17-01-2015 18:30:00 1.7 C 94 % 0.84 C
620 17-01-2015 18:35:00 1.7 C 94 % 0.84 C
621 17-01-2015 18:40:00 1.7 C 94 % 0.84 C
622 17-01-2015 18:45:00 1.6 C 94 % 0.74 C
623 17-01-2015 18:50:00 1.4 C 94 % 0.54 C
624 17-01-2015 18:55:00 1.3 C 94 % 0.44 C
625 17-01-2015 19:00:00 1.3 C 94 % 0.44 C
Sensor: Nr:Datum:Temp:Feuchte:Taupunkt:
Aussen-T/F 626 17-01-2015 19:05:00 1.2 C 94 % 0.34 C
627 17-01-2015 19:10:00 1.1 C 94 % 0.24 C
628 17-01-2015 19:15:00 1 C 94 % 0.15 C
629 17-01-2015 19:20:00 0.9 C 94 % 0.05 C
630 17-01-2015 19:25:00 0.9 C 94 % 0.05 C
631 17-01-2015 19:30:00 0.8 C 94 % -0.05 C
632 17-01-2015 19:35:00 0.8 C 94 % -0.05 C
633 17-01-2015 19:40:00 0.7 C 95 % -0.01 C
634 17-01-2015 19:45:00 0.7 C 95 % -0.01 C
635 17-01-2015 19:50:00 0.7 C 95 % -0.01 C
636 17-01-2015 19:55:00 0.7 C 95 % -0.01 C
637 17-01-2015 20:00:00 0.7 C 95 % -0.01 C
638 17-01-2015 20:05:00 0.7 C 95 % -0.01 C
639 17-01-2015 20:10:00 0.7 C 95 % -0.01 C
640 17-01-2015 20:15:00 0.6 C 95 % -0.11 C
641 17-01-2015 20:20:00 0.5 C 95 % -0.21 C
642 17-01-2015 20:25:00 0.5 C 95 % -0.21 C
643 17-01-2015 20:30:00 0.4 C 95 % -0.31 C
644 17-01-2015 20:35:00 0.4 C 95 % -0.31 C
645 17-01-2015 20:40:00 0.4 C 95 % -0.31 C
646 17-01-2015 20:45:00 0.4 C 95 % -0.31 C
647 17-01-2015 20:50:00 0.4 C 95 % -0.31 C
648 17-01-2015 20:55:00 0.4 C 95 % -0.31 C
649 17-01-2015 21:00:00 0.3 C 95 % -0.4 C
650 17-01-2015 21:05:00 0.2 C 95 % -0.5 C
Sensor: Nr:Datum:Temp:Feuchte:Taupunkt:
Aussen-T/F 651 17-01-2015 21:10:00 0.2 C 95 % -0.5 C
652 17-01-2015 21:15:00 0.1 C 95 % -0.6 C
653 17-01-2015 21:20:00 0.1 C 95 % -0.6 C
654 17-01-2015 21:25:00 0.1 C 95 % -0.6 C
655 17-01-2015 21:30:00 0.1 C 95 % -0.6 C
656 17-01-2015 21:35:00 0.1 C 95 % -0.6 C
657 17-01-2015 21:40:00 0.1 C 95 % -0.6 C
658 17-01-2015 21:45:00 0.1 C 95 % -0.6 C
659 17-01-2015 21:50:00 0 C 95 % -0.7 C
660 17-01-2015 21:55:00 -0.1 C 95 % -0.8 C
661 17-01-2015 22:00:00 -0.2 C 95 % -0.9 C
662 17-01-2015 22:05:00 -0.2 C 95 % -0.9 C
663 17-01-2015 22:10:00 -0.1 C 95 % -0.8 C
664 17-01-2015 22:15:00 -0.1 C 95 % -0.8 C
665 17-01-2015 22:20:00 0.1 C 96 % -0.46 C
666 17-01-2015 22:25:00 0.1 C 96 % -0.46 C
667 17-01-2015 22:30:00 0.3 C 96 % -0.26 C
668 17-01-2015 22:35:00 0.6 C 96 % 0.04 C
669 17-01-2015 22:40:00 1 C 95 % 0.29 C
670 17-01-2015 22:45:00 1.4 C 94 % 0.54 C
671 17-01-2015 22:50:00 1.7 C 92 % 0.54 C
672 17-01-2015 22:55:00 1.9 C 90 % 0.44 C
673 17-01-2015 23:00:00 2.1 C 89 % 0.48 C
674 17-01-2015 23:05:00 2.1 C 88 % 0.33 C
675 17-01-2015 23:10:00 2.2 C 88 % 0.42 C
Sensor: Nr:Datum:Temp:Feuchte:Taupunkt:
Aussen-T/F 676 17-01-2015 23:15:00 2.2 C 87 % 0.27 C
677 17-01-2015 23:20:00 2.2 C 87 % 0.27 C
678 17-01-2015 23:25:00 2.3 C 87 % 0.36 C
679 17-01-2015 23:30:00 2.4 C 86 % 0.3 C
680 17-01-2015 23:35:00 2.4 C 86 % 0.3 C
681 17-01-2015 23:40:00 2.4 C 86 % 0.3 C
682 17-01-2015 23:45:00 2.4 C 85 % 0.14 C
683 17-01-2015 23:50:00 2.4 C 85 % 0.14 C
684 17-01-2015 23:55:00 2.4 C 85 % 0.14 C
685 18-01-2015 00:00:00 2.4 C 85 % 0.14 C
686 18-01-2015 00:05:00 2.3 C 84 % -0.12 C
687 18-01-2015 00:10:00 2.3 C 84 % -0.12 C
688 18-01-2015 00:15:00 2.2 C 84 % -0.22 C
689 18-01-2015 00:20:00 2.2 C 84 % -0.22 C
690 18-01-2015 00:25:00 2.2 C 84 % -0.22 C
691 18-01-2015 00:30:00 2.1 C 84 % -0.31 C
692 18-01-2015 00:35:00 1.8 C 85 % -0.45 C
693 18-01-2015 00:40:00 1.7 C 85 % -0.54 C
694 18-01-2015 00:45:00 1.7 C 85 % -0.54 C
695 18-01-2015 00:50:00 1.6 C 86 % -0.48 C
696 18-01-2015 00:55:00 1.6 C 86 % -0.48 C
697 18-01-2015 01:00:00 1.5 C 86 % -0.58 C
698 18-01-2015 01:05:00 1.6 C 86 % -0.48 C
699 18-01-2015 01:10:00 1.4 C 86 % -0.68 C
700 18-01-2015 01:15:00 1.2 C 88 % -0.56 C
Sensor: Nr:Datum:Temp:Feuchte:Taupunkt:
Aussen-T/F 701 18-01-2015 01:20:00 1.1 C 88 % -0.66 C
702 18-01-2015 01:25:00 1.1 C 89 % -0.51 C
703 18-01-2015 01:30:00 1.1 C 89 % -0.51 C
704 18-01-2015 01:35:00 1.3 C 89 % -0.31 C
705 18-01-2015 01:40:00 1.7 C 87 % -0.23 C
706 18-01-2015 01:45:00 1.8 C 86 % -0.29 C
707 18-01-2015 01:50:00 2 C 85 % -0.25 C
708 18-01-2015 01:55:00 2.1 C 85 % -0.15 C
709 18-01-2015 02:00:00 2.1 C 85 % -0.15 C
710 18-01-2015 02:05:00 2.2 C 85 % -0.05 C
711 18-01-2015 02:10:00 2.2 C 84 % -0.22 C
712 18-01-2015 02:15:00 2.2 C 84 % -0.22 C
713 18-01-2015 02:20:00 2.2 C 84 % -0.22 C
714 18-01-2015 02:25:00 2.3 C 84 % -0.12 C
715 18-01-2015 02:30:00 2.4 C 84 % -0.02 C
716 18-01-2015 02:35:00 2.4 C 83 % -0.18 C
717 18-01-2015 02:40:00 2.4 C 84 % -0.02 C
718 18-01-2015 02:45:00 2.5 C 83 % -0.09 C
719 18-01-2015 02:50:00 2.6 C 83 % 0.01 C
720 18-01-2015 02:55:00 2.7 C 82 % -0.06 C
721 18-01-2015 03:00:00 2.7 C 82 % -0.06 C
722 18-01-2015 03:05:00 2.7 C 82 % -0.06 C
723 18-01-2015 03:10:00 2.7 C 82 % -0.06 C
724 18-01-2015 03:15:00 2.6 C 82 % -0.16 C
725 18-01-2015 03:20:00 2.6 C 82 % -0.16 C
Sensor: Nr:Datum:Temp:Feuchte:Taupunkt:
Aussen-T/F 726 18-01-2015 03:25:00 2.6 C 81 % -0.32 C
727 18-01-2015 03:30:00 2.6 C 82 % -0.16 C
728 18-01-2015 03:35:00 2.6 C 82 % -0.16 C
729 18-01-2015 03:40:00 2.6 C 81 % -0.32 C
730 18-01-2015 03:45:00 2.6 C 81 % -0.32 C
731 18-01-2015 03:50:00 2.6 C 81 % -0.32 C
732 18-01-2015 03:55:00 2.6 C 81 % -0.32 C
733 18-01-2015 04:00:00 2.6 C 81 % -0.32 C
734 18-01-2015 04:05:00 2.6 C 80 % -0.49 C
735 18-01-2015 04:10:00 2.6 C 81 % -0.32 C
736 18-01-2015 04:15:00 2.6 C 80 % -0.49 C
737 18-01-2015 04:20:00 2.6 C 79 % -0.67 C
738 18-01-2015 04:25:00 2.6 C 79 % -0.67 C
739 18-01-2015 04:30:00 2.6 C 79 % -0.67 C
740 18-01-2015 04:35:00 2.4 C 81 % -0.52 C
741 18-01-2015 04:40:00 2.3 C 81 % -0.62 C
742 18-01-2015 04:45:00 2.2 C 82 % -0.55 C
743 18-01-2015 04:50:00 1.9 C 83 % -0.67 C
744 18-01-2015 04:55:00 1.7 C 85 % -0.54 C
745 18-01-2015 05:00:00 1.5 C 86 % -0.58 C
746 18-01-2015 05:05:00 1.3 C 87 % -0.62 C
747 18-01-2015 05:10:00 1.2 C 87 % -0.72 C
748 18-01-2015 05:15:00 1.1 C 88 % -0.66 C
749 18-01-2015 05:20:00 0.9 C 89 % -0.7 C
750 18-01-2015 05:25:00 0.8 C 89 % -0.8 C
Sensor: Nr:Datum:Temp:Feuchte:Taupunkt:
Aussen-T/F 751 18-01-2015 05:30:00 0.7 C 90 % -0.75 C
752 18-01-2015 05:35:00 0.6 C 90 % -0.85 C
753 18-01-2015 05:40:00 0.6 C 90 % -0.85 C
754 18-01-2015 05:45:00 0.5 C 91 % -0.79 C
755 18-01-2015 05:50:00 0.5 C 91 % -0.79 C
756 18-01-2015 05:55:00 0.5 C 91 % -0.79 C
757 18-01-2015 06:00:00 0.5 C 91 % -0.79 C
758 18-01-2015 06:05:00 0.5 C 91 % -0.79 C
759 18-01-2015 06:10:00 0.5 C 91 % -0.79 C
760 18-01-2015 06:15:00 0.4 C 91 % -0.89 C
761 18-01-2015 06:20:00 0.5 C 91 % -0.79 C
762 18-01-2015 06:25:00 0.4 C 91 % -0.89 C
763 18-01-2015 06:30:00 0.4 C 91 % -0.89 C
764 18-01-2015 06:35:00 0.6 C 91 % -0.7 C
765 18-01-2015 06:40:00 0.7 C 90 % -0.75 C
766 18-01-2015 06:45:00 0.8 C 89 % -0.8 C
767 18-01-2015 06:50:00 0.9 C 89 % -0.7 C
768 18-01-2015 06:55:00 1 C 89 % -0.6 C
769 18-01-2015 07:00:00 1 C 88 % -0.76 C
770 18-01-2015 07:05:00 1 C 89 % -0.6 C
771 18-01-2015 07:10:00 1 C 89 % -0.6 C
772 18-01-2015 07:15:00 0.9 C 89 % -0.7 C
773 18-01-2015 07:20:00 0.9 C 89 % -0.7 C
774 18-01-2015 07:25:00 1.1 C 89 % -0.51 C
775 18-01-2015 07:30:00 1.2 C 88 % -0.56 C
Sensor: Nr:Datum:Temp:Feuchte:Taupunkt:
Aussen-T/F 776 18-01-2015 07:35:00 1.2 C 88 % -0.56 C
777 18-01-2015 07:40:00 1.2 C 88 % -0.56 C
778 18-01-2015 07:45:00 1.3 C 87 % -0.62 C
779 18-01-2015 07:50:00 1.3 C 87 % -0.62 C
780 18-01-2015 07:55:00 1.3 C 87 % -0.62 C
781 18-01-2015 08:00:00 1.3 C 87 % -0.62 C
782 18-01-2015 08:05:00 1.3 C 86 % -0.78 C
783 18-01-2015 08:10:00 1.4 C 86 % -0.68 C
784 18-01-2015 08:15:00 1.3 C 86 % -0.78 C
785 18-01-2015 08:20:00 1.3 C 86 % -0.78 C
786 18-01-2015 08:25:00 1.3 C 86 % -0.78 C
787 18-01-2015 08:30:00 1.3 C 86 % -0.78 C
788 18-01-2015 08:35:00 1.4 C 86 % -0.68 C
789 18-01-2015 08:40:00 1.4 C 86 % -0.68 C
790 18-01-2015 08:45:00 1.4 C 86 % -0.68 C
791 18-01-2015 08:50:00 1.3 C 87 % -0.62 C
792 18-01-2015 08:55:00 1.4 C 86 % -0.68 C
793 18-01-2015 09:00:00 1.4 C 87 % -0.52 C
794 18-01-2015 09:05:00 1.3 C 88 % -0.46 C
795 18-01-2015 09:10:00 1.3 C 87 % -0.62 C
796 18-01-2015 09:15:00 1.3 C 87 % -0.62 C
797 18-01-2015 09:20:00 1.3 C 88 % -0.46 C
798 18-01-2015 09:25:00 1.4 C 88 % -0.36 C
799 18-01-2015 09:30:00 1.4 C 87 % -0.52 C
800 18-01-2015 09:35:00 1.6 C 87 % -0.32 C
Sensor: Nr:Datum:Temp:Feuchte:Taupunkt:
Aussen-T/F 801 18-01-2015 09:40:00 1.7 C 86 % -0.38 C
802 18-01-2015 09:45:00 1.8 C 85 % -0.45 C
803 18-01-2015 09:50:00 2.1 C 84 % -0.31 C
804 18-01-2015 09:55:00 2.2 C 84 % -0.22 C
805 18-01-2015 10:00:00 2.3 C 83 % -0.28 C
806 18-01-2015 10:05:00 2.4 C 83 % -0.18 C
807 18-01-2015 10:10:00 2.6 C 82 % -0.16 C
808 18-01-2015 10:15:00 2.7 C 82 % -0.06 C
809 18-01-2015 10:20:00 2.9 C 80 % -0.2 C
810 18-01-2015 10:25:00 3.1 C 79 % -0.18 C
811 18-01-2015 10:30:00 3.3 C 79 % 0.02 C
812 18-01-2015 10:35:00 3.4 C 79 % 0.11 C
813 18-01-2015 10:40:00 3.5 C 78 % 0.04 C
814 18-01-2015 10:45:00 3.7 C 78 % 0.23 C
815 18-01-2015 10:50:00 3.8 C 77 % 0.15 C
816 18-01-2015 10:55:00 3.9 C 77 % 0.25 C
817 18-01-2015 11:00:00 4 C 75 % -0.02 C
818 18-01-2015 11:05:00 4.2 C 75 % 0.17 C
819 18-01-2015 11:10:00 4.2 C 75 % 0.17 C
820 18-01-2015 11:15:00 4.3 C 75 % 0.27 C
821 18-01-2015 11:20:00 4.3 C 74 % 0.09 C
822 18-01-2015 11:25:00 4.4 C 74 % 0.18 C
823 18-01-2015 11:30:00 4.4 C 74 % 0.18 C
824 18-01-2015 11:35:00 4.5 C 74 % 0.28 C
825 18-01-2015 11:40:00 4.6 C 74 % 0.38 C
Sensor: Nr:Datum:Temp:Feuchte:Taupunkt:
Aussen-T/F 826 18-01-2015 11:45:00 4.7 C 74 % 0.47 C
827 18-01-2015 11:50:00 4.8 C 74 % 0.57 C
828 18-01-2015 11:55:00 4.9 C 73 % 0.48 C
829 18-01-2015 12:00:00 5 C 73 % 0.57 C
830 18-01-2015 12:05:00 5.1 C 72 % 0.48 C
831 18-01-2015 12:10:00 5.2 C 73 % 0.77 C
832 18-01-2015 12:15:00 5.2 C 72 % 0.58 C
833 18-01-2015 12:20:00 5.2 C 71 % 0.38 C
834 18-01-2015 12:25:00 5.2 C 71 % 0.38 C
835 18-01-2015 12:30:00 5.2 C 71 % 0.38 C
836 18-01-2015 12:35:00 5.2 C 70 % 0.19 C
837 18-01-2015 12:40:00 5.2 C 70 % 0.19 C
838 18-01-2015 12:45:00 5.2 C 70 % 0.19 C
839 18-01-2015 12:50:00 5.2 C 71 % 0.38 C
840 18-01-2015 12:55:00 5.2 C 71 % 0.38 C
841 18-01-2015 13:00:00 5.2 C 71 % 0.38 C
842 18-01-2015 13:05:00 5.2 C 72 % 0.58 C
843 18-01-2015 13:10:00 5.3 C 70 % 0.28 C
844 18-01-2015 13:15:00 5.3 C 70 % 0.28 C
845 18-01-2015 13:20:00 5.3 C 70 % 0.28 C
846 18-01-2015 13:25:00 5.3 C 71 % 0.48 C
847 18-01-2015 13:30:00 5.3 C 72 % 0.67 C
848 18-01-2015 13:35:00 5.4 C 71 % 0.58 C
849 18-01-2015 13:40:00 5.4 C 70 % 0.38 C
850 18-01-2015 13:45:00 5.4 C 70 % 0.38 C
Sensor: Nr:Datum:Temp:Feuchte:Taupunkt:
Aussen-T/F 851 18-01-2015 13:50:00 5.5 C 72 % 0.86 C
852 18-01-2015 13:55:00 5.6 C 70 % 0.57 C
853 18-01-2015 14:00:00 5.5 C 72 % 0.86 C
854 18-01-2015 14:05:00 5.4 C 72 % 0.77 C
855 18-01-2015 14:10:00 5.4 C 72 % 0.77 C
856 18-01-2015 14:15:00 5.4 C 74 % 1.15 C
857 18-01-2015 14:20:00 5.3 C 73 % 0.86 C
858 18-01-2015 14:25:00 5.2 C 73 % 0.77 C
859 18-01-2015 14:30:00 5.2 C 74 % 0.95 C
860 18-01-2015 14:35:00 5.1 C 74 % 0.86 C
861 18-01-2015 14:40:00 5.1 C 74 % 0.86 C
862 18-01-2015 14:45:00 5 C 74 % 0.76 C
863 18-01-2015 14:50:00 5 C 74 % 0.76 C
864 18-01-2015 14:55:00 5 C 74 % 0.76 C
865 18-01-2015 15:00:00 4.9 C 74 % 0.67 C
866 18-01-2015 15:05:00 4.9 C 75 % 0.85 C
867 18-01-2015 15:10:00 4.9 C 75 % 0.85 C
868 18-01-2015 15:15:00 4.9 C 75 % 0.85 C
869 18-01-2015 15:20:00 4.8 C 75 % 0.75 C
870 18-01-2015 15:25:00 4.8 C 75 % 0.75 C
871 18-01-2015 15:30:00 4.8 C 75 % 0.75 C
872 18-01-2015 15:35:00 4.7 C 76 % 0.84 C
873 18-01-2015 15:40:00 4.7 C 76 % 0.84 C
874 18-01-2015 15:45:00 4.6 C 80 % 1.46 C
875 18-01-2015 15:50:00 4.5 C 78 % 1.01 C
Sensor: Nr:Datum:Temp:Feuchte:Taupunkt:
Aussen-T/F 876 18-01-2015 15:55:00 4.4 C 78 % 0.91 C
877 18-01-2015 16:00:00 4.3 C 79 % 0.99 C
878 18-01-2015 16:05:00 4.2 C 80 % 1.07 C
879 18-01-2015 16:10:00 4 C 80 % 0.87 C
880 18-01-2015 16:15:00 3.8 C 81 % 0.85 C
881 18-01-2015 16:20:00 3.7 C 82 % 0.92 C
882 18-01-2015 16:25:00 3.5 C 82 % 0.72 C
883 18-01-2015 16:30:00 3.3 C 83 % 0.7 C
884 18-01-2015 16:35:00 3.1 C 83 % 0.5 C
885 18-01-2015 16:40:00 2.9 C 83 % 0.31 C
886 18-01-2015 16:45:00 2.8 C 83 % 0.21 C
887 18-01-2015 16:50:00 2.6 C 84 % 0.18 C
888 18-01-2015 16:55:00 2.3 C 85 % 0.04 C
889 18-01-2015 17:00:00 2.1 C 85 % -0.15 C
890 18-01-2015 17:05:00 1.9 C 86 % -0.19 C
891 18-01-2015 17:10:00 1.8 C 87 % -0.13 C
892 18-01-2015 17:15:00 1.7 C 87 % -0.23 C
893 18-01-2015 17:20:00 1.6 C 87 % -0.32 C
894 18-01-2015 17:25:00 1.6 C 88 % -0.17 C
895 18-01-2015 17:30:00 1.5 C 88 % -0.27 C
896 18-01-2015 17:35:00 1.5 C 88 % -0.27 C
897 18-01-2015 17:40:00 1.4 C 89 % -0.21 C
898 18-01-2015 17:45:00 1.3 C 89 % -0.31 C
899 18-01-2015 17:50:00 1.2 C 89 % -0.41 C
900 18-01-2015 17:55:00 1.2 C 89 % -0.41 C
Sensor: Nr:Datum:Temp:Feuchte:Taupunkt:
Aussen-T/F 901 18-01-2015 18:00:00 1.1 C 89 % -0.51 C
902 18-01-2015 18:05:00 1 C 89 % -0.6 C
903 18-01-2015 18:10:00 0.8 C 89 % -0.8 C
904 18-01-2015 18:15:00 0.7 C 90 % -0.75 C
905 18-01-2015 18:20:00 0.6 C 90 % -0.85 C
906 18-01-2015 18:25:00 0.6 C 90 % -0.85 C
907 18-01-2015 18:30:00 0.4 C 90 % -1.04 C
908 18-01-2015 18:35:00 0.3 C 90 % -1.14 C
909 18-01-2015 18:40:00 0.3 C 91 % -0.99 C
910 18-01-2015 18:45:00 0.2 C 91 % -1.09 C
911 18-01-2015 18:50:00 0.2 C 91 % -1.09 C
912 18-01-2015 18:55:00 0.1 C 91 % -1.19 C
913 18-01-2015 19:00:00 0.1 C 92 % -1.04 C
914 18-01-2015 19:05:00 0 C 91 % -1.29 C
915 18-01-2015 19:10:00 -0.1 C 91 % -1.39 C
916 18-01-2015 19:15:00 -0.1 C 91 % -1.39 C
917 18-01-2015 19:20:00 -0.1 C 91 % -1.39 C
918 18-01-2015 19:25:00 -0.2 C 91 % -1.49 C
919 18-01-2015 19:30:00 -0.2 C 91 % -1.49 C
920 18-01-2015 19:35:00 -0.2 C 91 % -1.49 C
921 18-01-2015 19:40:00 -0.2 C 92 % -1.34 C
922 18-01-2015 19:45:00 -0.2 C 91 % -1.49 C
923 18-01-2015 19:50:00 -0.2 C 91 % -1.49 C
924 18-01-2015 19:55:00 -0.2 C 91 % -1.49 C
925 18-01-2015 20:00:00 -0.3 C 92 % -1.44 C
Sensor: Nr:Datum:Temp:Feuchte:Taupunkt:
Aussen-T/F 926 18-01-2015 20:05:00 -0.3 C 92 % -1.44 C
927 18-01-2015 20:10:00 -0.3 C 91 % -1.59 C
928 18-01-2015 20:15:00 -0.4 C 91 % -1.69 C
929 18-01-2015 20:20:00 -0.5 C 91 % -1.78 C
930 18-01-2015 20:25:00 -0.6 C 91 % -1.88 C
931 18-01-2015 20:30:00 -0.7 C 92 % -1.83 C
932 18-01-2015 20:35:00 -0.7 C 92 % -1.83 C
933 18-01-2015 20:40:00 -0.8 C 92 % -1.93 C
934 18-01-2015 20:45:00 -0.8 C 92 % -1.93 C
935 18-01-2015 20:50:00 -0.8 C 93 % -1.79 C
936 18-01-2015 20:55:00 -0.8 C 93 % -1.79 C
937 18-01-2015 21:00:00 -0.8 C 93 % -1.79 C
938 18-01-2015 21:05:00 -0.8 C 93 % -1.79 C
939 18-01-2015 21:10:00 -0.8 C 93 % -1.79 C
940 18-01-2015 21:15:00 -0.9 C 93 % -1.89 C
941 18-01-2015 21:20:00 -0.9 C 93 % -1.89 C
942 18-01-2015 21:25:00 -0.9 C 93 % -1.89 C
943 18-01-2015 21:30:00 -0.9 C 93 % -1.89 C
944 18-01-2015 21:35:00 -1 C 93 % -1.99 C
945 18-01-2015 21:40:00 -1 C 93 % -1.99 C
946 18-01-2015 21:45:00 -1.1 C 93 % -2.09 C
947 18-01-2015 21:50:00 -1.1 C 93 % -2.09 C
948 18-01-2015 21:55:00 -1.2 C 93 % -2.18 C
949 18-01-2015 22:00:00 -1.2 C 93 % -2.18 C
950 18-01-2015 22:05:00 -1.2 C 94 % -2.04 C
Sensor: Nr:Datum:Temp:Feuchte:Taupunkt:
Aussen-T/F 951 18-01-2015 22:10:00 -1.2 C 94 % -2.04 C
952 18-01-2015 22:15:00 -1.2 C 94 % -2.04 C
953 18-01-2015 22:20:00 -1.2 C 94 % -2.04 C
954 18-01-2015 22:25:00 -1.2 C 94 % -2.04 C
955 18-01-2015 22:30:00 -1.2 C 94 % -2.04 C
956 18-01-2015 22:35:00 -1.2 C 94 % -2.04 C
957 18-01-2015 22:40:00 -1.2 C 94 % -2.04 C
958 18-01-2015 22:45:00 -1.2 C 94 % -2.04 C
959 18-01-2015 22:50:00 -1.2 C 94 % -2.04 C
960 18-01-2015 22:55:00 -1.2 C 94 % -2.04 C
961 18-01-2015 23:00:00 -1.3 C 94 % -2.14 C
962 18-01-2015 23:05:00 -1.3 C 94 % -2.14 C
963 18-01-2015 23:10:00 -1.4 C 94 % -2.24 C
964 18-01-2015 23:15:00 -1.4 C 94 % -2.24 C
965 18-01-2015 23:20:00 -1.4 C 94 % -2.24 C
966 18-01-2015 23:25:00 -1.4 C 94 % -2.24 C
967 18-01-2015 23:30:00 -1.4 C 95 % -2.1 C
968 18-01-2015 23:35:00 -1.2 C 95 % -1.9 C
969 18-01-2015 23:40:00 -1 C 95 % -1.7 C
970 18-01-2015 23:45:00 -0.8 C 95 % -1.5 C
971 18-01-2015 23:50:00 -0.6 C 96 % -1.16 C
972 18-01-2015 23:55:00 -0.4 C 95 % -1.1 C
973 19-01-2015 00:00:00 -0.3 C 95 % -1 C
974 19-01-2015 00:05:00 -0.2 C 95 % -0.9 C
975 19-01-2015 00:10:00 -0.2 C 95 % -0.9 C
Sensor: Nr:Datum:Temp:Feuchte:Taupunkt:
Aussen-T/F 976 19-01-2015 00:15:00 0 C 95 % -0.7 C
977 19-01-2015 00:20:00 0.1 C 95 % -0.6 C
978 19-01-2015 00:25:00 0.1 C 94 % -0.75 C
979 19-01-2015 00:30:00 0.2 C 94 % -0.65 C
980 19-01-2015 00:35:00 0.2 C 94 % -0.65 C
981 19-01-2015 00:40:00 0.3 C 94 % -0.55 C
982 19-01-2015 00:45:00 0.3 C 93 % -0.7 C
983 19-01-2015 00:50:00 0.3 C 93 % -0.7 C
984 19-01-2015 00:55:00 0.3 C 93 % -0.7 C
985 19-01-2015 01:00:00 0.3 C 93 % -0.7 C
986 19-01-2015 01:05:00 0.3 C 92 % -0.84 C
987 19-01-2015 01:10:00 0.2 C 92 % -0.94 C
988 19-01-2015 01:15:00 0.2 C 92 % -0.94 C
989 19-01-2015 01:20:00 0.1 C 92 % -1.04 C
990 19-01-2015 01:25:00 0.1 C 92 % -1.04 C
991 19-01-2015 01:30:00 0.2 C 92 % -0.94 C
992 19-01-2015 01:35:00 0.1 C 92 % -1.04 C
993 19-01-2015 01:40:00 0.1 C 92 % -1.04 C
994 19-01-2015 01:45:00 0.1 C 92 % -1.04 C
995 19-01-2015 01:50:00 0.1 C 92 % -1.04 C
996 19-01-2015 01:55:00 0 C 92 % -1.14 C
997 19-01-2015 02:00:00 0 C 93 % -0.99 C
998 19-01-2015 02:05:00 0 C 93 % -0.99 C
999 19-01-2015 02:10:00 0.1 C 93 % -0.89 C
1000 19-01-2015 02:15:00 0.1 C 93 % -0.89 C
Sensor: Nr:Datum:Temp:Feuchte:Taupunkt:
Aussen-T/F 1001 19-01-2015 02:20:00 0.1 C 93 % -0.89 C
1002 19-01-2015 02:25:00 0.1 C 93 % -0.89 C
1003 19-01-2015 02:30:00 0.2 C 93 % -0.79 C
1004 19-01-2015 02:35:00 0.2 C 93 % -0.79 C
1005 19-01-2015 02:40:00 0.2 C 93 % -0.79 C
1006 19-01-2015 02:45:00 0.2 C 93 % -0.79 C
1007 19-01-2015 02:50:00 0.2 C 93 % -0.79 C
1008 19-01-2015 02:55:00 0.2 C 94 % -0.65 C
1009 19-01-2015 03:00:00 0.3 C 94 % -0.55 C
1010 19-01-2015 03:05:00 0.3 C 94 % -0.55 C
1011 19-01-2015 03:10:00 0.3 C 94 % -0.55 C
1012 19-01-2015 03:15:00 0.3 C 94 % -0.55 C
1013 19-01-2015 03:20:00 0.4 C 94 % -0.45 C
1014 19-01-2015 03:25:00 0.4 C 94 % -0.45 C
1015 19-01-2015 03:30:00 0.4 C 94 % -0.45 C
1016 19-01-2015 03:35:00 0.4 C 94 % -0.45 C
1017 19-01-2015 03:40:00 0.4 C 94 % -0.45 C
1018 19-01-2015 03:45:00 0.4 C 94 % -0.45 C
1019 19-01-2015 03:50:00 0.5 C 94 % -0.35 C
1020 19-01-2015 03:55:00 0.5 C 94 % -0.35 C
1021 19-01-2015 04:00:00 0.6 C 94 % -0.25 C
1022 19-01-2015 04:05:00 0.6 C 94 % -0.25 C
1023 19-01-2015 04:10:00 0.6 C 94 % -0.25 C
1024 19-01-2015 04:15:00 0.6 C 94 % -0.25 C
1025 19-01-2015 04:20:00 0.6 C 94 % -0.25 C
Sensor: Nr:Datum:Temp:Feuchte:Taupunkt:
Aussen-T/F 1026 19-01-2015 04:25:00 0.6 C 94 % -0.25 C
1027 19-01-2015 04:30:00 0.6 C 94 % -0.25 C
1028 19-01-2015 04:35:00 0.6 C 94 % -0.25 C
1029 19-01-2015 04:40:00 0.6 C 94 % -0.25 C
1030 19-01-2015 04:45:00 0.6 C 94 % -0.25 C
1031 19-01-2015 04:50:00 0.6 C 93 % -0.4 C
1032 19-01-2015 04:55:00 0.6 C 93 % -0.4 C
1033 19-01-2015 05:00:00 0.7 C 93 % -0.3 C
1034 19-01-2015 05:05:00 0.7 C 93 % -0.3 C
1035 19-01-2015 05:10:00 0.7 C 93 % -0.3 C
1036 19-01-2015 05:15:00 0.7 C 93 % -0.3 C
1037 19-01-2015 05:20:00 0.7 C 93 % -0.3 C
1038 19-01-2015 05:25:00 0.7 C 93 % -0.3 C
1039 19-01-2015 05:30:00 0.7 C 93 % -0.3 C
1040 19-01-2015 05:35:00 0.7 C 93 % -0.3 C
1041 19-01-2015 05:40:00 0.7 C 93 % -0.3 C
1042 19-01-2015 05:45:00 0.7 C 93 % -0.3 C
1043 19-01-2015 05:50:00 0.7 C 93 % -0.3 C
1044 19-01-2015 05:55:00 0.7 C 93 % -0.3 C
1045 19-01-2015 06:00:00 0.7 C 93 % -0.3 C
1046 19-01-2015 06:05:00 0.7 C 93 % -0.3 C
1047 19-01-2015 06:10:00 0.7 C 93 % -0.3 C
1048 19-01-2015 06:15:00 0.7 C 93 % -0.3 C
1049 19-01-2015 06:20:00 0.7 C 93 % -0.3 C
1050 19-01-2015 06:25:00 0.7 C 93 % -0.3 C
Sensor: Nr:Datum:Temp:Feuchte:Taupunkt:
Aussen-T/F 1051 19-01-2015 06:30:00 0.7 C 93 % -0.3 C
1052 19-01-2015 06:35:00 0.7 C 93 % -0.3 C
1053 19-01-2015 06:40:00 0.7 C 93 % -0.3 C
1054 19-01-2015 06:45:00 0.7 C 93 % -0.3 C
1055 19-01-2015 06:50:00 0.7 C 93 % -0.3 C
1056 19-01-2015 06:55:00 0.7 C 93 % -0.3 C
1057 19-01-2015 07:00:00 0.7 C 93 % -0.3 C
1058 19-01-2015 07:05:00 0.7 C 93 % -0.3 C
1059 19-01-2015 07:10:00 0.8 C 93 % -0.2 C
1060 19-01-2015 07:15:00 0.8 C 93 % -0.2 C
1061 19-01-2015 07:20:00 0.7 C 93 % -0.3 C
1062 19-01-2015 07:25:00 0.8 C 93 % -0.2 C
1063 19-01-2015 07:30:00 0.8 C 93 % -0.2 C
1064 19-01-2015 07:35:00 0.8 C 93 % -0.2 C
1065 19-01-2015 07:40:00 0.7 C 93 % -0.3 C
1066 19-01-2015 07:45:00 0.8 C 93 % -0.2 C
1067 19-01-2015 07:50:00 0.8 C 93 % -0.2 C
1068 19-01-2015 07:55:00 0.8 C 93 % -0.2 C
1069 19-01-2015 08:00:00 0.8 C 93 % -0.2 C
1070 19-01-2015 08:05:00 0.8 C 93 % -0.2 C
1071 19-01-2015 08:10:00 0.8 C 93 % -0.2 C
1072 19-01-2015 08:15:00 0.8 C 93 % -0.2 C
1073 19-01-2015 08:20:00 0.7 C 93 % -0.3 C
1074 19-01-2015 08:25:00 0.7 C 93 % -0.3 C
1075 19-01-2015 08:30:00 0.7 C 93 % -0.3 C
Sensor: Nr:Datum:Temp:Feuchte:Taupunkt:
Aussen-T/F 1076 19-01-2015 08:35:00 0.7 C 93 % -0.3 C
1077 19-01-2015 08:40:00 0.7 C 93 % -0.3 C
1078 19-01-2015 08:45:00 0.7 C 93 % -0.3 C
1079 19-01-2015 08:50:00 0.7 C 93 % -0.3 C
1080 19-01-2015 08:55:00 0.7 C 93 % -0.3 C
1081 19-01-2015 09:00:00 0.7 C 93 % -0.3 C
1082 19-01-2015 09:05:00 0.7 C 93 % -0.3 C
1083 19-01-2015 09:10:00 0.7 C 93 % -0.3 C
1084 19-01-2015 09:15:00 0.7 C 92 % -0.45 C
1085 19-01-2015 09:20:00 0.8 C 92 % -0.35 C
1086 19-01-2015 09:25:00 0.8 C 91 % -0.5 C
1087 19-01-2015 09:30:00 0.9 C 91 % -0.4 C
1088 19-01-2015 09:35:00 0.9 C 92 % -0.25 C
1089 19-01-2015 09:40:00 1 C 91 % -0.3 C
1090 19-01-2015 09:45:00 1.1 C 91 % -0.2 C
1091 19-01-2015 09:50:00 1.1 C 91 % -0.2 C
1092 19-01-2015 09:55:00 1.1 C 90 % -0.35 C
1093 19-01-2015 10:00:00 1.2 C 89 % -0.41 C
1094 19-01-2015 10:05:00 1.3 C 88 % -0.46 C
1095 19-01-2015 10:10:00 1.3 C 88 % -0.46 C
1096 19-01-2015 10:15:00 1.4 C 88 % -0.36 C
1097 19-01-2015 10:20:00 1.5 C 88 % -0.27 C
1098 19-01-2015 10:25:00 1.6 C 87 % -0.32 C
1099 19-01-2015 10:30:00 1.6 C 86 % -0.48 C
1100 19-01-2015 10:35:00 1.5 C 86 % -0.58 C
Sensor: Nr:Datum:Temp:Feuchte:Taupunkt:
Aussen-T/F 1101 19-01-2015 10:40:00 1.4 C 86 % -0.68 C
1102 19-01-2015 10:45:00 1.4 C 86 % -0.68 C
1103 19-01-2015 10:50:00 1.5 C 87 % -0.42 C
1104 19-01-2015 10:55:00 1.5 C 87 % -0.42 C
1105 19-01-2015 11:00:00 1.6 C 87 % -0.32 C
1106 19-01-2015 11:05:00 1.7 C 86 % -0.38 C
1107 19-01-2015 11:10:00 1.7 C 86 % -0.38 C
1108 19-01-2015 11:15:00 1.7 C 86 % -0.38 C
1109 19-01-2015 11:20:00 1.7 C 85 % -0.54 C
1110 19-01-2015 11:25:00 1.8 C 85 % -0.45 C
1111 19-01-2015 11:30:00 1.8 C 85 % -0.45 C
1112 19-01-2015 11:35:00 1.8 C 85 % -0.45 C
1113 19-01-2015 11:40:00 1.8 C 85 % -0.45 C
1114 19-01-2015 11:45:00 1.8 C 85 % -0.45 C
1115 19-01-2015 11:50:00 1.9 C 86 % -0.19 C
1116 19-01-2015 11:55:00 1.9 C 85 % -0.35 C
1117 19-01-2015 12:00:00 1.9 C 85 % -0.35 C
1118 19-01-2015 12:05:00 1.8 C 84 % -0.61 C
1119 19-01-2015 12:10:00 1.8 C 84 % -0.61 C
1120 19-01-2015 12:15:00 1.9 C 85 % -0.35 C
1121 19-01-2015 12:20:00 1.9 C 83 % -0.67 C
1122 19-01-2015 12:25:00 1.9 C 83 % -0.67 C
1123 19-01-2015 12:30:00 1.9 C 83 % -0.67 C
1124 19-01-2015 12:35:00 1.9 C 83 % -0.67 C
1125 19-01-2015 12:40:00 1.9 C 83 % -0.67 C
Sensor: Nr:Datum:Temp:Feuchte:Taupunkt:
Aussen-T/F 1126 19-01-2015 12:45:00 1.9 C 83 % -0.67 C
1127 19-01-2015 12:50:00 2 C 83 % -0.58 C
1128 19-01-2015 12:55:00 2 C 83 % -0.58 C
1129 19-01-2015 13:00:00 2 C 83 % -0.58 C
1130 19-01-2015 13:05:00 2.1 C 83 % -0.48 C
1131 19-01-2015 13:10:00 2.1 C 82 % -0.64 C
1132 19-01-2015 13:15:00 2.1 C 82 % -0.64 C
1133 19-01-2015 13:20:00 2.1 C 82 % -0.64 C
1134 19-01-2015 13:25:00 2 C 82 % -0.74 C
1135 19-01-2015 13:30:00 2 C 82 % -0.74 C
1136 19-01-2015 13:35:00 1.9 C 82 % -0.84 C
1137 19-01-2015 13:40:00 1.9 C 82 % -0.84 C
1138 19-01-2015 13:45:00 1.9 C 82 % -0.84 C
1139 19-01-2015 13:50:00 2 C 82 % -0.74 C
1140 19-01-2015 13:55:00 2.1 C 82 % -0.64 C
1141 19-01-2015 14:00:00 2.1 C 82 % -0.64 C
1142 19-01-2015 14:05:00 2.2 C 82 % -0.55 C
1143 19-01-2015 14:10:00 2.2 C 81 % -0.71 C
1144 19-01-2015 14:15:00 2.1 C 81 % -0.81 C
1145 19-01-2015 14:20:00 2.1 C 82 % -0.64 C
1146 19-01-2015 14:25:00 2.2 C 82 % -0.55 C
1147 19-01-2015 14:30:00 2.1 C 81 % -0.81 C
1148 19-01-2015 14:35:00 2.1 C 82 % -0.64 C
1149 19-01-2015 14:40:00 2.1 C 81 % -0.81 C
1150 19-01-2015 14:45:00 2.2 C 82 % -0.55 C
Sensor: Nr:Datum:Temp:Feuchte:Taupunkt:
Aussen-T/F 1151 19-01-2015 14:50:00 2.2 C 82 % -0.55 C
1152 19-01-2015 14:55:00 2.3 C 82 % -0.45 C
1153 19-01-2015 15:00:00 2.3 C 81 % -0.62 C
1154 19-01-2015 15:05:00 2.2 C 81 % -0.71 C
1155 19-01-2015 15:10:00 2.2 C 82 % -0.55 C
1156 19-01-2015 15:15:00 2.2 C 81 % -0.71 C
1157 19-01-2015 15:20:00 2.2 C 81 % -0.71 C
1158 19-01-2015 15:25:00 2.2 C 81 % -0.71 C
1159 19-01-2015 15:30:00 2.2 C 81 % -0.71 C
1160 19-01-2015 15:35:00 2.1 C 81 % -0.81 C
1161 19-01-2015 15:40:00 2.1 C 82 % -0.64 C
1162 19-01-2015 15:45:00 2.1 C 81 % -0.81 C
1163 19-01-2015 15:50:00 2.1 C 82 % -0.64 C
1164 19-01-2015 15:55:00 2.1 C 82 % -0.64 C
1165 19-01-2015 16:00:00 2.1 C 82 % -0.64 C
1166 19-01-2015 16:05:00 2 C 82 % -0.74 C
1167 19-01-2015 16:10:00 2 C 82 % -0.74 C
1168 19-01-2015 16:15:00 1.9 C 82 % -0.84 C
1169 19-01-2015 16:20:00 1.9 C 82 % -0.84 C
1170 19-01-2015 16:25:00 1.9 C 83 % -0.67 C
1171 19-01-2015 16:30:00 1.8 C 83 % -0.77 C
1172 19-01-2015 16:35:00 1.8 C 83 % -0.77 C
1173 19-01-2015 16:40:00 1.8 C 84 % -0.61 C
1174 19-01-2015 16:45:00 1.7 C 84 % -0.71 C
1175 19-01-2015 16:50:00 1.6 C 84 % -0.8 C
Sensor: Nr:Datum:Temp:Feuchte:Taupunkt:
Aussen-T/F 1176 19-01-2015 16:55:00 1.6 C 85 % -0.64 C
1177 19-01-2015 17:00:00 1.4 C 85 % -0.84 C
1178 19-01-2015 17:05:00 1.3 C 86 % -0.78 C
1179 19-01-2015 17:10:00 1.3 C 86 % -0.78 C
1180 19-01-2015 17:15:00 1.2 C 87 % -0.72 C
1181 19-01-2015 17:20:00 1.1 C 87 % -0.82 C
1182 19-01-2015 17:25:00 0.9 C 88 % -0.86 C
1183 19-01-2015 17:30:00 0.9 C 88 % -0.86 C
1184 19-01-2015 17:35:00 0.8 C 88 % -0.96 C
1185 19-01-2015 17:40:00 0.7 C 88 % -1.05 C
1186 19-01-2015 17:45:00 0.6 C 88 % -1.15 C
1187 19-01-2015 17:50:00 0.5 C 89 % -1.1 C
1188 19-01-2015 17:55:00 0.4 C 89 % -1.2 C
1189 19-01-2015 18:00:00 0.3 C 90 % -1.14 C
1190 19-01-2015 18:05:00 0.2 C 90 % -1.24 C
1191 19-01-2015 18:10:00 0.1 C 90 % -1.34 C
1192 19-01-2015 18:15:00 0.1 C 91 % -1.19 C
1193 19-01-2015 18:20:00 0 C 91 % -1.29 C
1194 19-01-2015 18:25:00 0 C 91 % -1.29 C
1195 19-01-2015 18:30:00 0.1 C 92 % -1.04 C
1196 19-01-2015 18:35:00 0.1 C 92 % -1.04 C
1197 19-01-2015 18:40:00 0.1 C 91 % -1.19 C
1198 19-01-2015 18:45:00 0.1 C 91 % -1.19 C
1199 19-01-2015 18:50:00 0.1 C 91 % -1.19 C
1200 19-01-2015 18:55:00 0.1 C 91 % -1.19 C
Sensor: Nr:Datum:Temp:Feuchte:Taupunkt:
Aussen-T/F 1201 19-01-2015 19:00:00 0.1 C 91 % -1.19 C
1202 19-01-2015 19:05:00 0.1 C 91 % -1.19 C
1203 19-01-2015 19:10:00 0.1 C 91 % -1.19 C
1204 19-01-2015 19:15:00 0.1 C 91 % -1.19 C
1205 19-01-2015 19:20:00 0.1 C 91 % -1.19 C
1206 19-01-2015 19:25:00 0.1 C 91 % -1.19 C
1207 19-01-2015 19:30:00 0.1 C 91 % -1.19 C
1208 19-01-2015 19:35:00 0.1 C 91 % -1.19 C
1209 19-01-2015 19:40:00 0.1 C 92 % -1.04 C
1210 19-01-2015 19:45:00 0.1 C 91 % -1.19 C
1211 19-01-2015 19:50:00 0.2 C 91 % -1.09 C
1212 19-01-2015 19:55:00 0.2 C 91 % -1.09 C
1213 19-01-2015 20:00:00 0.3 C 90 % -1.14 C
1214 19-01-2015 20:05:00 0.3 C 91 % -0.99 C
1215 19-01-2015 20:10:00 0.3 C 90 % -1.14 C
1216 19-01-2015 20:15:00 0.4 C 90 % -1.04 C
1217 19-01-2015 20:20:00 0.4 C 90 % -1.04 C
1218 19-01-2015 20:25:00 0.4 C 89 % -1.2 C
1219 19-01-2015 20:30:00 0.5 C 89 % -1.1 C
1220 19-01-2015 20:35:00 0.5 C 89 % -1.1 C
1221 19-01-2015 20:40:00 0.5 C 89 % -1.1 C
1222 19-01-2015 20:45:00 0.5 C 88 % -1.25 C
1223 19-01-2015 20:50:00 0.5 C 89 % -1.1 C
1224 19-01-2015 20:55:00 0.5 C 89 % -1.1 C
1225 19-01-2015 21:00:00 0.4 C 89 % -1.2 C
Sensor: Nr:Datum:Temp:Feuchte:Taupunkt:
Aussen-T/F 1226 19-01-2015 21:05:00 0.4 C 89 % -1.2 C
1227 19-01-2015 21:10:00 0.4 C 90 % -1.04 C
1228 19-01-2015 21:15:00 0.4 C 90 % -1.04 C
1229 19-01-2015 21:20:00 0.4 C 90 % -1.04 C
1230 19-01-2015 21:25:00 0.4 C 90 % -1.04 C
1231 19-01-2015 21:30:00 0.4 C 90 % -1.04 C
1232 19-01-2015 21:35:00 0.4 C 90 % -1.04 C
1233 19-01-2015 21:40:00 0.4 C 90 % -1.04 C
1234 19-01-2015 21:45:00 0.4 C 90 % -1.04 C
1235 19-01-2015 21:50:00 0.4 C 90 % -1.04 C
1236 19-01-2015 21:55:00 0.4 C 90 % -1.04 C
1237 19-01-2015 22:00:00 0.4 C 90 % -1.04 C
1238 19-01-2015 22:05:00 0.4 C 89 % -1.2 C
1239 19-01-2015 22:10:00 0.6 C 89 % -1 C
1240 19-01-2015 22:15:00 0.6 C 89 % -1 C
1241 19-01-2015 22:20:00 0.6 C 89 % -1 C
1242 19-01-2015 22:25:00 0.6 C 89 % -1 C
1243 19-01-2015 22:30:00 0.6 C 89 % -1 C
1244 19-01-2015 22:35:00 0.7 C 89 % -0.9 C
1245 19-01-2015 22:40:00 0.7 C 89 % -0.9 C
1246 19-01-2015 22:45:00 0.6 C 90 % -0.85 C
1247 19-01-2015 22:50:00 0.6 C 90 % -0.85 C
1248 19-01-2015 22:55:00 0.6 C 90 % -0.85 C
1249 19-01-2015 23:00:00 0.6 C 91 % -0.7 C
1250 19-01-2015 23:05:00 0.5 C 91 % -0.79 C
Sensor: Nr:Datum:Temp:Feuchte:Taupunkt:
Aussen-T/F 1251 19-01-2015 23:10:00 0.5 C 91 % -0.79 C
1252 19-01-2015 23:15:00 0.4 C 92 % -0.74 C
1253 19-01-2015 23:20:00 0.4 C 92 % -0.74 C
1254 19-01-2015 23:25:00 0.4 C 92 % -0.74 C
1255 19-01-2015 23:30:00 0.4 C 92 % -0.74 C
1256 19-01-2015 23:35:00 0.3 C 93 % -0.7 C
1257 19-01-2015 23:40:00 0.3 C 93 % -0.7 C
1258 19-01-2015 23:45:00 0.3 C 93 % -0.7 C
1259 19-01-2015 23:50:00 0.3 C 93 % -0.7 C
1260 19-01-2015 23:55:00 0.3 C 93 % -0.7 C
1261 20-01-2015 00:00:00 0.3 C 94 % -0.55 C
1262 20-01-2015 00:05:00 0.3 C 94 % -0.55 C
1263 20-01-2015 00:10:00 0.3 C 94 % -0.55 C
1264 20-01-2015 00:15:00 0.3 C 94 % -0.55 C
1265 20-01-2015 00:20:00 0.2 C 94 % -0.65 C
1266 20-01-2015 00:25:00 0.2 C 94 % -0.65 C
1267 20-01-2015 00:30:00 0.2 C 94 % -0.65 C
1268 20-01-2015 00:35:00 0.2 C 94 % -0.65 C
1269 20-01-2015 00:40:00 0.2 C 94 % -0.65 C
1270 20-01-2015 00:45:00 0.2 C 94 % -0.65 C
1271 20-01-2015 00:50:00 0.2 C 94 % -0.65 C
1272 20-01-2015 00:55:00 0.2 C 94 % -0.65 C
1273 20-01-2015 01:00:00 0.2 C 94 % -0.65 C
1274 20-01-2015 01:05:00 0.2 C 94 % -0.65 C
1275 20-01-2015 01:10:00 0.2 C 94 % -0.65 C
Sensor: Nr:Datum:Temp:Feuchte:Taupunkt:
Aussen-T/F 1276 20-01-2015 01:15:00 0.2 C 94 % -0.65 C
1277 20-01-2015 01:20:00 0.2 C 94 % -0.65 C
1278 20-01-2015 01:25:00 0.2 C 94 % -0.65 C
1279 20-01-2015 01:30:00 0.2 C 94 % -0.65 C
1280 20-01-2015 01:35:00 0.2 C 95 % -0.5 C
1281 20-01-2015 01:40:00 0.3 C 94 % -0.55 C
1282 20-01-2015 01:45:00 0.3 C 94 % -0.55 C
1283 20-01-2015 01:50:00 0.3 C 94 % -0.55 C
1284 20-01-2015 01:55:00 0.3 C 94 % -0.55 C
1285 20-01-2015 02:00:00 0.3 C 94 % -0.55 C
1286 20-01-2015 02:05:00 0.3 C 94 % -0.55 C
1287 20-01-2015 02:10:00 0.3 C 94 % -0.55 C
1288 20-01-2015 02:15:00 0.3 C 94 % -0.55 C
1289 20-01-2015 02:20:00 0.3 C 94 % -0.55 C
1290 20-01-2015 02:25:00 0.3 C 94 % -0.55 C
1291 20-01-2015 02:30:00 0.3 C 94 % -0.55 C
1292 20-01-2015 02:35:00 0.4 C 94 % -0.45 C
1293 20-01-2015 02:40:00 0.4 C 94 % -0.45 C
1294 20-01-2015 02:45:00 0.4 C 94 % -0.45 C
1295 20-01-2015 02:50:00 0.4 C 94 % -0.45 C
1296 20-01-2015 02:55:00 0.4 C 95 % -0.31 C
1297 20-01-2015 03:00:00 0.4 C 94 % -0.45 C
1298 20-01-2015 03:05:00 0.4 C 95 % -0.31 C
1299 20-01-2015 03:10:00 0.4 C 95 % -0.31 C
1300 20-01-2015 03:15:00 0.4 C 95 % -0.31 C
Sensor: Nr:Datum:Temp:Feuchte:Taupunkt:
Aussen-T/F 1301 20-01-2015 03:20:00 0.4 C 95 % -0.31 C
1302 20-01-2015 03:25:00 0.4 C 95 % -0.31 C
1303 20-01-2015 03:30:00 0.4 C 95 % -0.31 C
1304 20-01-2015 03:35:00 0.4 C 95 % -0.31 C
1305 20-01-2015 03:40:00 0.4 C 95 % -0.31 C
1306 20-01-2015 03:45:00 0.4 C 95 % -0.31 C
1307 20-01-2015 03:50:00 0.4 C 95 % -0.31 C
1308 20-01-2015 03:55:00 0.4 C 95 % -0.31 C
1309 20-01-2015 04:00:00 0.4 C 95 % -0.31 C
1310 20-01-2015 04:05:00 0.4 C 95 % -0.31 C
1311 20-01-2015 04:10:00 0.4 C 95 % -0.31 C
1312 20-01-2015 04:15:00 0.4 C 95 % -0.31 C
1313 20-01-2015 04:20:00 0.4 C 95 % -0.31 C
1314 20-01-2015 04:25:00 0.4 C 95 % -0.31 C
1315 20-01-2015 04:30:00 0.4 C 95 % -0.31 C
1316 20-01-2015 04:35:00 0.4 C 95 % -0.31 C
1317 20-01-2015 04:40:00 0.5 C 95 % -0.21 C
1318 20-01-2015 04:45:00 0.4 C 95 % -0.31 C
1319 20-01-2015 04:50:00 0.5 C 95 % -0.21 C
1320 20-01-2015 04:55:00 0.5 C 95 % -0.21 C
1321 20-01-2015 05:00:00 0.5 C 95 % -0.21 C
1322 20-01-2015 05:05:00 0.5 C 95 % -0.21 C
1323 20-01-2015 05:10:00 0.5 C 95 % -0.21 C
1324 20-01-2015 05:15:00 0.5 C 95 % -0.21 C
1325 20-01-2015 05:20:00 0.5 C 95 % -0.21 C
Sensor: Nr:Datum:Temp:Feuchte:Taupunkt:
Aussen-T/F 1326 20-01-2015 05:25:00 0.5 C 95 % -0.21 C
1327 20-01-2015 05:30:00 0.5 C 95 % -0.21 C
1328 20-01-2015 05:35:00 0.5 C 95 % -0.21 C
1329 20-01-2015 05:40:00 0.5 C 95 % -0.21 C
1330 20-01-2015 05:45:00 0.6 C 95 % -0.11 C
1331 20-01-2015 05:50:00 0.6 C 95 % -0.11 C
1332 20-01-2015 05:55:00 0.5 C 95 % -0.21 C
1333 20-01-2015 06:00:00 0.6 C 95 % -0.11 C
1334 20-01-2015 06:05:00 0.6 C 95 % -0.11 C
1335 20-01-2015 06:10:00 0.6 C 95 % -0.11 C
1336 20-01-2015 06:15:00 0.6 C 95 % -0.11 C
1337 20-01-2015 06:20:00 0.6 C 95 % -0.11 C
1338 20-01-2015 06:25:00 0.6 C 95 % -0.11 C
1339 20-01-2015 06:30:00 0.5 C 95 % -0.21 C
1340 20-01-2015 06:35:00 0.4 C 94 % -0.45 C
1341 20-01-2015 06:40:00 0.4 C 94 % -0.45 C
1342 20-01-2015 06:45:00 0.4 C 95 % -0.31 C
1343 20-01-2015 06:50:00 0.4 C 95 % -0.31 C
1344 20-01-2015 06:55:00 0.3 C 95 % -0.4 C
1345 20-01-2015 07:00:00 0.3 C 95 % -0.4 C
1346 20-01-2015 07:05:00 0.3 C 95 % -0.4 C
1347 20-01-2015 07:10:00 0.3 C 95 % -0.4 C
1348 20-01-2015 07:15:00 0.4 C 95 % -0.31 C
1349 20-01-2015 07:20:00 0.4 C 95 % -0.31 C
1350 20-01-2015 07:25:00 0.4 C 95 % -0.31 C
Sensor: Nr:Datum:Temp:Feuchte:Taupunkt:
Aussen-T/F 1351 20-01-2015 07:30:00 0.4 C 95 % -0.31 C
1352 20-01-2015 07:35:00 0.4 C 95 % -0.31 C
1353 20-01-2015 07:40:00 0.4 C 95 % -0.31 C
1354 20-01-2015 07:45:00 0.5 C 95 % -0.21 C
1355 20-01-2015 07:50:00 0.4 C 95 % -0.31 C
1356 20-01-2015 07:55:00 0.5 C 95 % -0.21 C
1357 20-01-2015 08:00:00 0.5 C 95 % -0.21 C
1358 20-01-2015 08:05:00 0.5 C 94 % -0.35 C
1359 20-01-2015 08:10:00 0.5 C 94 % -0.35 C
1360 20-01-2015 08:15:00 0.5 C 94 % -0.35 C
1361 20-01-2015 08:20:00 0.5 C 94 % -0.35 C
1362 20-01-2015 08:25:00 0.6 C 94 % -0.25 C
1363 20-01-2015 08:30:00 0.6 C 94 % -0.25 C
1364 20-01-2015 08:35:00 0.6 C 95 % -0.11 C
1365 20-01-2015 08:40:00 0.6 C 94 % -0.25 C
1366 20-01-2015 08:45:00 0.6 C 94 % -0.25 C
1367 20-01-2015 08:50:00 0.6 C 94 % -0.25 C
1368 20-01-2015 08:55:00 0.6 C 94 % -0.25 C
1369 20-01-2015 09:00:00 0.6 C 94 % -0.25 C
1370 20-01-2015 09:05:00 0.7 C 94 % -0.15 C
1371 20-01-2015 09:10:00 0.7 C 94 % -0.15 C
1372 20-01-2015 09:15:00 0.7 C 94 % -0.15 C
1373 20-01-2015 09:20:00 0.7 C 94 % -0.15 C
1374 20-01-2015 09:25:00 0.8 C 94 % -0.05 C
1375 20-01-2015 09:30:00 0.8 C 94 % -0.05 C
Sensor: Nr:Datum:Temp:Feuchte:Taupunkt:
Aussen-T/F 1376 20-01-2015 09:35:00 0.8 C 94 % -0.05 C
1377 20-01-2015 09:40:00 0.8 C 94 % -0.05 C
1378 20-01-2015 09:45:00 0.9 C 94 % 0.05 C
1379 20-01-2015 09:50:00 1 C 94 % 0.15 C
1380 20-01-2015 09:55:00 1 C 93 % 0 C
1381 20-01-2015 10:00:00 1.1 C 93 % 0.1 C
1382 20-01-2015 10:05:00 1.2 C 93 % 0.2 C
1383 20-01-2015 10:10:00 1.2 C 92 % 0.05 C
1384 20-01-2015 10:15:00 1.2 C 92 % 0.05 C
1385 20-01-2015 10:20:00 1.3 C 92 % 0.15 C
1386 20-01-2015 10:25:00 1.3 C 91 % 0 C
1387 20-01-2015 10:30:00 1.3 C 92 % 0.15 C
1388 20-01-2015 10:35:00 1.3 C 91 % 0 C
1389 20-01-2015 10:40:00 1.3 C 91 % 0 C
1390 20-01-2015 10:45:00 1.3 C 91 % 0 C
1391 20-01-2015 10:50:00 1.3 C 91 % 0 C
1392 20-01-2015 10:55:00 1.4 C 92 % 0.25 C
1393 20-01-2015 11:00:00 1.4 C 91 % 0.1 C
1394 20-01-2015 11:05:00 1.4 C 91 % 0.1 C
1395 20-01-2015 11:10:00 1.6 C 91 % 0.29 C
1396 20-01-2015 11:15:00 1.7 C 91 % 0.39 C
1397 20-01-2015 11:20:00 1.7 C 90 % 0.24 C
1398 20-01-2015 11:25:00 1.7 C 89 % 0.09 C
1399 20-01-2015 11:30:00 1.8 C 89 % 0.19 C
1400 20-01-2015 11:35:00 1.8 C 89 % 0.19 C
Sensor: Nr:Datum:Temp:Feuchte:Taupunkt:
Aussen-T/F 1401 20-01-2015 11:40:00 1.8 C 88 % 0.03 C
1402 20-01-2015 11:45:00 1.8 C 88 % 0.03 C
1403 20-01-2015 11:50:00 1.9 C 89 % 0.28 C
1404 20-01-2015 11:55:00 2 C 88 % 0.23 C
1405 20-01-2015 12:00:00 2.1 C 88 % 0.33 C
1406 20-01-2015 12:05:00 2.1 C 87 % 0.17 C
1407 20-01-2015 12:10:00 2.1 C 87 % 0.17 C
1408 20-01-2015 12:15:00 2.1 C 87 % 0.17 C
1409 20-01-2015 12:20:00 2.1 C 86 % 0.01 C
1410 20-01-2015 12:25:00 2.1 C 87 % 0.17 C
1411 20-01-2015 12:30:00 2.1 C 86 % 0.01 C
1412 20-01-2015 12:35:00 2.1 C 86 % 0.01 C
1413 20-01-2015 12:40:00 2.1 C 86 % 0.01 C
1414 20-01-2015 12:45:00 2.2 C 86 % 0.11 C
1415 20-01-2015 12:50:00 2.3 C 86 % 0.21 C
1416 20-01-2015 12:55:00 2.4 C 86 % 0.3 C
1417 20-01-2015 13:00:00 2.5 C 85 % 0.24 C
1418 20-01-2015 13:05:00 2.6 C 84 % 0.18 C
1419 20-01-2015 13:10:00 2.6 C 84 % 0.18 C
1420 20-01-2015 13:15:00 2.5 C 85 % 0.24 C
1421 20-01-2015 13:20:00 2.5 C 85 % 0.24 C
1422 20-01-2015 13:25:00 2.5 C 86 % 0.4 C
1423 20-01-2015 13:30:00 2.5 C 86 % 0.4 C
1424 20-01-2015 13:35:00 2.5 C 87 % 0.56 C
1425 20-01-2015 13:40:00 2.3 C 87 % 0.36 C
Sensor: Nr:Datum:Temp:Feuchte:Taupunkt:
Aussen-T/F 1426 20-01-2015 13:45:00 2.2 C 87 % 0.27 C
1427 20-01-2015 13:50:00 2.1 C 88 % 0.33 C
1428 20-01-2015 13:55:00 2.1 C 87 % 0.17 C
1429 20-01-2015 14:00:00 2.1 C 86 % 0.01 C
1430 20-01-2015 14:05:00 2.1 C 86 % 0.01 C
1431 20-01-2015 14:10:00 2.1 C 86 % 0.01 C
1432 20-01-2015 14:15:00 2 C 86 % -0.09 C
1433 20-01-2015 14:20:00 2 C 86 % -0.09 C
1434 20-01-2015 14:25:00 2.1 C 87 % 0.17 C
1435 20-01-2015 14:30:00 2.1 C 86 % 0.01 C
1436 20-01-2015 14:35:00 2.1 C 87 % 0.17 C
1437 20-01-2015 14:40:00 2.1 C 86 % 0.01 C
1438 20-01-2015 14:45:00 2.1 C 87 % 0.17 C
1439 20-01-2015 14:50:00 2.1 C 86 % 0.01 C
1440 20-01-2015 14:55:00 2.1 C 86 % 0.01 C
1441 20-01-2015 15:00:00 2 C 86 % -0.09 C
1442 20-01-2015 15:05:00 2 C 86 % -0.09 C
1443 20-01-2015 15:10:00 1.9 C 86 % -0.19 C
1444 20-01-2015 15:15:00 1.9 C 87 % -0.03 C
1445 20-01-2015 15:20:00 1.9 C 87 % -0.03 C
1446 20-01-2015 15:25:00 1.9 C 88 % 0.13 C
1447 20-01-2015 15:30:00 1.9 C 88 % 0.13 C
1448 20-01-2015 15:35:00 1.9 C 88 % 0.13 C
1449 20-01-2015 15:40:00 1.9 C 89 % 0.28 C
1450 20-01-2015 15:45:00 1.9 C 88 % 0.13 C
Sensor: Nr:Datum:Temp:Feuchte:Taupunkt:
Aussen-T/F 1451 20-01-2015 15:50:00 1.9 C 88 % 0.13 C
1452 20-01-2015 15:55:00 1.9 C 88 % 0.13 C
1453 20-01-2015 16:00:00 1.9 C 88 % 0.13 C
1454 20-01-2015 16:05:00 1.8 C 88 % 0.03 C
1455 20-01-2015 16:10:00 1.8 C 88 % 0.03 C
1456 20-01-2015 16:15:00 1.8 C 87 % -0.13 C
1457 20-01-2015 16:20:00 1.8 C 87 % -0.13 C
1458 20-01-2015 16:25:00 1.8 C 88 % 0.03 C
1459 20-01-2015 16:30:00 1.8 C 88 % 0.03 C
1460 20-01-2015 16:35:00 1.7 C 88 % -0.07 C
1461 20-01-2015 16:40:00 1.7 C 89 % 0.09 C
1462 20-01-2015 16:45:00 1.7 C 89 % 0.09 C
1463 20-01-2015 16:50:00 1.6 C 88 % -0.17 C
1464 20-01-2015 16:55:00 1.5 C 88 % -0.27 C
1465 20-01-2015 17:00:00 1.4 C 89 % -0.21 C
1466 20-01-2015 17:05:00 1.4 C 89 % -0.21 C
1467 20-01-2015 17:10:00 1.3 C 89 % -0.31 C
1468 20-01-2015 17:15:00 1.3 C 90 % -0.15 C
1469 20-01-2015 17:20:00 1.3 C 90 % -0.15 C
1470 20-01-2015 17:25:00 1.2 C 90 % -0.25 C
1471 20-01-2015 17:30:00 1.2 C 90 % -0.25 C
1472 20-01-2015 17:35:00 1.2 C 90 % -0.25 C
1473 20-01-2015 17:40:00 1.2 C 90 % -0.25 C
1474 20-01-2015 17:45:00 1.2 C 90 % -0.25 C
1475 20-01-2015 17:50:00 1.2 C 91 % -0.1 C
Sensor: Nr:Datum:Temp:Feuchte:Taupunkt:
Aussen-T/F 1476 20-01-2015 17:55:00 1.2 C 91 % -0.1 C
1477 20-01-2015 18:00:00 1.2 C 91 % -0.1 C
1478 20-01-2015 18:05:00 1.1 C 91 % -0.2 C
1479 20-01-2015 18:10:00 1.1 C 91 % -0.2 C
1480 20-01-2015 18:15:00 1.1 C 91 % -0.2 C
1481 20-01-2015 18:20:00 1.1 C 91 % -0.2 C
1482 20-01-2015 18:25:00 1.1 C 91 % -0.2 C
1483 20-01-2015 18:30:00 1.1 C 91 % -0.2 C
1484 20-01-2015 18:35:00 1.1 C 91 % -0.2 C
1485 20-01-2015 18:40:00 1.1 C 90 % -0.35 C
1486 20-01-2015 18:45:00 1.1 C 90 % -0.35 C
1487 20-01-2015 18:50:00 1.1 C 90 % -0.35 C
1488 20-01-2015 18:55:00 1.1 C 90 % -0.35 C
1489 20-01-2015 19:00:00 1.1 C 90 % -0.35 C
1490 20-01-2015 19:05:00 1.1 C 90 % -0.35 C
1491 20-01-2015 19:10:00 1.1 C 90 % -0.35 C
1492 20-01-2015 19:15:00 1.1 C 90 % -0.35 C
1493 20-01-2015 19:20:00 1.1 C 90 % -0.35 C
1494 20-01-2015 19:25:00 1.1 C 90 % -0.35 C
1495 20-01-2015 19:30:00 1.1 C 90 % -0.35 C
1496 20-01-2015 19:35:00 1.1 C 90 % -0.35 C
1497 20-01-2015 19:40:00 1.2 C 90 % -0.25 C
1498 20-01-2015 19:45:00 1.1 C 90 % -0.35 C
1499 20-01-2015 19:50:00 1.1 C 89 % -0.51 C
1500 20-01-2015 19:55:00 1 C 89 % -0.6 C
Sensor: Nr:Datum:Temp:Feuchte:Taupunkt:
Aussen-T/F 1501 20-01-2015 20:00:00 0.9 C 89 % -0.7 C
1502 20-01-2015 20:05:00 0.9 C 89 % -0.7 C
1503 20-01-2015 20:10:00 0.8 C 90 % -0.65 C
1504 20-01-2015 20:15:00 0.6 C 89 % -1 C
1505 20-01-2015 20:20:00 0.4 C 89 % -1.2 C
1506 20-01-2015 20:25:00 0.2 C 88 % -1.55 C
1507 20-01-2015 20:30:00 0.1 C 89 % -1.49 C
1508 20-01-2015 20:35:00 0 C 89 % -1.59 C
1509 20-01-2015 20:40:00 -0.1 C 90 % -1.54 C
1510 20-01-2015 20:45:00 -0.1 C 90 % -1.54 C
1511 20-01-2015 20:50:00 0 C 90 % -1.44 C
1512 20-01-2015 20:55:00 0.1 C 91 % -1.19 C
1513 20-01-2015 21:00:00 0.1 C 91 % -1.19 C
1514 20-01-2015 21:05:00 0.2 C 91 % -1.09 C
1515 20-01-2015 21:10:00 0.2 C 91 % -1.09 C
1516 20-01-2015 21:15:00 0.2 C 91 % -1.09 C
1517 20-01-2015 21:20:00 0.2 C 90 % -1.24 C
1518 20-01-2015 21:25:00 0.2 C 89 % -1.39 C
1519 20-01-2015 21:30:00 0.2 C 88 % -1.55 C
1520 20-01-2015 21:35:00 0.3 C 88 % -1.45 C
1521 20-01-2015 21:40:00 0.3 C 88 % -1.45 C
1522 20-01-2015 21:45:00 0.2 C 88 % -1.55 C
1523 20-01-2015 21:50:00 0.2 C 88 % -1.55 C
1524 20-01-2015 21:55:00 0.2 C 87 % -1.7 C
1525 20-01-2015 22:00:00 0.2 C 88 % -1.55 C
Sensor: Nr:Datum:Temp:Feuchte:Taupunkt:
Aussen-T/F 1526 20-01-2015 22:05:00 0.1 C 87 % -1.8 C
1527 20-01-2015 22:10:00 0.1 C 87 % -1.8 C
1528 20-01-2015 22:15:00 0 C 87 % -1.9 C
1529 20-01-2015 22:20:00 -0.1 C 87 % -2 C
1530 20-01-2015 22:25:00 -0.2 C 85 % -2.41 C
1531 20-01-2015 22:30:00 -0.2 C 85 % -2.41 C
1532 20-01-2015 22:35:00 -0.2 C 86 % -2.25 C
1533 20-01-2015 22:40:00 -0.2 C 85 % -2.41 C
1534 20-01-2015 22:45:00 -0.3 C 85 % -2.51 C
1535 20-01-2015 22:50:00 -0.3 C 85 % -2.51 C
1536 20-01-2015 22:55:00 -0.4 C 86 % -2.45 C
1537 20-01-2015 23:00:00 -0.5 C 86 % -2.55 C
1538 20-01-2015 23:05:00 -0.6 C 85 % -2.8 C
1539 20-01-2015 23:10:00 -0.7 C 85 % -2.9 C
1540 20-01-2015 23:15:00 -0.7 C 85 % -2.9 C
1541 20-01-2015 23:20:00 -0.7 C 85 % -2.9 C
1542 20-01-2015 23:25:00 -0.8 C 85 % -3 C
1543 20-01-2015 23:30:00 -0.8 C 86 % -2.84 C
1544 20-01-2015 23:35:00 -0.9 C 85 % -3.1 C
1545 20-01-2015 23:40:00 -1 C 85 % -3.2 C
1546 20-01-2015 23:45:00 -1.1 C 85 % -3.29 C
1547 20-01-2015 23:50:00 -1.1 C 85 % -3.29 C
1548 20-01-2015 23:55:00 -1.1 C 85 % -3.29 C
1549 21-01-2015 00:00:00 -1.1 C 86 % -3.14 C
1550 21-01-2015 00:05:00 -1.1 C 87 % -2.98 C
Sensor: Nr:Datum:Temp:Feuchte:Taupunkt:
Aussen-T/F 1551 21-01-2015 00:10:00 -1.2 C 87 % -3.08 C
1552 21-01-2015 00:15:00 -1.2 C 87 % -3.08 C
1553 21-01-2015 00:20:00 -1.3 C 87 % -3.18 C
1554 21-01-2015 00:25:00 -1.3 C 88 % -3.03 C
1555 21-01-2015 00:30:00 -1.4 C 88 % -3.13 C
1556 21-01-2015 00:35:00 -1.5 C 89 % -3.07 C
1557 21-01-2015 00:40:00 -1.6 C 89 % -3.17 C
1558 21-01-2015 00:45:00 -1.6 C 89 % -3.17 C
1559 21-01-2015 00:50:00 -1.6 C 89 % -3.17 C
1560 21-01-2015 00:55:00 -1.7 C 89 % -3.27 C
1561 21-01-2015 01:00:00 -1.7 C 89 % -3.27 C
1562 21-01-2015 01:05:00 -1.8 C 89 % -3.37 C
1563 21-01-2015 01:10:00 -1.8 C 89 % -3.37 C
1564 21-01-2015 01:15:00 -1.8 C 88 % -3.52 C
1565 21-01-2015 01:20:00 -1.9 C 89 % -3.47 C
1566 21-01-2015 01:25:00 -1.9 C 89 % -3.47 C
1567 21-01-2015 01:30:00 -1.9 C 89 % -3.47 C
1568 21-01-2015 01:35:00 -1.9 C 89 % -3.47 C
1569 21-01-2015 01:40:00 -1.9 C 89 % -3.47 C
1570 21-01-2015 01:45:00 -1.9 C 89 % -3.47 C
1571 21-01-2015 01:50:00 -1.9 C 89 % -3.47 C
1572 21-01-2015 01:55:00 -1.9 C 90 % -3.32 C
1573 21-01-2015 02:00:00 -1.8 C 89 % -3.37 C
1574 21-01-2015 02:05:00 -1.8 C 89 % -3.37 C
1575 21-01-2015 02:10:00 -1.8 C 89 % -3.37 C
Sensor: Nr:Datum:Temp:Feuchte:Taupunkt:
Aussen-T/F 1576 21-01-2015 02:15:00 -1.8 C 89 % -3.37 C
1577 21-01-2015 02:20:00 -1.9 C 89 % -3.47 C
1578 21-01-2015 02:25:00 -1.9 C 90 % -3.32 C
1579 21-01-2015 02:30:00 -1.9 C 90 % -3.32 C
1580 21-01-2015 02:35:00 -1.9 C 90 % -3.32 C
1581 21-01-2015 02:40:00 -2 C 90 % -3.42 C
1582 21-01-2015 02:45:00 -2.1 C 90 % -3.52 C
1583 21-01-2015 02:50:00 -2.2 C 91 % -3.47 C
1584 21-01-2015 02:55:00 -2.2 C 91 % -3.47 C
1585 21-01-2015 03:00:00 -2.2 C 91 % -3.47 C
1586 21-01-2015 03:05:00 -2.2 C 91 % -3.47 C
1587 21-01-2015 03:10:00 -2.2 C 91 % -3.47 C
1588 21-01-2015 03:15:00 -2.2 C 91 % -3.47 C
1589 21-01-2015 03:20:00 -2.2 C 91 % -3.47 C
1590 21-01-2015 03:25:00 -2.2 C 91 % -3.47 C
1591 21-01-2015 03:30:00 -2.2 C 91 % -3.47 C
1592 21-01-2015 03:35:00 -2.3 C 92 % -3.42 C
1593 21-01-2015 03:40:00 -2.2 C 92 % -3.32 C
1594 21-01-2015 03:45:00 -2.2 C 92 % -3.32 C
1595 21-01-2015 03:50:00 -2.1 C 92 % -3.22 C
1596 21-01-2015 03:55:00 -2.1 C 93 % -3.08 C
1597 21-01-2015 04:00:00 -1.9 C 92 % -3.02 C
1598 21-01-2015 04:05:00 -1.9 C 92 % -3.02 C
1599 21-01-2015 04:10:00 -1.8 C 92 % -2.92 C
1600 21-01-2015 04:15:00 -1.8 C 92 % -2.92 C
Sensor: Nr:Datum:Temp:Feuchte:Taupunkt:
Aussen-T/F 1601 21-01-2015 04:20:00 -1.8 C 92 % -2.92 C
1602 21-01-2015 04:25:00 -1.9 C 92 % -3.02 C
1603 21-01-2015 04:30:00 -1.9 C 92 % -3.02 C
1604 21-01-2015 04:35:00 -2.1 C 92 % -3.22 C
1605 21-01-2015 04:40:00 -2.1 C 92 % -3.22 C
1606 21-01-2015 04:45:00 -2.2 C 92 % -3.32 C
1607 21-01-2015 04:50:00 -2.2 C 92 % -3.32 C
1608 21-01-2015 04:55:00 -2.3 C 92 % -3.42 C
1609 21-01-2015 05:00:00 -2.3 C 92 % -3.42 C
1610 21-01-2015 05:05:00 -2.2 C 92 % -3.32 C
1611 21-01-2015 05:10:00 -2.2 C 93 % -3.18 C
1612 21-01-2015 05:15:00 -2.1 C 93 % -3.08 C
1613 21-01-2015 05:20:00 -2.1 C 93 % -3.08 C
1614 21-01-2015 05:25:00 -1.9 C 93 % -2.88 C
1615 21-01-2015 05:30:00 -1.9 C 93 % -2.88 C
1616 21-01-2015 05:35:00 -1.8 C 93 % -2.78 C
1617 21-01-2015 05:40:00 -1.8 C 93 % -2.78 C
1618 21-01-2015 05:45:00 -1.8 C 93 % -2.78 C
1619 21-01-2015 05:50:00 -1.8 C 93 % -2.78 C
1620 21-01-2015 05:55:00 -1.7 C 93 % -2.68 C
1621 21-01-2015 06:00:00 -1.7 C 93 % -2.68 C
1622 21-01-2015 06:05:00 -1.7 C 93 % -2.68 C
1623 21-01-2015 06:10:00 -1.7 C 93 % -2.68 C
1624 21-01-2015 06:15:00 -1.7 C 92 % -2.83 C
1625 21-01-2015 06:20:00 -1.7 C 92 % -2.83 C
Sensor: Nr:Datum:Temp:Feuchte:Taupunkt:
Aussen-T/F 1626 21-01-2015 06:25:00 -1.8 C 92 % -2.92 C
1627 21-01-2015 06:30:00 -1.9 C 92 % -3.02 C
1628 21-01-2015 06:35:00 -2 C 92 % -3.12 C
1629 21-01-2015 06:40:00 -2.1 C 92 % -3.22 C
1630 21-01-2015 06:45:00 -2.1 C 92 % -3.22 C
1631 21-01-2015 06:50:00 -2.2 C 92 % -3.32 C
1632 21-01-2015 06:55:00 -2.3 C 92 % -3.42 C
1633 21-01-2015 07:00:00 -2.3 C 92 % -3.42 C
1634 21-01-2015 07:05:00 -2.4 C 92 % -3.52 C
1635 21-01-2015 07:10:00 -2.4 C 92 % -3.52 C
1636 21-01-2015 07:15:00 -2.6 C 92 % -3.72 C
1637 21-01-2015 07:20:00 -2.6 C 92 % -3.72 C
1638 21-01-2015 07:25:00 -2.6 C 93 % -3.57 C
1639 21-01-2015 07:30:00 -2.6 C 93 % -3.57 C
1640 21-01-2015 07:35:00 -2.7 C 93 % -3.67 C
1641 21-01-2015 07:40:00 -2.7 C 92 % -3.82 C
1642 21-01-2015 07:45:00 -2.8 C 92 % -3.92 C
1643 21-01-2015 07:50:00 -2.8 C 92 % -3.92 C
1644 21-01-2015 07:55:00 -2.8 C 93 % -3.77 C
1645 21-01-2015 08:00:00 -2.8 C 93 % -3.77 C
1646 21-01-2015 08:05:00 -2.8 C 93 % -3.77 C
1647 21-01-2015 08:10:00 -2.8 C 93 % -3.77 C
1648 21-01-2015 08:15:00 -2.8 C 93 % -3.77 C
1649 21-01-2015 08:20:00 -2.8 C 93 % -3.77 C
1650 21-01-2015 08:25:00 -2.8 C 93 % -3.77 C
Sensor: Nr:Datum:Temp:Feuchte:Taupunkt:
Aussen-T/F 1651 21-01-2015 08:30:00 -2.8 C 93 % -3.77 C
1652 21-01-2015 08:35:00 -2.8 C 93 % -3.77 C
1653 21-01-2015 08:40:00 -2.8 C 94 % -3.63 C
1654 21-01-2015 08:45:00 -2.7 C 94 % -3.53 C
1655 21-01-2015 08:50:00 -2.6 C 94 % -3.43 C
1656 21-01-2015 08:55:00 -2.4 C 94 % -3.23 C
1657 21-01-2015 09:00:00 -2.3 C 94 % -3.13 C
1658 21-01-2015 09:05:00 -2.2 C 94 % -3.03 C
1659 21-01-2015 09:10:00 -2.1 C 94 % -2.93 C
1660 21-01-2015 09:15:00 -1.9 C 94 % -2.73 C
1661 21-01-2015 09:20:00 -1.8 C 94 % -2.64 C
1662 21-01-2015 09:25:00 -1.7 C 94 % -2.54 C
1663 21-01-2015 09:30:00 -1.6 C 94 % -2.44 C
1664 21-01-2015 09:35:00 -1.5 C 94 % -2.34 C
1665 21-01-2015 09:40:00 -1.5 C 94 % -2.34 C
1666 21-01-2015 10:00:00 -0.7 C 100 % -0.7 C
1667 21-01-2015 10:05:00 -0.6 C 91 % -1.88 C
1668 21-01-2015 10:10:00 -0.4 C 91 % -1.69 C
1669 21-01-2015 10:15:00 -0.3 C 91 % -1.59 C
1670 21-01-2015 10:20:00 -0.3 C 91 % -1.59 C
1671 21-01-2015 10:25:00 -0.2 C 91 % -1.49 C
1672 21-01-2015 10:30:00 -0.1 C 89 % -1.69 C
1673 21-01-2015 10:35:00 -0.1 C 89 % -1.69 C
1674 21-01-2015 10:40:00 -0.1 C 89 % -1.69 C
1675 21-01-2015 10:45:00 -0.1 C 88 % -1.84 C
Sensor: Nr:Datum:Temp:Feuchte:Taupunkt:
Aussen-T/F 1676 21-01-2015 10:50:00 0.2 C 88 % -1.55 C
1677 21-01-2015 10:55:00 0.2 C 88 % -1.55 C
1678 21-01-2015 11:00:00 0.3 C 88 % -1.45 C
1679 21-01-2015 11:05:00 0.4 C 86 % -1.66 C
1680 21-01-2015 11:10:00 0.4 C 87 % -1.5 C
1681 21-01-2015 11:15:00 0.5 C 87 % -1.41 C
1682 21-01-2015 11:20:00 0.6 C 86 % -1.46 C
1683 21-01-2015 11:25:00 0.6 C 86 % -1.46 C
1684 21-01-2015 11:30:00 0.7 C 86 % -1.37 C
1685 21-01-2015 11:35:00 0.7 C 85 % -1.53 C
1686 21-01-2015 11:40:00 0.7 C 85 % -1.53 C
1687 21-01-2015 11:45:00 0.8 C 85 % -1.43 C
1688 21-01-2015 11:50:00 0.8 C 85 % -1.43 C
1689 21-01-2015 11:55:00 0.9 C 85 % -1.33 C
1690 21-01-2015 12:00:00 0.9 C 84 % -1.49 C
1691 21-01-2015 12:05:00 0.9 C 84 % -1.49 C
1692 21-01-2015 12:10:00 0.9 C 84 % -1.49 C
1693 21-01-2015 12:15:00 1 C 84 % -1.39 C
1694 21-01-2015 12:20:00 1.1 C 84 % -1.29 C
1695 21-01-2015 12:25:00 1.1 C 84 % -1.29 C
1696 21-01-2015 12:30:00 1.1 C 84 % -1.29 C
1697 21-01-2015 12:35:00 1.1 C 84 % -1.29 C
1698 21-01-2015 12:40:00 1.1 C 85 % -1.13 C
1699 21-01-2015 12:45:00 1.1 C 84 % -1.29 C
1700 21-01-2015 12:50:00 1.1 C 84 % -1.29 C
Sensor: Nr:Datum:Temp:Feuchte:Taupunkt:
Aussen-T/F 1701 21-01-2015 12:55:00 1.1 C 84 % -1.29 C
1702 21-01-2015 13:00:00 1.1 C 84 % -1.29 C
1703 21-01-2015 13:05:00 1.1 C 84 % -1.29 C
1704 21-01-2015 13:10:00 1.1 C 85 % -1.13 C
1705 21-01-2015 13:15:00 1.2 C 85 % -1.03 C
1706 21-01-2015 13:20:00 1.2 C 85 % -1.03 C
1707 21-01-2015 13:25:00 1.3 C 85 % -0.94 C
1708 21-01-2015 13:30:00 1.3 C 85 % -0.94 C
1709 21-01-2015 13:35:00 1.3 C 85 % -0.94 C
1710 21-01-2015 13:40:00 1.4 C 85 % -0.84 C
1711 21-01-2015 13:45:00 1.4 C 84 % -1 C
1712 21-01-2015 13:50:00 1.4 C 84 % -1 C
1713 21-01-2015 13:55:00 1.4 C 85 % -0.84 C
1714 21-01-2015 14:00:00 1.5 C 84 % -0.9 C
1715 21-01-2015 14:05:00 1.6 C 85 % -0.64 C
1716 21-01-2015 14:10:00 1.6 C 84 % -0.8 C
1717 21-01-2015 14:15:00 1.7 C 84 % -0.71 C
1718 21-01-2015 14:20:00 1.8 C 84 % -0.61 C
1719 21-01-2015 14:25:00 1.8 C 84 % -0.61 C
1720 21-01-2015 14:30:00 1.9 C 83 % -0.67 C
1721 21-01-2015 14:35:00 1.9 C 83 % -0.67 C
1722 21-01-2015 14:40:00 1.9 C 83 % -0.67 C
1723 21-01-2015 14:45:00 1.9 C 83 % -0.67 C
1724 21-01-2015 14:50:00 1.9 C 83 % -0.67 C
1725 21-01-2015 14:55:00 1.9 C 83 % -0.67 C
Sensor: Nr:Datum:Temp:Feuchte:Taupunkt:
Aussen-T/F 1726 21-01-2015 15:00:00 1.9 C 83 % -0.67 C
1727 21-01-2015 15:05:00 2 C 83 % -0.58 C
1728 21-01-2015 15:10:00 2 C 83 % -0.58 C
1729 21-01-2015 15:15:00 2.1 C 83 % -0.48 C
1730 21-01-2015 15:20:00 2.1 C 83 % -0.48 C
1731 21-01-2015 15:25:00 2.1 C 83 % -0.48 C
1732 21-01-2015 15:30:00 2.1 C 83 % -0.48 C
1733 21-01-2015 15:35:00 2.1 C 83 % -0.48 C
1734 21-01-2015 15:40:00 2.1 C 83 % -0.48 C
1735 21-01-2015 15:45:00 2.1 C 83 % -0.48 C
1736 21-01-2015 15:50:00 2.1 C 83 % -0.48 C
1737 21-01-2015 15:55:00 2.1 C 83 % -0.48 C
1738 21-01-2015 16:00:00 2.1 C 83 % -0.48 C
1739 21-01-2015 16:05:00 2.1 C 83 % -0.48 C
1740 21-01-2015 16:10:00 2 C 83 % -0.58 C
1741 21-01-2015 16:15:00 2 C 83 % -0.58 C
1742 21-01-2015 16:20:00 2 C 83 % -0.58 C
1743 21-01-2015 16:25:00 1.9 C 83 % -0.67 C
1744 21-01-2015 16:30:00 1.9 C 83 % -0.67 C
1745 21-01-2015 16:35:00 1.9 C 83 % -0.67 C
1746 21-01-2015 16:40:00 1.9 C 84 % -0.51 C
1747 21-01-2015 16:45:00 1.8 C 84 % -0.61 C
1748 21-01-2015 16:50:00 1.8 C 84 % -0.61 C
1749 21-01-2015 16:55:00 1.8 C 84 % -0.61 C
1750 21-01-2015 17:00:00 1.8 C 84 % -0.61 C
Sensor: Nr:Datum:Temp:Feuchte:Taupunkt:
Aussen-T/F 1751 21-01-2015 17:05:00 1.8 C 84 % -0.61 C
1752 21-01-2015 17:10:00 1.7 C 84 % -0.71 C
1753 21-01-2015 17:15:00 1.7 C 84 % -0.71 C
1754 21-01-2015 17:20:00 1.7 C 85 % -0.54 C
1755 21-01-2015 17:25:00 1.7 C 85 % -0.54 C
1756 21-01-2015 17:30:00 1.7 C 85 % -0.54 C
1757 21-01-2015 17:35:00 1.7 C 86 % -0.38 C
1758 21-01-2015 17:40:00 1.6 C 86 % -0.48 C
1759 21-01-2015 17:45:00 1.6 C 87 % -0.32 C
1760 21-01-2015 17:50:00 1.5 C 87 % -0.42 C
1761 21-01-2015 17:55:00 1.5 C 87 % -0.42 C
1762 21-01-2015 18:00:00 1.4 C 87 % -0.52 C
1763 21-01-2015 18:05:00 1.4 C 87 % -0.52 C
1764 21-01-2015 18:10:00 1.4 C 87 % -0.52 C
1765 21-01-2015 18:15:00 1.4 C 87 % -0.52 C
1766 21-01-2015 18:20:00 1.4 C 87 % -0.52 C
1767 21-01-2015 18:25:00 1.4 C 87 % -0.52 C
1768 21-01-2015 18:30:00 1.4 C 88 % -0.36 C
1769 21-01-2015 18:35:00 1.4 C 88 % -0.36 C
1770 21-01-2015 18:40:00 1.3 C 88 % -0.46 C
1771 21-01-2015 18:45:00 1.3 C 88 % -0.46 C
1772 21-01-2015 18:50:00 1.3 C 88 % -0.46 C
1773 21-01-2015 18:55:00 1.4 C 88 % -0.36 C
1774 21-01-2015 19:00:00 1.4 C 89 % -0.21 C
1775 21-01-2015 19:05:00 1.4 C 89 % -0.21 C
Sensor: Nr:Datum:Temp:Feuchte:Taupunkt:
Aussen-T/F 1776 21-01-2015 19:10:00 1.4 C 89 % -0.21 C
1777 21-01-2015 19:15:00 1.4 C 89 % -0.21 C
1778 21-01-2015 19:20:00 1.4 C 89 % -0.21 C
1779 21-01-2015 19:25:00 1.5 C 88 % -0.27 C
1780 21-01-2015 19:30:00 1.5 C 88 % -0.27 C
1781 21-01-2015 19:35:00 1.5 C 89 % -0.11 C
1782 21-01-2015 19:40:00 1.4 C 89 % -0.21 C
1783 21-01-2015 19:45:00 1.5 C 89 % -0.11 C
1784 21-01-2015 19:50:00 1.5 C 89 % -0.11 C
1785 21-01-2015 19:55:00 1.5 C 89 % -0.11 C
1786 21-01-2015 20:00:00 1.5 C 89 % -0.11 C
1787 21-01-2015 20:05:00 1.4 C 89 % -0.21 C
1788 21-01-2015 20:10:00 1.5 C 89 % -0.11 C
1789 21-01-2015 20:15:00 1.5 C 89 % -0.11 C
1790 21-01-2015 20:20:00 1.5 C 89 % -0.11 C
1791 21-01-2015 20:25:00 1.5 C 89 % -0.11 C
1792 21-01-2015 20:30:00 1.5 C 89 % -0.11 C
1793 21-01-2015 20:35:00 1.5 C 89 % -0.11 C
1794 21-01-2015 20:40:00 1.5 C 89 % -0.11 C
1795 21-01-2015 20:45:00 1.4 C 89 % -0.21 C
1796 21-01-2015 20:50:00 1.5 C 90 % 0.04 C
1797 21-01-2015 20:55:00 1.5 C 90 % 0.04 C
1798 21-01-2015 21:00:00 1.5 C 90 % 0.04 C
1799 21-01-2015 21:05:00 1.4 C 90 % -0.06 C
1800 21-01-2015 21:10:00 1.4 C 90 % -0.06 C
Sensor: Nr:Datum:Temp:Feuchte:Taupunkt:
Aussen-T/F 1801 21-01-2015 21:15:00 1.4 C 90 % -0.06 C
1802 21-01-2015 21:20:00 1.4 C 90 % -0.06 C
1803 21-01-2015 21:25:00 1.4 C 90 % -0.06 C
1804 21-01-2015 21:30:00 1.4 C 90 % -0.06 C
1805 21-01-2015 21:35:00 1.4 C 90 % -0.06 C
1806 21-01-2015 21:40:00 1.5 C 90 % 0.04 C
1807 21-01-2015 21:45:00 1.5 C 90 % 0.04 C
1808 21-01-2015 21:50:00 1.5 C 90 % 0.04 C
1809 21-01-2015 21:55:00 1.5 C 90 % 0.04 C
1810 21-01-2015 22:00:00 1.4 C 90 % -0.06 C
1811 21-01-2015 22:05:00 1.4 C 90 % -0.06 C
1812 21-01-2015 22:10:00 1.5 C 90 % 0.04 C
1813 21-01-2015 22:15:00 1.5 C 90 % 0.04 C
1814 21-01-2015 22:20:00 1.5 C 90 % 0.04 C
1815 21-01-2015 22:25:00 1.5 C 90 % 0.04 C
1816 21-01-2015 22:30:00 1.5 C 90 % 0.04 C
1817 21-01-2015 22:35:00 1.5 C 90 % 0.04 C
1818 21-01-2015 22:40:00 1.5 C 90 % 0.04 C
1819 21-01-2015 22:45:00 1.5 C 90 % 0.04 C
1820 21-01-2015 22:50:00 1.5 C 90 % 0.04 C
1821 21-01-2015 22:55:00 1.5 C 90 % 0.04 C
1822 21-01-2015 23:00:00 1.5 C 90 % 0.04 C
1823 21-01-2015 23:05:00 1.6 C 90 % 0.14 C
1824 21-01-2015 23:10:00 1.6 C 90 % 0.14 C
1825 21-01-2015 23:15:00 1.6 C 90 % 0.14 C
Sensor: Nr:Datum:Temp:Feuchte:Taupunkt:
Aussen-T/F 1826 21-01-2015 23:20:00 1.6 C 90 % 0.14 C
1827 21-01-2015 23:25:00 1.6 C 90 % 0.14 C
1828 21-01-2015 23:30:00 1.6 C 90 % 0.14 C
1829 21-01-2015 23:35:00 1.6 C 89 % -0.01 C
1830 21-01-2015 23:40:00 1.6 C 89 % -0.01 C
1831 21-01-2015 23:45:00 1.6 C 89 % -0.01 C
1832 21-01-2015 23:50:00 1.6 C 89 % -0.01 C
1833 21-01-2015 23:55:00 1.6 C 89 % -0.01 C
1834 22-01-2015 00:00:00 1.6 C 89 % -0.01 C
1835 22-01-2015 00:05:00 1.6 C 88 % -0.17 C
1836 22-01-2015 00:10:00 1.7 C 88 % -0.07 C
1837 22-01-2015 00:15:00 1.7 C 87 % -0.23 C
1838 22-01-2015 00:20:00 1.7 C 88 % -0.07 C
1839 22-01-2015 00:25:00 1.7 C 88 % -0.07 C
1840 22-01-2015 00:30:00 1.7 C 87 % -0.23 C
1841 22-01-2015 00:35:00 1.7 C 87 % -0.23 C
1842 22-01-2015 00:40:00 1.7 C 87 % -0.23 C
1843 22-01-2015 00:45:00 1.7 C 86 % -0.38 C
1844 22-01-2015 00:50:00 1.8 C 85 % -0.45 C
1845 22-01-2015 00:55:00 1.8 C 86 % -0.29 C
1846 22-01-2015 01:00:00 1.8 C 86 % -0.29 C
1847 22-01-2015 01:05:00 1.8 C 87 % -0.13 C
1848 22-01-2015 01:10:00 1.7 C 86 % -0.38 C
1849 22-01-2015 01:15:00 1.7 C 87 % -0.23 C
1850 22-01-2015 01:20:00 1.7 C 87 % -0.23 C
Sensor: Nr:Datum:Temp:Feuchte:Taupunkt:
Aussen-T/F 1851 22-01-2015 01:25:00 1.6 C 86 % -0.48 C
1852 22-01-2015 01:30:00 1.7 C 86 % -0.38 C
1853 22-01-2015 01:35:00 1.6 C 86 % -0.48 C
1854 22-01-2015 01:40:00 1.6 C 86 % -0.48 C
1855 22-01-2015 01:45:00 1.6 C 87 % -0.32 C
1856 22-01-2015 01:50:00 1.6 C 86 % -0.48 C
1857 22-01-2015 01:55:00 1.6 C 86 % -0.48 C
1858 22-01-2015 02:00:00 1.6 C 86 % -0.48 C
1859 22-01-2015 02:05:00 1.6 C 86 % -0.48 C
1860 22-01-2015 02:10:00 1.6 C 86 % -0.48 C
1861 22-01-2015 02:15:00 1.6 C 86 % -0.48 C
1862 22-01-2015 02:20:00 1.6 C 85 % -0.64 C
1863 22-01-2015 02:25:00 1.6 C 85 % -0.64 C
1864 22-01-2015 02:30:00 1.6 C 85 % -0.64 C
1865 22-01-2015 02:35:00 1.6 C 85 % -0.64 C
1866 22-01-2015 02:40:00 1.6 C 85 % -0.64 C
1867 22-01-2015 02:45:00 1.7 C 84 % -0.71 C
1868 22-01-2015 02:50:00 1.7 C 85 % -0.54 C
1869 22-01-2015 02:55:00 1.6 C 85 % -0.64 C
1870 22-01-2015 03:00:00 1.6 C 85 % -0.64 C
1871 22-01-2015 03:05:00 1.6 C 84 % -0.8 C
1872 22-01-2015 03:10:00 1.6 C 83 % -0.97 C
1873 22-01-2015 03:15:00 1.6 C 83 % -0.97 C
1874 22-01-2015 03:20:00 1.6 C 83 % -0.97 C
1875 22-01-2015 03:25:00 1.6 C 83 % -0.97 C
Sensor: Nr:Datum:Temp:Feuchte:Taupunkt:
Aussen-T/F 1876 22-01-2015 03:30:00 1.6 C 83 % -0.97 C
1877 22-01-2015 03:35:00 1.6 C 83 % -0.97 C
1878 22-01-2015 03:40:00 1.6 C 84 % -0.8 C
1879 22-01-2015 03:45:00 1.6 C 83 % -0.97 C
1880 22-01-2015 03:50:00 1.6 C 84 % -0.8 C
1881 22-01-2015 03:55:00 1.6 C 83 % -0.97 C
1882 22-01-2015 04:00:00 1.5 C 84 % -0.9 C
1883 22-01-2015 04:05:00 1.5 C 84 % -0.9 C
1884 22-01-2015 04:10:00 1.4 C 84 % -1 C
1885 22-01-2015 04:15:00 1.4 C 84 % -1 C
1886 22-01-2015 04:20:00 1.3 C 85 % -0.94 C
1887 22-01-2015 04:25:00 1.3 C 85 % -0.94 C
1888 22-01-2015 04:30:00 1.3 C 85 % -0.94 C
1889 22-01-2015 04:35:00 1.2 C 85 % -1.03 C
1890 22-01-2015 04:40:00 1.2 C 85 % -1.03 C
1891 22-01-2015 04:45:00 1.2 C 85 % -1.03 C
1892 22-01-2015 04:50:00 1.2 C 85 % -1.03 C
1893 22-01-2015 04:55:00 1.2 C 85 % -1.03 C
1894 22-01-2015 05:00:00 1.1 C 85 % -1.13 C
1895 22-01-2015 05:05:00 1.1 C 85 % -1.13 C
1896 22-01-2015 05:10:00 1.1 C 85 % -1.13 C
1897 22-01-2015 05:15:00 1.1 C 85 % -1.13 C
1898 22-01-2015 05:20:00 1.1 C 86 % -0.97 C
1899 22-01-2015 05:25:00 1.1 C 85 % -1.13 C
1900 22-01-2015 05:30:00 1.1 C 85 % -1.13 C
Sensor: Nr:Datum:Temp:Feuchte:Taupunkt:
Aussen-T/F 1901 22-01-2015 05:35:00 1.1 C 85 % -1.13 C
1902 22-01-2015 05:40:00 1.1 C 85 % -1.13 C
1903 22-01-2015 05:45:00 1.1 C 86 % -0.97 C
1904 22-01-2015 05:50:00 1.1 C 86 % -0.97 C
1905 22-01-2015 05:55:00 1.1 C 85 % -1.13 C
1906 22-01-2015 06:00:00 1.1 C 86 % -0.97 C
1907 22-01-2015 06:05:00 1.1 C 86 % -0.97 C
1908 22-01-2015 06:10:00 1.1 C 85 % -1.13 C
1909 22-01-2015 06:15:00 1.1 C 86 % -0.97 C
1910 22-01-2015 06:20:00 1.1 C 86 % -0.97 C
1911 22-01-2015 06:25:00 1.1 C 85 % -1.13 C
1912 22-01-2015 06:30:00 1.1 C 85 % -1.13 C
1913 22-01-2015 06:35:00 1.1 C 85 % -1.13 C
1914 22-01-2015 06:40:00 1.1 C 85 % -1.13 C
1915 22-01-2015 06:45:00 1.1 C 85 % -1.13 C
1916 22-01-2015 06:50:00 1.1 C 85 % -1.13 C
1917 22-01-2015 06:55:00 1.1 C 85 % -1.13 C
1918 22-01-2015 07:00:00 1.1 C 85 % -1.13 C
1919 22-01-2015 07:05:00 1.1 C 85 % -1.13 C
1920 22-01-2015 07:10:00 1.1 C 85 % -1.13 C
1921 22-01-2015 07:15:00 1 C 85 % -1.23 C
1922 22-01-2015 07:20:00 1 C 85 % -1.23 C
1923 22-01-2015 07:25:00 1 C 85 % -1.23 C
1924 22-01-2015 07:30:00 1 C 85 % -1.23 C
1925 22-01-2015 07:35:00 1 C 85 % -1.23 C
Sensor: Nr:Datum:Temp:Feuchte:Taupunkt:
Aussen-T/F 1926 22-01-2015 07:40:00 1 C 85 % -1.23 C
1927 22-01-2015 07:45:00 1 C 85 % -1.23 C
1928 22-01-2015 07:50:00 0.9 C 85 % -1.33 C
1929 22-01-2015 07:55:00 0.9 C 85 % -1.33 C
1930 22-01-2015 08:00:00 0.9 C 85 % -1.33 C
1931 22-01-2015 08:05:00 0.8 C 85 % -1.43 C
1932 22-01-2015 08:10:00 0.8 C 85 % -1.43 C
1933 22-01-2015 08:15:00 0.8 C 85 % -1.43 C
1934 22-01-2015 08:20:00 0.8 C 85 % -1.43 C
1935 22-01-2015 08:25:00 0.7 C 85 % -1.53 C
1936 22-01-2015 08:30:00 0.7 C 86 % -1.37 C
1937 22-01-2015 08:35:00 0.7 C 85 % -1.53 C
1938 22-01-2015 08:40:00 0.7 C 85 % -1.53 C
1939 22-01-2015 08:45:00 0.7 C 86 % -1.37 C
1940 22-01-2015 08:50:00 0.7 C 86 % -1.37 C
1941 22-01-2015 08:55:00 0.7 C 86 % -1.37 C
1942 22-01-2015 09:00:00 0.7 C 86 % -1.37 C
1943 22-01-2015 09:05:00 0.7 C 86 % -1.37 C
1944 22-01-2015 09:10:00 0.7 C 86 % -1.37 C
1945 22-01-2015 09:15:00 0.7 C 86 % -1.37 C
1946 22-01-2015 09:20:00 0.7 C 86 % -1.37 C
1947 22-01-2015 09:25:00 0.7 C 86 % -1.37 C
1948 22-01-2015 09:30:00 0.7 C 85 % -1.53 C
1949 22-01-2015 09:35:00 0.7 C 86 % -1.37 C
1950 22-01-2015 09:40:00 0.7 C 86 % -1.37 C
Sensor: Nr:Datum:Temp:Feuchte:Taupunkt:
Aussen-T/F 1951 22-01-2015 09:45:00 0.7 C 86 % -1.37 C
1952 22-01-2015 09:50:00 0.7 C 86 % -1.37 C
1953 22-01-2015 09:55:00 0.7 C 86 % -1.37 C
1954 22-01-2015 10:00:00 0.8 C 86 % -1.27 C
1955 22-01-2015 10:05:00 0.7 C 85 % -1.53 C
1956 22-01-2015 10:10:00 0.7 C 85 % -1.53 C
1957 22-01-2015 10:15:00 0.7 C 85 % -1.53 C
1958 22-01-2015 10:20:00 0.7 C 85 % -1.53 C
1959 22-01-2015 10:25:00 0.7 C 85 % -1.53 C
1960 22-01-2015 10:30:00 0.7 C 85 % -1.53 C
1961 22-01-2015 10:35:00 0.7 C 85 % -1.53 C
1962 22-01-2015 10:40:00 0.8 C 85 % -1.43 C
1963 22-01-2015 10:45:00 0.8 C 85 % -1.43 C
1964 22-01-2015 10:50:00 0.8 C 85 % -1.43 C
1965 22-01-2015 10:55:00 0.8 C 85 % -1.43 C
1966 22-01-2015 11:00:00 0.8 C 85 % -1.43 C
1967 22-01-2015 11:05:00 0.9 C 85 % -1.33 C
1968 22-01-2015 11:10:00 0.9 C 84 % -1.49 C
1969 22-01-2015 11:15:00 0.9 C 85 % -1.33 C
1970 22-01-2015 11:20:00 0.9 C 85 % -1.33 C
1971 22-01-2015 11:25:00 0.9 C 85 % -1.33 C
1972 22-01-2015 11:30:00 1 C 85 % -1.23 C
1973 22-01-2015 11:35:00 1.1 C 85 % -1.13 C
1974 22-01-2015 11:40:00 1.1 C 85 % -1.13 C
1975 22-01-2015 11:45:00 1.2 C 85 % -1.03 C
Sensor: Nr:Datum:Temp:Feuchte:Taupunkt:
Aussen-T/F 1976 22-01-2015 11:50:00 1.3 C 85 % -0.94 C
1977 22-01-2015 11:55:00 1.3 C 85 % -0.94 C
1978 22-01-2015 12:00:00 1.3 C 84 % -1.1 C
1979 22-01-2015 12:05:00 1.4 C 84 % -1 C
1980 22-01-2015 12:10:00 1.4 C 84 % -1 C
1981 22-01-2015 12:15:00 1.4 C 84 % -1 C
1982 22-01-2015 12:20:00 1.4 C 84 % -1 C
1983 22-01-2015 12:25:00 1.4 C 84 % -1 C
1984 22-01-2015 12:30:00 1.4 C 84 % -1 C
1985 22-01-2015 12:35:00 1.4 C 84 % -1 C
1986 22-01-2015 12:40:00 1.4 C 84 % -1 C
1987 22-01-2015 12:45:00 1.4 C 83 % -1.16 C
1988 22-01-2015 12:50:00 1.4 C 84 % -1 C
1989 22-01-2015 12:55:00 1.4 C 84 % -1 C
1990 22-01-2015 13:00:00 1.4 C 84 % -1 C
1991 22-01-2015 13:05:00 1.4 C 83 % -1.16 C
1992 22-01-2015 13:10:00 1.4 C 83 % -1.16 C
1993 22-01-2015 13:15:00 1.4 C 84 % -1 C
1994 22-01-2015 13:20:00 1.5 C 83 % -1.06 C
1995 22-01-2015 13:25:00 1.5 C 83 % -1.06 C
1996 22-01-2015 13:30:00 1.6 C 83 % -0.97 C
1997 22-01-2015 13:35:00 1.6 C 83 % -0.97 C
1998 22-01-2015 13:40:00 1.6 C 83 % -0.97 C
1999 22-01-2015 13:45:00 1.6 C 84 % -0.8 C
2000 22-01-2015 13:50:00 1.6 C 83 % -0.97 C
Sensor: Nr:Datum:Temp:Feuchte:Taupunkt:
Aussen-T/F 2001 22-01-2015 13:55:00 1.7 C 83 % -0.87 C
2002 22-01-2015 14:00:00 1.7 C 83 % -0.87 C
2003 22-01-2015 14:05:00 1.7 C 83 % -0.87 C
2004 22-01-2015 14:10:00 1.7 C 83 % -0.87 C
2005 22-01-2015 14:15:00 1.8 C 83 % -0.77 C
2006 22-01-2015 14:20:00 1.8 C 83 % -0.77 C
2007 22-01-2015 14:25:00 1.8 C 82 % -0.94 C
2008 22-01-2015 14:30:00 1.8 C 82 % -0.94 C
2009 22-01-2015 14:35:00 1.8 C 82 % -0.94 C
2010 22-01-2015 14:40:00 1.9 C 82 % -0.84 C
2011 22-01-2015 14:45:00 1.9 C 82 % -0.84 C
2012 22-01-2015 14:50:00 1.9 C 83 % -0.67 C
2013 22-01-2015 14:55:00 1.9 C 82 % -0.84 C
2014 22-01-2015 15:00:00 1.9 C 82 % -0.84 C
2015 22-01-2015 15:05:00 1.9 C 83 % -0.67 C
2016 22-01-2015 15:10:00 1.9 C 82 % -0.84 C
2017 22-01-2015 15:15:00 1.9 C 82 % -0.84 C
2018 22-01-2015 15:20:00 1.9 C 82 % -0.84 C
2019 22-01-2015 15:25:00 1.9 C 82 % -0.84 C
2020 22-01-2015 15:30:00 1.9 C 83 % -0.67 C
2021 22-01-2015 15:35:00 1.9 C 82 % -0.84 C
2022 22-01-2015 15:40:00 1.9 C 82 % -0.84 C
2023 22-01-2015 15:45:00 1.9 C 82 % -0.84 C
2024 22-01-2015 15:50:00 1.9 C 82 % -0.84 C
2025 22-01-2015 15:55:00 1.9 C 82 % -0.84 C
Sensor: Nr:Datum:Temp:Feuchte:Taupunkt:
Aussen-T/F 2026 22-01-2015 16:00:00 1.9 C 82 % -0.84 C
2027 22-01-2015 16:05:00 1.9 C 82 % -0.84 C
2028 22-01-2015 16:10:00 1.9 C 82 % -0.84 C
2029 22-01-2015 16:15:00 1.9 C 82 % -0.84 C
2030 22-01-2015 16:20:00 1.9 C 82 % -0.84 C
2031 22-01-2015 16:25:00 1.9 C 82 % -0.84 C
2032 22-01-2015 16:30:00 1.9 C 83 % -0.67 C
2033 22-01-2015 16:35:00 1.9 C 83 % -0.67 C
2034 22-01-2015 16:40:00 1.9 C 83 % -0.67 C
2035 22-01-2015 16:45:00 1.9 C 83 % -0.67 C
2036 22-01-2015 16:50:00 1.9 C 83 % -0.67 C
2037 22-01-2015 16:55:00 1.9 C 83 % -0.67 C
2038 22-01-2015 17:00:00 1.9 C 84 % -0.51 C
2039 22-01-2015 17:05:00 1.8 C 84 % -0.61 C
2040 22-01-2015 17:10:00 1.8 C 84 % -0.61 C
2041 22-01-2015 17:15:00 1.8 C 84 % -0.61 C
2042 22-01-2015 17:20:00 1.8 C 83 % -0.77 C
2043 22-01-2015 17:25:00 1.8 C 84 % -0.61 C
2044 22-01-2015 17:30:00 1.8 C 84 % -0.61 C
2045 22-01-2015 17:35:00 1.8 C 85 % -0.45 C
2046 22-01-2015 17:40:00 1.7 C 85 % -0.54 C
2047 22-01-2015 17:45:00 1.7 C 84 % -0.71 C
2048 22-01-2015 17:50:00 1.7 C 84 % -0.71 C
2049 22-01-2015 17:55:00 1.8 C 84 % -0.61 C
2050 22-01-2015 18:00:00 1.8 C 84 % -0.61 C
Sensor: Nr:Datum:Temp:Feuchte:Taupunkt:
Aussen-T/F 2051 22-01-2015 18:05:00 1.8 C 84 % -0.61 C
2052 22-01-2015 18:10:00 1.8 C 84 % -0.61 C
2053 22-01-2015 18:15:00 1.8 C 85 % -0.45 C
2054 22-01-2015 18:20:00 1.8 C 85 % -0.45 C
2055 22-01-2015 18:25:00 1.8 C 85 % -0.45 C
2056 22-01-2015 18:30:00 1.8 C 85 % -0.45 C
2057 22-01-2015 18:35:00 1.8 C 85 % -0.45 C
2058 22-01-2015 18:40:00 1.8 C 85 % -0.45 C
2059 22-01-2015 18:45:00 1.8 C 85 % -0.45 C
2060 22-01-2015 18:50:00 1.8 C 84 % -0.61 C
2061 22-01-2015 18:55:00 1.8 C 84 % -0.61 C
2062 22-01-2015 19:00:00 1.8 C 84 % -0.61 C
2063 22-01-2015 19:05:00 1.8 C 84 % -0.61 C
2064 22-01-2015 19:10:00 1.8 C 84 % -0.61 C
2065 22-01-2015 19:15:00 1.8 C 84 % -0.61 C
2066 22-01-2015 19:20:00 1.8 C 84 % -0.61 C
2067 22-01-2015 19:25:00 1.8 C 85 % -0.45 C
2068 22-01-2015 19:30:00 1.8 C 84 % -0.61 C
2069 22-01-2015 19:35:00 1.8 C 84 % -0.61 C
2070 22-01-2015 19:40:00 1.8 C 84 % -0.61 C
2071 22-01-2015 19:45:00 1.8 C 84 % -0.61 C
2072 22-01-2015 19:50:00 1.8 C 84 % -0.61 C
2073 22-01-2015 19:55:00 1.8 C 84 % -0.61 C
2074 22-01-2015 20:00:00 1.8 C 83 % -0.77 C
2075 22-01-2015 20:05:00 1.8 C 83 % -0.77 C
Sensor: Nr:Datum:Temp:Feuchte:Taupunkt:
Aussen-T/F 2076 22-01-2015 20:10:00 1.8 C 83 % -0.77 C
2077 22-01-2015 20:15:00 1.8 C 84 % -0.61 C
2078 22-01-2015 20:20:00 1.8 C 84 % -0.61 C
2079 22-01-2015 20:25:00 1.8 C 84 % -0.61 C
2080 22-01-2015 20:30:00 1.8 C 85 % -0.45 C
2081 22-01-2015 20:35:00 1.8 C 85 % -0.45 C
2082 22-01-2015 20:40:00 1.8 C 85 % -0.45 C
2083 22-01-2015 20:45:00 1.7 C 85 % -0.54 C
2084 22-01-2015 20:50:00 1.7 C 85 % -0.54 C
2085 22-01-2015 20:55:00 1.7 C 86 % -0.38 C
2086 22-01-2015 21:00:00 1.7 C 86 % -0.38 C
2087 22-01-2015 21:05:00 1.7 C 86 % -0.38 C
2088 22-01-2015 21:10:00 1.7 C 86 % -0.38 C
2089 22-01-2015 21:15:00 1.7 C 86 % -0.38 C
2090 22-01-2015 21:20:00 1.6 C 86 % -0.48 C
2091 22-01-2015 21:25:00 1.6 C 86 % -0.48 C
2092 22-01-2015 21:30:00 1.6 C 87 % -0.32 C
2093 22-01-2015 21:35:00 1.6 C 87 % -0.32 C
2094 22-01-2015 21:40:00 1.6 C 87 % -0.32 C
2095 22-01-2015 21:45:00 1.6 C 87 % -0.32 C
2096 22-01-2015 21:50:00 1.6 C 87 % -0.32 C
2097 22-01-2015 21:55:00 1.6 C 87 % -0.32 C
2098 22-01-2015 22:00:00 1.6 C 87 % -0.32 C
2099 22-01-2015 22:05:00 1.6 C 87 % -0.32 C
2100 22-01-2015 22:10:00 1.6 C 87 % -0.32 C
Sensor: Nr:Datum:Temp:Feuchte:Taupunkt:
Aussen-T/F 2101 22-01-2015 22:15:00 1.6 C 87 % -0.32 C
2102 22-01-2015 22:20:00 1.6 C 87 % -0.32 C
2103 22-01-2015 22:25:00 1.6 C 87 % -0.32 C
2104 22-01-2015 22:30:00 1.6 C 88 % -0.17 C
2105 22-01-2015 22:35:00 1.6 C 88 % -0.17 C
2106 22-01-2015 22:40:00 1.6 C 88 % -0.17 C
2107 22-01-2015 22:45:00 1.6 C 88 % -0.17 C
2108 22-01-2015 22:50:00 1.6 C 88 % -0.17 C
2109 22-01-2015 22:55:00 1.6 C 87 % -0.32 C
2110 22-01-2015 23:00:00 1.7 C 87 % -0.23 C
2111 22-01-2015 23:05:00 1.7 C 87 % -0.23 C
2112 22-01-2015 23:10:00 1.7 C 88 % -0.07 C
2113 22-01-2015 23:15:00 1.7 C 88 % -0.07 C
2114 22-01-2015 23:20:00 1.7 C 88 % -0.07 C
2115 22-01-2015 23:25:00 1.7 C 87 % -0.23 C
2116 22-01-2015 23:30:00 1.7 C 87 % -0.23 C
2117 22-01-2015 23:35:00 1.7 C 87 % -0.23 C
2118 22-01-2015 23:40:00 1.7 C 87 % -0.23 C
2119 22-01-2015 23:45:00 1.7 C 87 % -0.23 C
2120 22-01-2015 23:50:00 1.8 C 87 % -0.13 C
2121 22-01-2015 23:55:00 1.8 C 87 % -0.13 C
2122 23-01-2015 00:00:00 1.7 C 87 % -0.23 C
2123 23-01-2015 00:05:00 1.7 C 87 % -0.23 C
2124 23-01-2015 00:10:00 1.7 C 87 % -0.23 C
2125 23-01-2015 00:15:00 1.7 C 87 % -0.23 C
Sensor: Nr:Datum:Temp:Feuchte:Taupunkt:
Aussen-T/F 2126 23-01-2015 00:20:00 1.7 C 87 % -0.23 C
2127 23-01-2015 00:25:00 1.7 C 87 % -0.23 C
2128 23-01-2015 00:30:00 1.7 C 87 % -0.23 C
2129 23-01-2015 00:35:00 1.7 C 87 % -0.23 C
2130 23-01-2015 00:40:00 1.7 C 88 % -0.07 C
2131 23-01-2015 00:45:00 1.7 C 88 % -0.07 C
2132 23-01-2015 00:50:00 1.7 C 88 % -0.07 C
2133 23-01-2015 00:55:00 1.7 C 88 % -0.07 C
2134 23-01-2015 01:00:00 1.7 C 88 % -0.07 C
2135 23-01-2015 01:05:00 1.7 C 88 % -0.07 C
2136 23-01-2015 01:10:00 1.7 C 88 % -0.07 C
2137 23-01-2015 01:15:00 1.7 C 88 % -0.07 C
2138 23-01-2015 01:20:00 1.7 C 88 % -0.07 C
2139 23-01-2015 01:25:00 1.7 C 88 % -0.07 C
2140 23-01-2015 01:30:00 1.7 C 88 % -0.07 C
2141 23-01-2015 01:35:00 1.7 C 89 % 0.09 C
2142 23-01-2015 01:40:00 1.7 C 89 % 0.09 C
2143 23-01-2015 01:45:00 1.6 C 89 % -0.01 C
2144 23-01-2015 01:50:00 1.6 C 89 % -0.01 C
2145 23-01-2015 01:55:00 1.6 C 89 % -0.01 C
2146 23-01-2015 02:00:00 1.6 C 89 % -0.01 C
2147 23-01-2015 02:05:00 1.6 C 89 % -0.01 C
2148 23-01-2015 02:10:00 1.6 C 90 % 0.14 C
2149 23-01-2015 02:15:00 1.6 C 89 % -0.01 C
2150 23-01-2015 02:20:00 1.6 C 89 % -0.01 C
Sensor: Nr:Datum:Temp:Feuchte:Taupunkt:
Aussen-T/F 2151 23-01-2015 02:25:00 1.6 C 89 % -0.01 C
2152 23-01-2015 02:30:00 1.6 C 90 % 0.14 C
2153 23-01-2015 02:35:00 1.6 C 90 % 0.14 C
2154 23-01-2015 02:40:00 1.6 C 90 % 0.14 C
2155 23-01-2015 02:45:00 1.6 C 90 % 0.14 C
2156 23-01-2015 02:50:00 1.6 C 90 % 0.14 C
2157 23-01-2015 02:55:00 1.6 C 90 % 0.14 C
2158 23-01-2015 03:00:00 1.6 C 90 % 0.14 C
2159 23-01-2015 03:05:00 1.6 C 90 % 0.14 C
2160 23-01-2015 03:10:00 1.6 C 90 % 0.14 C
2161 23-01-2015 03:15:00 1.6 C 90 % 0.14 C
2162 23-01-2015 03:20:00 1.6 C 90 % 0.14 C
2163 23-01-2015 03:25:00 1.6 C 90 % 0.14 C
2164 23-01-2015 03:30:00 1.6 C 90 % 0.14 C
2165 23-01-2015 03:35:00 1.6 C 90 % 0.14 C
2166 23-01-2015 03:40:00 1.7 C 90 % 0.24 C
2167 23-01-2015 03:45:00 1.7 C 90 % 0.24 C
2168 23-01-2015 03:50:00 1.7 C 90 % 0.24 C
2169 23-01-2015 03:55:00 1.7 C 90 % 0.24 C
2170 23-01-2015 04:00:00 1.7 C 90 % 0.24 C
2171 23-01-2015 04:05:00 1.7 C 90 % 0.24 C
2172 23-01-2015 04:10:00 1.7 C 90 % 0.24 C
2173 23-01-2015 04:15:00 1.7 C 90 % 0.24 C
2174 23-01-2015 04:20:00 1.7 C 90 % 0.24 C
2175 23-01-2015 04:25:00 1.7 C 90 % 0.24 C
Sensor: Nr:Datum:Temp:Feuchte:Taupunkt:
Aussen-T/F 2176 23-01-2015 04:30:00 1.7 C 91 % 0.39 C
2177 23-01-2015 04:35:00 1.6 C 91 % 0.29 C
2178 23-01-2015 04:40:00 1.6 C 91 % 0.29 C
2179 23-01-2015 04:45:00 1.6 C 91 % 0.29 C
2180 23-01-2015 04:50:00 1.6 C 91 % 0.29 C
2181 23-01-2015 04:55:00 1.6 C 91 % 0.29 C
2182 23-01-2015 05:00:00 1.6 C 91 % 0.29 C
2183 23-01-2015 05:05:00 1.6 C 91 % 0.29 C
2184 23-01-2015 05:10:00 1.6 C 91 % 0.29 C
2185 23-01-2015 05:15:00 1.6 C 91 % 0.29 C
2186 23-01-2015 05:20:00 1.6 C 91 % 0.29 C
2187 23-01-2015 05:25:00 1.6 C 91 % 0.29 C
2188 23-01-2015 05:30:00 1.6 C 91 % 0.29 C
2189 23-01-2015 05:35:00 1.6 C 91 % 0.29 C
2190 23-01-2015 05:40:00 1.6 C 91 % 0.29 C
2191 23-01-2015 05:45:00 1.6 C 91 % 0.29 C
2192 23-01-2015 05:50:00 1.6 C 90 % 0.14 C
2193 23-01-2015 05:55:00 1.6 C 90 % 0.14 C
2194 23-01-2015 06:00:00 1.6 C 91 % 0.29 C
2195 23-01-2015 06:05:00 1.6 C 91 % 0.29 C
2196 23-01-2015 06:10:00 1.6 C 91 % 0.29 C
2197 23-01-2015 06:15:00 1.6 C 90 % 0.14 C
2198 23-01-2015 06:20:00 1.6 C 90 % 0.14 C
2199 23-01-2015 06:25:00 1.6 C 90 % 0.14 C
2200 23-01-2015 06:30:00 1.6 C 90 % 0.14 C
Sensor: Nr:Datum:Temp:Feuchte:Taupunkt:
Aussen-T/F 2201 23-01-2015 06:35:00 1.6 C 90 % 0.14 C
2202 23-01-2015 06:40:00 1.6 C 90 % 0.14 C
2203 23-01-2015 06:45:00 1.6 C 90 % 0.14 C
2204 23-01-2015 06:50:00 1.6 C 90 % 0.14 C
2205 23-01-2015 06:55:00 1.6 C 90 % 0.14 C
2206 23-01-2015 07:00:00 1.6 C 90 % 0.14 C
2207 23-01-2015 07:05:00 1.7 C 90 % 0.24 C
2208 23-01-2015 07:10:00 1.6 C 90 % 0.14 C
2209 23-01-2015 07:15:00 1.6 C 90 % 0.14 C
2210 23-01-2015 07:20:00 1.6 C 90 % 0.14 C
2211 23-01-2015 07:25:00 1.6 C 90 % 0.14 C
2212 23-01-2015 07:30:00 1.6 C 90 % 0.14 C
2213 23-01-2015 07:35:00 1.6 C 90 % 0.14 C
2214 23-01-2015 07:40:00 1.6 C 90 % 0.14 C
2215 23-01-2015 07:45:00 1.6 C 90 % 0.14 C
2216 23-01-2015 07:50:00 1.6 C 89 % -0.01 C
2217 23-01-2015 07:55:00 1.6 C 89 % -0.01 C
2218 23-01-2015 08:00:00 1.6 C 89 % -0.01 C
2219 23-01-2015 08:05:00 1.6 C 89 % -0.01 C
2220 23-01-2015 08:10:00 1.6 C 89 % -0.01 C
2221 23-01-2015 08:15:00 1.6 C 89 % -0.01 C
2222 23-01-2015 08:20:00 1.6 C 89 % -0.01 C
2223 23-01-2015 08:25:00 1.6 C 89 % -0.01 C
2224 23-01-2015 08:30:00 1.6 C 90 % 0.14 C
2225 23-01-2015 08:35:00 1.6 C 90 % 0.14 C
Sensor: Nr:Datum:Temp:Feuchte:Taupunkt:
Aussen-T/F 2226 23-01-2015 08:40:00 1.6 C 90 % 0.14 C
2227 23-01-2015 08:45:00 1.6 C 90 % 0.14 C
2228 23-01-2015 08:50:00 1.6 C 90 % 0.14 C
2229 23-01-2015 08:55:00 1.6 C 90 % 0.14 C
2230 23-01-2015 09:00:00 1.6 C 89 % -0.01 C
2231 23-01-2015 09:05:00 1.6 C 89 % -0.01 C
2232 23-01-2015 09:10:00 1.6 C 90 % 0.14 C
2233 23-01-2015 09:15:00 1.6 C 90 % 0.14 C
2234 23-01-2015 09:20:00 1.6 C 90 % 0.14 C
2235 23-01-2015 09:25:00 1.6 C 89 % -0.01 C
2236 23-01-2015 09:30:00 1.6 C 89 % -0.01 C
2237 23-01-2015 09:35:00 1.6 C 89 % -0.01 C
2238 23-01-2015 09:40:00 1.5 C 89 % -0.11 C
2239 23-01-2015 09:45:00 1.4 C 90 % -0.06 C
2240 23-01-2015 09:50:00 1.3 C 90 % -0.15 C
2241 23-01-2015 09:55:00 1.2 C 90 % -0.25 C
2242 23-01-2015 10:00:00 1.1 C 91 % -0.2 C
2243 23-01-2015 10:05:00 1.1 C 91 % -0.2 C
2244 23-01-2015 10:10:00 1.2 C 92 % 0.05 C
2245 23-01-2015 10:15:00 1.3 C 91 % 0 C
2246 23-01-2015 10:20:00 1.4 C 91 % 0.1 C
2247 23-01-2015 10:25:00 1.5 C 90 % 0.04 C
2248 23-01-2015 10:30:00 1.6 C 90 % 0.14 C
2249 23-01-2015 10:35:00 1.7 C 90 % 0.24 C
2250 23-01-2015 10:40:00 1.8 C 90 % 0.34 C
Sensor: Nr:Datum:Temp:Feuchte:Taupunkt:
Aussen-T/F 2251 23-01-2015 10:45:00 1.8 C 90 % 0.34 C
2252 23-01-2015 10:50:00 1.9 C 89 % 0.28 C
2253 23-01-2015 10:55:00 1.9 C 89 % 0.28 C
2254 23-01-2015 11:00:00 1.9 C 89 % 0.28 C
2255 23-01-2015 11:05:00 2 C 89 % 0.38 C
2256 23-01-2015 11:10:00 2.2 C 89 % 0.58 C
2257 23-01-2015 11:15:00 2.2 C 89 % 0.58 C
2258 23-01-2015 11:20:00 2.3 C 88 % 0.52 C
2259 23-01-2015 11:25:00 2.3 C 88 % 0.52 C
2260 23-01-2015 11:30:00 2.4 C 88 % 0.62 C
2261 23-01-2015 11:35:00 2.4 C 88 % 0.62 C
2262 23-01-2015 11:40:00 2.5 C 88 % 0.72 C
2263 23-01-2015 11:45:00 2.6 C 88 % 0.82 C
2264 23-01-2015 11:50:00 2.7 C 87 % 0.76 C
2265 23-01-2015 11:55:00 2.8 C 88 % 1.02 C
2266 23-01-2015 12:00:00 2.8 C 86 % 0.7 C
2267 23-01-2015 12:05:00 2.8 C 86 % 0.7 C
2268 23-01-2015 12:10:00 2.8 C 86 % 0.7 C
2269 23-01-2015 12:15:00 2.9 C 86 % 0.8 C
2270 23-01-2015 12:20:00 2.9 C 85 % 0.63 C
2271 23-01-2015 12:25:00 2.9 C 86 % 0.8 C
2272 23-01-2015 12:30:00 2.9 C 86 % 0.8 C
2273 23-01-2015 12:35:00 2.9 C 85 % 0.63 C
2274 23-01-2015 12:40:00 2.9 C 85 % 0.63 C
2275 23-01-2015 12:45:00 2.9 C 85 % 0.63 C
Sensor: Nr:Datum:Temp:Feuchte:Taupunkt:
Aussen-T/F 2276 23-01-2015 12:50:00 2.9 C 85 % 0.63 C
2277 23-01-2015 12:55:00 2.9 C 85 % 0.63 C
2278 23-01-2015 13:00:00 2.9 C 85 % 0.63 C
2279 23-01-2015 13:05:00 3 C 85 % 0.73 C
2280 23-01-2015 13:10:00 3.1 C 85 % 0.83 C
2281 23-01-2015 13:15:00 3.2 C 85 % 0.93 C
2282 23-01-2015 13:20:00 3.2 C 84 % 0.76 C
2283 23-01-2015 13:25:00 3.3 C 84 % 0.86 C
2284 23-01-2015 13:30:00 3.3 C 84 % 0.86 C
2285 23-01-2015 13:35:00 3.3 C 84 % 0.86 C
2286 23-01-2015 13:40:00 3.3 C 84 % 0.86 C
2287 23-01-2015 13:45:00 3.3 C 84 % 0.86 C
2288 23-01-2015 13:50:00 3.2 C 84 % 0.76 C
2289 23-01-2015 13:55:00 3.1 C 85 % 0.83 C
2290 23-01-2015 14:00:00 3.1 C 84 % 0.67 C
2291 23-01-2015 14:05:00 3.1 C 84 % 0.67 C
2292 23-01-2015 14:10:00 3 C 84 % 0.57 C
2293 23-01-2015 14:15:00 2.9 C 85 % 0.63 C
2294 23-01-2015 14:20:00 2.9 C 85 % 0.63 C
2295 23-01-2015 14:25:00 2.9 C 85 % 0.63 C
2296 23-01-2015 14:30:00 2.9 C 84 % 0.47 C
2297 23-01-2015 14:35:00 2.9 C 85 % 0.63 C
2298 23-01-2015 14:40:00 2.9 C 85 % 0.63 C
2299 23-01-2015 14:45:00 2.8 C 85 % 0.54 C
2300 23-01-2015 14:50:00 2.8 C 85 % 0.54 C
Sensor: Nr:Datum:Temp:Feuchte:Taupunkt:
Aussen-T/F 2301 23-01-2015 14:55:00 2.8 C 85 % 0.54 C
2302 23-01-2015 15:00:00 2.8 C 85 % 0.54 C
2303 23-01-2015 15:05:00 2.8 C 85 % 0.54 C
2304 23-01-2015 15:10:00 2.8 C 85 % 0.54 C
2305 23-01-2015 15:15:00 2.8 C 85 % 0.54 C
2306 23-01-2015 15:20:00 2.8 C 85 % 0.54 C
2307 23-01-2015 15:25:00 2.8 C 85 % 0.54 C
2308 23-01-2015 15:30:00 2.7 C 85 % 0.44 C
2309 23-01-2015 15:35:00 2.7 C 85 % 0.44 C
2310 23-01-2015 15:40:00 2.7 C 85 % 0.44 C
2311 23-01-2015 15:45:00 2.6 C 85 % 0.34 C
2312 23-01-2015 15:50:00 2.6 C 85 % 0.34 C
2313 23-01-2015 15:55:00 2.6 C 85 % 0.34 C
2314 23-01-2015 16:00:00 2.5 C 85 % 0.24 C
2315 23-01-2015 16:05:00 2.4 C 85 % 0.14 C
2316 23-01-2015 16:10:00 2.4 C 86 % 0.3 C
2317 23-01-2015 16:15:00 2.3 C 86 % 0.21 C
2318 23-01-2015 16:20:00 2.3 C 86 % 0.21 C
2319 23-01-2015 16:25:00 2.2 C 86 % 0.11 C
2320 23-01-2015 16:30:00 2.2 C 86 % 0.11 C
2321 23-01-2015 16:35:00 2.1 C 86 % 0.01 C
2322 23-01-2015 16:40:00 2 C 86 % -0.09 C
2323 23-01-2015 16:45:00 1.8 C 87 % -0.13 C
2324 23-01-2015 16:50:00 1.6 C 87 % -0.32 C
2325 23-01-2015 16:55:00 1.3 C 88 % -0.46 C
Sensor: Nr:Datum:Temp:Feuchte:Taupunkt:
Aussen-T/F 2326 23-01-2015 17:00:00 1 C 88 % -0.76 C
2327 23-01-2015 17:05:00 0.7 C 89 % -0.9 C
2328 23-01-2015 17:10:00 0.6 C 90 % -0.85 C
2329 23-01-2015 17:15:00 0.6 C 91 % -0.7 C
2330 23-01-2015 17:20:00 0.6 C 91 % -0.7 C
2331 23-01-2015 17:25:00 0.7 C 91 % -0.6 C
2332 23-01-2015 17:30:00 0.5 C 90 % -0.95 C
2333 23-01-2015 17:35:00 0.5 C 91 % -0.79 C
2334 23-01-2015 17:40:00 0.4 C 90 % -1.04 C
2335 23-01-2015 17:45:00 0.4 C 91 % -0.89 C
2336 23-01-2015 17:50:00 0.3 C 91 % -0.99 C
2337 23-01-2015 17:55:00 0.2 C 91 % -1.09 C
2338 23-01-2015 18:00:00 0.1 C 91 % -1.19 C
2339 23-01-2015 18:05:00 0.1 C 92 % -1.04 C
2340 23-01-2015 18:10:00 0.1 C 92 % -1.04 C
2341 23-01-2015 18:15:00 0.1 C 92 % -1.04 C
2342 23-01-2015 18:20:00 0 C 92 % -1.14 C
2343 23-01-2015 18:25:00 0 C 92 % -1.14 C
2344 23-01-2015 18:30:00 -0.1 C 92 % -1.24 C
2345 23-01-2015 18:35:00 -0.2 C 92 % -1.34 C
2346 23-01-2015 18:40:00 -0.2 C 93 % -1.19 C
2347 23-01-2015 18:45:00 -0.2 C 92 % -1.34 C
2348 23-01-2015 18:50:00 -0.2 C 93 % -1.19 C
2349 23-01-2015 18:55:00 -0.2 C 93 % -1.19 C
2350 23-01-2015 19:00:00 -0.2 C 93 % -1.19 C
Sensor: Nr:Datum:Temp:Feuchte:Taupunkt:
Aussen-T/F 2351 23-01-2015 19:05:00 -0.2 C 93 % -1.19 C
2352 23-01-2015 19:10:00 -0.2 C 93 % -1.19 C
2353 23-01-2015 19:15:00 -0.2 C 93 % -1.19 C
2354 23-01-2015 19:20:00 -0.2 C 93 % -1.19 C
2355 23-01-2015 19:25:00 -0.3 C 93 % -1.29 C
2356 23-01-2015 19:30:00 -0.3 C 93 % -1.29 C
2357 23-01-2015 19:35:00 -0.2 C 93 % -1.19 C
2358 23-01-2015 19:40:00 -0.2 C 93 % -1.19 C
2359 23-01-2015 19:45:00 -0.2 C 93 % -1.19 C
2360 23-01-2015 19:50:00 -0.2 C 93 % -1.19 C
2361 23-01-2015 19:55:00 -0.3 C 93 % -1.29 C
2362 23-01-2015 20:00:00 -0.3 C 94 % -1.15 C
2363 23-01-2015 20:05:00 -0.2 C 94 % -1.05 C
2364 23-01-2015 20:10:00 -0.2 C 94 % -1.05 C
2365 23-01-2015 20:15:00 -0.2 C 94 % -1.05 C
2366 23-01-2015 20:20:00 -0.3 C 94 % -1.15 C
2367 23-01-2015 20:25:00 -0.3 C 94 % -1.15 C
2368 23-01-2015 20:30:00 -0.5 C 93 % -1.49 C
2369 23-01-2015 20:35:00 -0.6 C 93 % -1.59 C
2370 23-01-2015 20:40:00 -0.7 C 93 % -1.69 C
2371 23-01-2015 20:45:00 -0.7 C 94 % -1.54 C
2372 23-01-2015 20:50:00 -0.8 C 94 % -1.64 C
2373 23-01-2015 20:55:00 -0.8 C 94 % -1.64 C
2374 23-01-2015 21:00:00 -0.8 C 94 % -1.64 C
2375 23-01-2015 21:05:00 -0.8 C 94 % -1.64 C
Sensor: Nr:Datum:Temp:Feuchte:Taupunkt:
Aussen-T/F 2376 23-01-2015 21:10:00 -0.8 C 94 % -1.64 C
2377 23-01-2015 21:15:00 -0.7 C 94 % -1.54 C
2378 23-01-2015 21:20:00 -0.7 C 95 % -1.4 C
2379 23-01-2015 21:25:00 -0.7 C 95 % -1.4 C
2380 23-01-2015 21:30:00 -0.7 C 95 % -1.4 C
2381 23-01-2015 21:35:00 -0.7 C 95 % -1.4 C
2382 23-01-2015 21:40:00 -0.6 C 95 % -1.3 C
2383 23-01-2015 21:45:00 -0.6 C 95 % -1.3 C
2384 23-01-2015 21:50:00 -0.6 C 95 % -1.3 C
2385 23-01-2015 21:55:00 -0.6 C 95 % -1.3 C
2386 23-01-2015 22:00:00 -0.5 C 95 % -1.2 C
2387 23-01-2015 22:05:00 -0.5 C 94 % -1.34 C
2388 23-01-2015 22:10:00 -0.5 C 94 % -1.34 C
2389 23-01-2015 22:15:00 -0.4 C 95 % -1.1 C
2390 23-01-2015 22:20:00 -0.4 C 94 % -1.25 C
2391 23-01-2015 22:25:00 -0.4 C 94 % -1.25 C
2392 23-01-2015 22:30:00 -0.4 C 94 % -1.25 C
2393 23-01-2015 22:35:00 -0.4 C 94 % -1.25 C
2394 23-01-2015 22:40:00 -0.4 C 94 % -1.25 C
2395 23-01-2015 22:45:00 -0.4 C 94 % -1.25 C
2396 23-01-2015 22:50:00 -0.4 C 94 % -1.25 C
2397 23-01-2015 22:55:00 -0.4 C 94 % -1.25 C
2398 23-01-2015 23:00:00 -0.4 C 94 % -1.25 C
2399 23-01-2015 23:05:00 -0.4 C 94 % -1.25 C
2400 23-01-2015 23:10:00 -0.4 C 94 % -1.25 C
Sensor: Nr:Datum:Temp:Feuchte:Taupunkt:
Aussen-T/F 2401 23-01-2015 23:15:00 -0.5 C 94 % -1.34 C
2402 23-01-2015 23:20:00 -0.5 C 94 % -1.34 C
2403 23-01-2015 23:25:00 -0.6 C 94 % -1.44 C
2404 23-01-2015 23:30:00 -0.6 C 94 % -1.44 C
2405 23-01-2015 23:35:00 -0.6 C 94 % -1.44 C
2406 23-01-2015 23:40:00 -0.6 C 94 % -1.44 C
2407 23-01-2015 23:45:00 -0.7 C 94 % -1.54 C
2408 23-01-2015 23:50:00 -0.7 C 94 % -1.54 C
2409 23-01-2015 23:55:00 -0.6 C 94 % -1.44 C
2410 24-01-2015 00:00:00 -0.6 C 94 % -1.44 C
2411 24-01-2015 00:05:00 -0.6 C 94 % -1.44 C
2412 24-01-2015 00:10:00 -0.5 C 94 % -1.34 C
2413 24-01-2015 00:15:00 -0.5 C 94 % -1.34 C
2414 24-01-2015 00:20:00 -0.5 C 94 % -1.34 C
2415 24-01-2015 00:25:00 -0.5 C 94 % -1.34 C
2416 24-01-2015 00:30:00 -0.4 C 94 % -1.25 C
2417 24-01-2015 00:35:00 -0.4 C 94 % -1.25 C
2418 24-01-2015 00:40:00 -0.4 C 94 % -1.25 C
2419 24-01-2015 00:45:00 -0.5 C 94 % -1.34 C
2420 24-01-2015 00:50:00 -0.5 C 94 % -1.34 C
2421 24-01-2015 00:55:00 -0.5 C 94 % -1.34 C
2422 24-01-2015 01:00:00 -0.6 C 94 % -1.44 C
2423 24-01-2015 01:05:00 -0.6 C 93 % -1.59 C
2424 24-01-2015 01:10:00 -0.6 C 93 % -1.59 C
2425 24-01-2015 01:15:00 -0.7 C 93 % -1.69 C
Sensor: Nr:Datum:Temp:Feuchte:Taupunkt:
Aussen-T/F 2426 24-01-2015 01:20:00 -0.7 C 93 % -1.69 C
2427 24-01-2015 01:25:00 -0.7 C 94 % -1.54 C
2428 24-01-2015 01:30:00 -0.7 C 94 % -1.54 C
2429 24-01-2015 01:35:00 -0.7 C 93 % -1.69 C
2430 24-01-2015 01:40:00 -0.7 C 93 % -1.69 C
2431 24-01-2015 01:45:00 -0.7 C 93 % -1.69 C
2432 24-01-2015 01:50:00 -0.7 C 93 % -1.69 C
2433 24-01-2015 01:55:00 -0.8 C 93 % -1.79 C
2434 24-01-2015 02:00:00 -0.8 C 93 % -1.79 C
2435 24-01-2015 02:05:00 -0.8 C 93 % -1.79 C
2436 24-01-2015 02:10:00 -0.9 C 93 % -1.89 C
2437 24-01-2015 02:15:00 -1.1 C 93 % -2.09 C
2438 24-01-2015 02:20:00 -1.2 C 93 % -2.18 C
2439 24-01-2015 02:25:00 -1.3 C 93 % -2.28 C
2440 24-01-2015 02:30:00 -1.3 C 93 % -2.28 C
2441 24-01-2015 02:35:00 -1.4 C 94 % -2.24 C
2442 24-01-2015 02:40:00 -1.4 C 94 % -2.24 C
2443 24-01-2015 02:45:00 -1.4 C 94 % -2.24 C
2444 24-01-2015 02:50:00 -1.4 C 94 % -2.24 C
2445 24-01-2015 02:55:00 -1.4 C 94 % -2.24 C
2446 24-01-2015 03:00:00 -1.4 C 94 % -2.24 C
2447 24-01-2015 03:05:00 -1.4 C 94 % -2.24 C
2448 24-01-2015 03:10:00 -1.3 C 95 % -2 C
2449 24-01-2015 03:15:00 -1.1 C 95 % -1.8 C
2450 24-01-2015 03:20:00 -0.9 C 95 % -1.6 C
Sensor: Nr:Datum:Temp:Feuchte:Taupunkt:
Aussen-T/F 2451 24-01-2015 03:25:00 -0.7 C 94 % -1.54 C
2452 24-01-2015 03:30:00 -0.6 C 93 % -1.59 C
2453 24-01-2015 03:35:00 -0.4 C 93 % -1.39 C
2454 24-01-2015 03:40:00 -0.3 C 92 % -1.44 C
2455 24-01-2015 03:45:00 -0.2 C 92 % -1.34 C
2456 24-01-2015 03:50:00 -0.1 C 92 % -1.24 C
2457 24-01-2015 03:55:00 0.1 C 91 % -1.19 C
2458 24-01-2015 04:00:00 0.1 C 91 % -1.19 C
2459 24-01-2015 04:05:00 0.2 C 90 % -1.24 C
2460 24-01-2015 04:10:00 0.2 C 90 % -1.24 C
2461 24-01-2015 04:15:00 0.2 C 90 % -1.24 C
2462 24-01-2015 04:20:00 0.2 C 90 % -1.24 C
2463 24-01-2015 04:25:00 0.2 C 90 % -1.24 C
2464 24-01-2015 04:30:00 0.3 C 90 % -1.14 C
2465 24-01-2015 04:35:00 0.3 C 90 % -1.14 C
2466 24-01-2015 04:40:00 0.3 C 90 % -1.14 C
2467 24-01-2015 04:45:00 0.3 C 90 % -1.14 C
2468 24-01-2015 04:50:00 0.3 C 90 % -1.14 C
2469 24-01-2015 04:55:00 0.3 C 90 % -1.14 C
2470 24-01-2015 05:00:00 0.4 C 90 % -1.04 C
2471 24-01-2015 05:05:00 0.4 C 89 % -1.2 C
2472 24-01-2015 05:10:00 0.4 C 89 % -1.2 C
2473 24-01-2015 05:15:00 0.4 C 89 % -1.2 C
2474 24-01-2015 05:20:00 0.5 C 89 % -1.1 C
2475 24-01-2015 05:25:00 0.5 C 89 % -1.1 C
Sensor: Nr:Datum:Temp:Feuchte:Taupunkt:
Aussen-T/F 2476 24-01-2015 05:30:00 0.5 C 89 % -1.1 C
2477 24-01-2015 05:35:00 0.5 C 89 % -1.1 C
2478 24-01-2015 05:40:00 0.5 C 89 % -1.1 C
2479 24-01-2015 05:45:00 0.5 C 89 % -1.1 C
2480 24-01-2015 05:50:00 0.5 C 89 % -1.1 C
2481 24-01-2015 05:55:00 0.4 C 89 % -1.2 C
2482 24-01-2015 06:00:00 0.4 C 89 % -1.2 C
2483 24-01-2015 06:05:00 0.4 C 89 % -1.2 C
2484 24-01-2015 06:10:00 0.4 C 89 % -1.2 C
2485 24-01-2015 06:15:00 0.4 C 89 % -1.2 C
2486 24-01-2015 06:20:00 0.4 C 89 % -1.2 C
2487 24-01-2015 06:25:00 0.4 C 89 % -1.2 C
2488 24-01-2015 06:30:00 0.5 C 89 % -1.1 C
2489 24-01-2015 06:35:00 0.5 C 89 % -1.1 C
2490 24-01-2015 06:40:00 0.5 C 89 % -1.1 C
2491 24-01-2015 06:45:00 0.5 C 88 % -1.25 C
2492 24-01-2015 06:50:00 0.5 C 88 % -1.25 C
2493 24-01-2015 06:55:00 0.5 C 88 % -1.25 C
2494 24-01-2015 07:00:00 0.5 C 88 % -1.25 C
2495 24-01-2015 07:05:00 0.6 C 88 % -1.15 C
2496 24-01-2015 07:10:00 0.6 C 88 % -1.15 C
2497 24-01-2015 07:15:00 0.6 C 88 % -1.15 C
2498 24-01-2015 07:20:00 0.6 C 88 % -1.15 C
2499 24-01-2015 07:25:00 0.6 C 88 % -1.15 C
2500 24-01-2015 07:30:00 0.6 C 88 % -1.15 C
Sensor: Nr:Datum:Temp:Feuchte:Taupunkt:
Aussen-T/F 2501 24-01-2015 07:35:00 0.6 C 88 % -1.15 C
2502 24-01-2015 07:40:00 0.7 C 88 % -1.05 C
2503 24-01-2015 07:45:00 0.7 C 88 % -1.05 C
2504 24-01-2015 07:50:00 0.7 C 88 % -1.05 C
2505 24-01-2015 07:55:00 0.7 C 88 % -1.05 C
2506 24-01-2015 08:00:00 0.8 C 88 % -0.96 C
2507 24-01-2015 08:05:00 0.8 C 88 % -0.96 C
2508 24-01-2015 08:10:00 0.8 C 87 % -1.11 C
2509 24-01-2015 08:15:00 0.9 C 87 % -1.01 C
2510 24-01-2015 08:20:00 0.9 C 87 % -1.01 C
2511 24-01-2015 08:25:00 0.9 C 87 % -1.01 C
2512 24-01-2015 08:30:00 1 C 87 % -0.91 C
2513 24-01-2015 08:35:00 1.1 C 86 % -0.97 C
2514 24-01-2015 08:40:00 1.1 C 87 % -0.82 C
2515 24-01-2015 08:45:00 1.1 C 86 % -0.97 C
2516 24-01-2015 08:50:00 1.2 C 86 % -0.88 C
2517 24-01-2015 08:55:00 1.2 C 86 % -0.88 C
2518 24-01-2015 09:00:00 1.2 C 86 % -0.88 C
2519 24-01-2015 09:05:00 1.2 C 86 % -0.88 C
2520 24-01-2015 09:10:00 1.3 C 86 % -0.78 C
2521 24-01-2015 09:15:00 1.3 C 86 % -0.78 C
2522 24-01-2015 09:20:00 1.3 C 86 % -0.78 C
2523 24-01-2015 09:25:00 1.3 C 85 % -0.94 C
2524 24-01-2015 09:30:00 1.3 C 85 % -0.94 C
2525 24-01-2015 09:35:00 1.4 C 85 % -0.84 C
Sensor: Nr:Datum:Temp:Feuchte:Taupunkt:
Aussen-T/F 2526 24-01-2015 09:40:00 1.4 C 85 % -0.84 C
2527 24-01-2015 09:45:00 1.4 C 85 % -0.84 C
2528 24-01-2015 09:50:00 1.5 C 85 % -0.74 C
2529 24-01-2015 09:55:00 1.5 C 84 % -0.9 C
2530 24-01-2015 10:00:00 1.6 C 84 % -0.8 C
2531 24-01-2015 10:05:00 1.6 C 84 % -0.8 C
2532 24-01-2015 10:10:00 1.7 C 83 % -0.87 C
2533 24-01-2015 10:15:00 1.7 C 83 % -0.87 C
2534 24-01-2015 10:20:00 1.7 C 83 % -0.87 C
2535 24-01-2015 10:25:00 1.8 C 83 % -0.77 C
2536 24-01-2015 10:30:00 1.8 C 83 % -0.77 C
2537 24-01-2015 10:35:00 1.8 C 83 % -0.77 C
2538 24-01-2015 10:40:00 1.8 C 83 % -0.77 C
2539 24-01-2015 10:45:00 1.9 C 83 % -0.67 C
2540 24-01-2015 10:50:00 2 C 82 % -0.74 C
2541 24-01-2015 10:55:00 2 C 84 % -0.41 C
2542 24-01-2015 11:00:00 1.8 C 86 % -0.29 C
2543 24-01-2015 11:05:00 1.6 C 88 % -0.17 C
2544 24-01-2015 11:10:00 1.4 C 89 % -0.21 C
2545 24-01-2015 11:15:00 1.3 C 90 % -0.15 C
2546 24-01-2015 11:20:00 1.2 C 91 % -0.1 C
2547 24-01-2015 11:25:00 1.1 C 92 % -0.05 C
2548 24-01-2015 11:30:00 1 C 93 % 0 C
2549 24-01-2015 11:35:00 0.9 C 93 % -0.1 C
2550 24-01-2015 11:40:00 0.8 C 94 % -0.05 C
Sensor: Nr:Datum:Temp:Feuchte:Taupunkt:
Aussen-T/F 2551 24-01-2015 11:45:00 0.8 C 94 % -0.05 C
2552 24-01-2015 11:50:00 0.8 C 94 % -0.05 C
2553 24-01-2015 11:55:00 0.8 C 94 % -0.05 C
2554 24-01-2015 12:00:00 0.8 C 94 % -0.05 C
2555 24-01-2015 12:05:00 0.9 C 94 % 0.05 C
2556 24-01-2015 12:10:00 0.9 C 94 % 0.05 C
2557 24-01-2015 12:15:00 0.9 C 94 % 0.05 C
2558 24-01-2015 12:20:00 1 C 93 % 0 C
2559 24-01-2015 12:25:00 1.1 C 93 % 0.1 C
2560 24-01-2015 12:30:00 1.1 C 93 % 0.1 C
2561 24-01-2015 12:35:00 1 C 93 % 0 C
2562 24-01-2015 12:40:00 0.9 C 93 % -0.1 C
2563 24-01-2015 12:45:00 0.9 C 93 % -0.1 C
2564 24-01-2015 12:50:00 0.9 C 94 % 0.05 C
2565 24-01-2015 12:55:00 0.9 C 94 % 0.05 C
2566 24-01-2015 13:00:00 0.9 C 94 % 0.05 C
2567 24-01-2015 13:05:00 0.9 C 94 % 0.05 C
2568 24-01-2015 14:00:00 1.1 C 94 % 0.24 C
2569 24-01-2015 14:05:00 1.1 C 94 % 0.24 C
2570 24-01-2015 14:10:00 1.1 C 94 % 0.24 C
2571 24-01-2015 14:15:00 1.1 C 94 % 0.24 C
2572 24-01-2015 14:20:00 1.1 C 94 % 0.24 C
2573 24-01-2015 14:25:00 1.1 C 94 % 0.24 C
2574 24-01-2015 14:30:00 1.1 C 94 % 0.24 C
2575 24-01-2015 14:35:00 1.1 C 94 % 0.24 C
Sensor: Nr:Datum:Temp:Feuchte:Taupunkt:
Aussen-T/F 2576 24-01-2015 14:40:00 1.1 C 94 % 0.24 C
2577 24-01-2015 14:45:00 1.1 C 94 % 0.24 C
2578 24-01-2015 14:50:00 1.1 C 94 % 0.24 C
2579 24-01-2015 14:55:00 1 C 94 % 0.15 C
2580 24-01-2015 15:00:00 1 C 95 % 0.29 C
2581 24-01-2015 15:05:00 1 C 95 % 0.29 C
2582 24-01-2015 15:10:00 0.9 C 95 % 0.19 C
2583 24-01-2015 15:15:00 0.9 C 95 % 0.19 C
2584 24-01-2015 15:20:00 0.9 C 95 % 0.19 C
2585 24-01-2015 17:50:00 1.7 C 96 % 1.13 C
2586 24-01-2015 17:55:00 1.7 C 96 % 1.13 C
2587 24-01-2015 18:00:00 1.7 C 96 % 1.13 C
2588 24-01-2015 18:05:00 1.8 C 97 % 1.38 C
2589 24-01-2015 18:10:00 1.8 C 96 % 1.23 C
2590 24-01-2015 18:15:00 1.8 C 96 % 1.23 C
2591 24-01-2015 18:20:00 1.8 C 96 % 1.23 C
2592 24-01-2015 18:25:00 1.8 C 96 % 1.23 C
2593 24-01-2015 18:30:00 1.8 C 96 % 1.23 C
2594 24-01-2015 18:35:00 1.8 C 96 % 1.23 C
2595 24-01-2015 18:40:00 1.9 C 97 % 1.48 C
2596 24-01-2015 18:45:00 2 C 96 % 1.43 C
2597 24-01-2015 18:50:00 2.1 C 96 % 1.53 C
2598 24-01-2015 18:55:00 2.2 C 96 % 1.63 C
2599 24-01-2015 19:00:00 2.1 C 96 % 1.53 C
2600 24-01-2015 19:05:00 2.1 C 96 % 1.53 C
Sensor: Nr:Datum:Temp:Feuchte:Taupunkt:
Aussen-T/F 2601 24-01-2015 19:10:00 2.2 C 96 % 1.63 C
2602 24-01-2015 19:15:00 2.3 C 96 % 1.73 C
2603 24-01-2015 19:20:00 2.4 C 96 % 1.83 C
2604 24-01-2015 19:25:00 2.5 C 96 % 1.93 C
2605 24-01-2015 19:30:00 2.4 C 95 % 1.68 C
2606 24-01-2015 19:35:00 2.4 C 95 % 1.68 C
2607 24-01-2015 19:40:00 2.4 C 95 % 1.68 C
2608 24-01-2015 19:45:00 2.4 C 96 % 1.83 C
2609 24-01-2015 19:50:00 2.6 C 96 % 2.03 C
2610 24-01-2015 19:55:00 2.6 C 95 % 1.88 C
2611 24-01-2015 20:00:00 2.6 C 95 % 1.88 C
2612 24-01-2015 20:05:00 2.7 C 95 % 1.98 C
2613 24-01-2015 20:10:00 2.7 C 95 % 1.98 C
2614 24-01-2015 20:15:00 2.6 C 95 % 1.88 C
2615 24-01-2015 20:20:00 2.7 C 95 % 1.98 C
2616 24-01-2015 20:25:00 2.8 C 94 % 1.93 C
2617 24-01-2015 20:30:00 2.8 C 94 % 1.93 C
2618 24-01-2015 20:35:00 2.7 C 94 % 1.83 C
2619 24-01-2015 20:40:00 2.8 C 94 % 1.93 C
2620 24-01-2015 20:45:00 2.6 C 94 % 1.73 C
2621 24-01-2015 20:50:00 2.6 C 94 % 1.73 C
2622 24-01-2015 20:55:00 2.7 C 95 % 1.98 C
2623 24-01-2015 21:00:00 2.7 C 94 % 1.83 C
2624 24-01-2015 21:05:00 2.6 C 94 % 1.73 C
2625 24-01-2015 21:10:00 2.7 C 94 % 1.83 C
Sensor: Nr:Datum:Temp:Feuchte:Taupunkt:
Aussen-T/F 2626 24-01-2015 21:15:00 2.7 C 94 % 1.83 C
2627 24-01-2015 21:20:00 2.8 C 94 % 1.93 C
2628 24-01-2015 21:25:00 2.7 C 94 % 1.83 C
2629 24-01-2015 21:30:00 2.7 C 94 % 1.83 C
2630 24-01-2015 21:35:00 2.6 C 94 % 1.73 C
2631 24-01-2015 21:40:00 2.5 C 94 % 1.63 C
2632 24-01-2015 21:45:00 2.4 C 94 % 1.54 C
2633 24-01-2015 21:50:00 2.4 C 94 % 1.54 C
2634 24-01-2015 21:55:00 2.5 C 95 % 1.78 C
2635 24-01-2015 22:00:00 2.6 C 95 % 1.88 C
2636 24-01-2015 22:05:00 2.6 C 94 % 1.73 C
2637 24-01-2015 22:10:00 2.5 C 94 % 1.63 C
2638 24-01-2015 22:15:00 2.6 C 94 % 1.73 C
2639 24-01-2015 22:20:00 2.7 C 94 % 1.83 C
2640 24-01-2015 22:25:00 2.7 C 94 % 1.83 C
2641 24-01-2015 22:30:00 2.7 C 94 % 1.83 C
2642 24-01-2015 22:35:00 2.7 C 94 % 1.83 C
2643 24-01-2015 22:40:00 2.6 C 94 % 1.73 C
2644 24-01-2015 22:45:00 2.5 C 94 % 1.63 C
2645 24-01-2015 22:50:00 2.5 C 94 % 1.63 C
2646 24-01-2015 22:55:00 2.5 C 94 % 1.63 C
2647 24-01-2015 23:00:00 2.5 C 94 % 1.63 C
2648 24-01-2015 23:05:00 2.6 C 94 % 1.73 C
2649 24-01-2015 23:10:00 2.6 C 93 % 1.59 C
2650 24-01-2015 23:15:00 2.6 C 93 % 1.59 C
Sensor: Nr:Datum:Temp:Feuchte:Taupunkt:
Aussen-T/F 2651 24-01-2015 23:20:00 2.7 C 93 % 1.68 C
2652 24-01-2015 23:25:00 2.7 C 93 % 1.68 C
2653 24-01-2015 23:30:00 2.7 C 93 % 1.68 C
2654 24-01-2015 23:35:00 2.7 C 93 % 1.68 C
2655 24-01-2015 23:40:00 2.7 C 93 % 1.68 C
2656 24-01-2015 23:45:00 2.7 C 93 % 1.68 C
2657 24-01-2015 23:50:00 2.7 C 93 % 1.68 C
2658 24-01-2015 23:55:00 2.6 C 93 % 1.59 C
2659 25-01-2015 00:00:00 2.7 C 92 % 1.53 C
2660 25-01-2015 00:05:00 2.7 C 92 % 1.53 C
2661 25-01-2015 00:10:00 2.7 C 92 % 1.53 C
2662 25-01-2015 00:15:00 2.6 C 92 % 1.43 C
2663 25-01-2015 00:20:00 2.6 C 93 % 1.59 C
2664 25-01-2015 00:25:00 2.5 C 93 % 1.49 C
2665 25-01-2015 00:30:00 2.4 C 93 % 1.39 C
2666 25-01-2015 00:35:00 2.4 C 93 % 1.39 C
2667 25-01-2015 00:40:00 2.4 C 93 % 1.39 C
2668 25-01-2015 00:45:00 2.3 C 93 % 1.29 C
2669 25-01-2015 00:50:00 2.3 C 94 % 1.44 C
2670 25-01-2015 00:55:00 2.3 C 94 % 1.44 C
2671 25-01-2015 01:00:00 2.4 C 93 % 1.39 C
2672 25-01-2015 01:05:00 2.4 C 93 % 1.39 C
2673 25-01-2015 01:10:00 2.4 C 93 % 1.39 C
2674 25-01-2015 01:15:00 2.4 C 93 % 1.39 C
2675 25-01-2015 01:20:00 2.4 C 93 % 1.39 C
Sensor: Nr:Datum:Temp:Feuchte:Taupunkt:
Aussen-T/F 2676 25-01-2015 01:25:00 2.5 C 93 % 1.49 C
2677 25-01-2015 01:30:00 2.4 C 93 % 1.39 C
2678 25-01-2015 01:35:00 2.4 C 93 % 1.39 C
2679 25-01-2015 01:40:00 2.4 C 93 % 1.39 C
2680 25-01-2015 01:45:00 2.4 C 93 % 1.39 C
2681 25-01-2015 01:50:00 2.5 C 93 % 1.49 C
2682 25-01-2015 01:55:00 2.5 C 93 % 1.49 C
2683 25-01-2015 02:00:00 2.4 C 93 % 1.39 C
2684 25-01-2015 02:05:00 2.4 C 93 % 1.39 C
2685 25-01-2015 02:10:00 2.4 C 93 % 1.39 C
2686 25-01-2015 02:15:00 2.4 C 93 % 1.39 C
2687 25-01-2015 02:20:00 2.4 C 92 % 1.24 C
2688 25-01-2015 02:25:00 2.4 C 92 % 1.24 C
2689 25-01-2015 02:30:00 2.4 C 92 % 1.24 C
2690 25-01-2015 02:35:00 2.5 C 92 % 1.34 C
2691 25-01-2015 02:40:00 2.5 C 92 % 1.34 C
2692 25-01-2015 02:45:00 2.5 C 92 % 1.34 C
2693 25-01-2015 02:50:00 2.4 C 92 % 1.24 C
2694 25-01-2015 02:55:00 2.4 C 92 % 1.24 C
2695 25-01-2015 03:00:00 2.4 C 93 % 1.39 C
2696 25-01-2015 03:05:00 2.3 C 93 % 1.29 C
2697 25-01-2015 03:10:00 2.3 C 93 % 1.29 C
2698 25-01-2015 03:15:00 2.2 C 93 % 1.19 C
2699 25-01-2015 03:20:00 2.2 C 93 % 1.19 C
2700 25-01-2015 03:25:00 2.2 C 93 % 1.19 C
Sensor: Nr:Datum:Temp:Feuchte:Taupunkt:
Aussen-T/F 2701 25-01-2015 03:30:00 2.1 C 93 % 1.09 C
2702 25-01-2015 03:35:00 2.1 C 94 % 1.24 C
2703 25-01-2015 03:40:00 2.1 C 94 % 1.24 C
2704 25-01-2015 03:45:00 2.1 C 94 % 1.24 C
2705 25-01-2015 03:50:00 2.1 C 94 % 1.24 C
2706 25-01-2015 03:55:00 2.1 C 94 % 1.24 C
2707 25-01-2015 04:00:00 2 C 94 % 1.14 C
2708 25-01-2015 04:05:00 1.9 C 94 % 1.04 C
2709 25-01-2015 04:10:00 1.8 C 94 % 0.94 C
2710 25-01-2015 04:15:00 1.8 C 95 % 1.09 C
2711 25-01-2015 04:20:00 1.8 C 95 % 1.09 C
2712 25-01-2015 04:25:00 1.9 C 95 % 1.19 C
2713 25-01-2015 04:30:00 1.9 C 95 % 1.19 C
2714 25-01-2015 04:35:00 1.9 C 95 % 1.19 C
2715 25-01-2015 04:40:00 2 C 95 % 1.29 C
2716 25-01-2015 04:45:00 2 C 94 % 1.14 C
2717 25-01-2015 04:50:00 1.9 C 94 % 1.04 C
2718 25-01-2015 04:55:00 1.9 C 94 % 1.04 C
2719 25-01-2015 05:00:00 1.9 C 95 % 1.19 C
2720 25-01-2015 05:05:00 1.9 C 95 % 1.19 C
2721 25-01-2015 05:10:00 1.9 C 94 % 1.04 C
2722 25-01-2015 05:15:00 2 C 94 % 1.14 C
2723 25-01-2015 05:20:00 2.1 C 94 % 1.24 C
2724 25-01-2015 05:25:00 2.1 C 94 % 1.24 C
2725 25-01-2015 05:30:00 1.9 C 94 % 1.04 C
Sensor: Nr:Datum:Temp:Feuchte:Taupunkt:
Aussen-T/F 2726 25-01-2015 05:35:00 1.9 C 94 % 1.04 C
2727 25-01-2015 05:40:00 1.8 C 94 % 0.94 C
2728 25-01-2015 05:45:00 1.7 C 94 % 0.84 C
2729 25-01-2015 05:50:00 1.6 C 94 % 0.74 C
2730 25-01-2015 05:55:00 1.5 C 94 % 0.64 C
2731 25-01-2015 06:00:00 1.4 C 95 % 0.69 C
2732 25-01-2015 06:05:00 1.4 C 95 % 0.69 C
2733 25-01-2015 06:10:00 1.3 C 95 % 0.59 C
2734 25-01-2015 06:15:00 1.3 C 95 % 0.59 C
2735 25-01-2015 06:20:00 1.2 C 95 % 0.49 C
2736 25-01-2015 06:25:00 1.2 C 95 % 0.49 C
2737 25-01-2015 06:30:00 1.1 C 95 % 0.39 C
2738 25-01-2015 06:35:00 1.1 C 95 % 0.39 C
2739 25-01-2015 06:40:00 1 C 95 % 0.29 C
2740 25-01-2015 06:45:00 0.9 C 95 % 0.19 C
2741 25-01-2015 06:50:00 0.9 C 95 % 0.19 C
2742 25-01-2015 06:55:00 0.8 C 96 % 0.24 C
2743 25-01-2015 07:00:00 0.8 C 95 % 0.09 C
2744 25-01-2015 07:05:00 0.8 C 96 % 0.24 C
2745 25-01-2015 07:10:00 0.7 C 96 % 0.14 C
2746 25-01-2015 07:15:00 0.7 C 96 % 0.14 C
2747 25-01-2015 07:20:00 0.7 C 96 % 0.14 C
2748 25-01-2015 07:25:00 0.8 C 96 % 0.24 C
2749 25-01-2015 07:30:00 0.8 C 96 % 0.24 C
2750 25-01-2015 07:35:00 0.8 C 96 % 0.24 C
Sensor: Nr:Datum:Temp:Feuchte:Taupunkt:
Aussen-T/F 2751 25-01-2015 07:40:00 0.9 C 96 % 0.34 C
2752 25-01-2015 07:45:00 0.9 C 96 % 0.34 C
2753 25-01-2015 07:50:00 1 C 96 % 0.44 C
2754 25-01-2015 07:55:00 1 C 96 % 0.44 C
2755 25-01-2015 08:00:00 1.1 C 96 % 0.54 C
2756 25-01-2015 08:05:00 1.1 C 96 % 0.54 C
2757 25-01-2015 08:10:00 1.2 C 96 % 0.63 C
2758 25-01-2015 08:15:00 1.2 C 97 % 0.78 C
2759 25-01-2015 08:20:00 1.2 C 97 % 0.78 C
2760 25-01-2015 08:25:00 1.2 C 96 % 0.63 C
2761 25-01-2015 08:30:00 1.2 C 96 % 0.63 C
2762 25-01-2015 08:35:00 1.2 C 96 % 0.63 C
2763 25-01-2015 08:40:00 1.3 C 96 % 0.73 C
2764 25-01-2015 08:45:00 1.3 C 96 % 0.73 C
2765 25-01-2015 08:50:00 1.3 C 96 % 0.73 C
2766 25-01-2015 08:55:00 1.3 C 96 % 0.73 C
2767 25-01-2015 09:00:00 1.4 C 96 % 0.83 C
2768 25-01-2015 09:05:00 1.4 C 96 % 0.83 C
2769 25-01-2015 09:10:00 1.5 C 96 % 0.93 C
2770 25-01-2015 09:15:00 1.6 C 96 % 1.03 C
2771 25-01-2015 09:20:00 1.6 C 96 % 1.03 C
2772 25-01-2015 09:25:00 1.7 C 96 % 1.13 C
2773 25-01-2015 09:30:00 1.7 C 96 % 1.13 C
2774 25-01-2015 09:35:00 1.8 C 96 % 1.23 C
2775 25-01-2015 09:40:00 1.8 C 95 % 1.09 C
Sensor: Nr:Datum:Temp:Feuchte:Taupunkt:
Aussen-T/F 2776 25-01-2015 09:45:00 1.8 C 95 % 1.09 C
2777 25-01-2015 09:50:00 1.9 C 95 % 1.19 C
2778 25-01-2015 09:55:00 2 C 94 % 1.14 C
2779 25-01-2015 10:00:00 2 C 94 % 1.14 C
2780 25-01-2015 10:05:00 2 C 94 % 1.14 C
2781 25-01-2015 10:10:00 2.1 C 94 % 1.24 C
2782 25-01-2015 10:15:00 2.1 C 93 % 1.09 C
2783 25-01-2015 10:20:00 2.2 C 93 % 1.19 C
2784 25-01-2015 10:25:00 2.2 C 93 % 1.19 C
2785 25-01-2015 10:30:00 2.2 C 93 % 1.19 C
2786 25-01-2015 10:35:00 2.2 C 93 % 1.19 C
2787 25-01-2015 10:40:00 2.2 C 93 % 1.19 C
2788 25-01-2015 10:45:00 2.2 C 93 % 1.19 C
2789 25-01-2015 10:50:00 2.3 C 93 % 1.29 C
2790 25-01-2015 10:55:00 2.2 C 92 % 1.04 C
2791 25-01-2015 11:00:00 2.3 C 93 % 1.29 C
2792 25-01-2015 11:05:00 2.3 C 93 % 1.29 C
2793 25-01-2015 11:10:00 2.3 C 92 % 1.14 C
2794 25-01-2015 11:15:00 2.4 C 92 % 1.24 C
2795 25-01-2015 11:20:00 2.4 C 92 % 1.24 C
2796 25-01-2015 11:25:00 2.4 C 92 % 1.24 C
2797 25-01-2015 11:30:00 2.4 C 91 % 1.08 C
2798 25-01-2015 11:35:00 2.4 C 91 % 1.08 C
2799 25-01-2015 11:40:00 2.4 C 91 % 1.08 C
2800 25-01-2015 11:45:00 2.4 C 92 % 1.24 C
Sensor: Nr:Datum:Temp:Feuchte:Taupunkt:
Aussen-T/F 2801 25-01-2015 11:50:00 2.4 C 92 % 1.24 C
2802 25-01-2015 11:55:00 2.3 C 92 % 1.14 C
2803 25-01-2015 12:00:00 2.3 C 93 % 1.29 C
2804 25-01-2015 12:05:00 2.2 C 93 % 1.19 C
2805 25-01-2015 12:10:00 2.2 C 93 % 1.19 C
2806 25-01-2015 12:15:00 2.1 C 94 % 1.24 C
2807 25-01-2015 12:20:00 2.1 C 94 % 1.24 C
2808 25-01-2015 12:25:00 2.1 C 94 % 1.24 C
2809 25-01-2015 12:30:00 2.1 C 94 % 1.24 C
2810 25-01-2015 12:35:00 2.1 C 94 % 1.24 C
2811 25-01-2015 12:40:00 2.2 C 94 % 1.34 C
2812 25-01-2015 12:45:00 2.2 C 95 % 1.48 C
2813 25-01-2015 12:50:00 2.2 C 95 % 1.48 C
2814 25-01-2015 12:55:00 2.2 C 95 % 1.48 C
2815 25-01-2015 13:00:00 2.2 C 95 % 1.48 C
2816 25-01-2015 13:05:00 2.2 C 95 % 1.48 C
2817 25-01-2015 13:10:00 2.3 C 95 % 1.58 C
2818 25-01-2015 13:15:00 2.3 C 95 % 1.58 C
2819 25-01-2015 13:20:00 2.4 C 95 % 1.68 C
2820 25-01-2015 13:25:00 2.4 C 95 % 1.68 C
2821 25-01-2015 13:30:00 2.4 C 95 % 1.68 C
2822 25-01-2015 13:35:00 2.4 C 95 % 1.68 C
2823 25-01-2015 13:40:00 2.4 C 94 % 1.54 C
2824 25-01-2015 13:45:00 2.4 C 94 % 1.54 C
2825 25-01-2015 13:50:00 2.6 C 94 % 1.73 C
Sensor: Nr:Datum:Temp:Feuchte:Taupunkt:
Aussen-T/F 2826 25-01-2015 13:55:00 2.6 C 94 % 1.73 C
2827 25-01-2015 14:00:00 2.6 C 94 % 1.73 C
2828 25-01-2015 14:05:00 2.6 C 94 % 1.73 C
2829 25-01-2015 14:10:00 2.6 C 93 % 1.59 C
2830 25-01-2015 14:15:00 2.7 C 93 % 1.68 C
2831 25-01-2015 14:20:00 2.7 C 93 % 1.68 C
2832 25-01-2015 14:25:00 2.8 C 93 % 1.78 C
2833 25-01-2015 14:30:00 2.8 C 93 % 1.78 C
2834 25-01-2015 14:35:00 2.9 C 93 % 1.88 C
2835 25-01-2015 14:40:00 2.9 C 93 % 1.88 C
2836 25-01-2015 14:45:00 2.9 C 93 % 1.88 C
2837 25-01-2015 14:50:00 3 C 93 % 1.98 C
2838 25-01-2015 14:55:00 3 C 92 % 1.83 C
2839 25-01-2015 15:00:00 3 C 92 % 1.83 C
2840 25-01-2015 15:05:00 3 C 92 % 1.83 C
2841 25-01-2015 15:10:00 3 C 93 % 1.98 C
2842 25-01-2015 15:15:00 3 C 92 % 1.83 C
2843 25-01-2015 15:20:00 3 C 92 % 1.83 C
2844 25-01-2015 15:25:00 3.1 C 92 % 1.93 C
2845 25-01-2015 15:30:00 3.1 C 92 % 1.93 C
2846 25-01-2015 15:35:00 3.1 C 92 % 1.93 C
2847 25-01-2015 15:40:00 3.1 C 92 % 1.93 C
2848 25-01-2015 15:45:00 3.1 C 92 % 1.93 C
2849 25-01-2015 15:50:00 3.1 C 92 % 1.93 C
2850 25-01-2015 15:55:00 3.1 C 92 % 1.93 C
Sensor: Nr:Datum:Temp:Feuchte:Taupunkt:
Aussen-T/F 2851 25-01-2015 16:00:00 3.1 C 92 % 1.93 C
2852 25-01-2015 16:05:00 3.1 C 92 % 1.93 C
2853 25-01-2015 16:10:00 3.1 C 92 % 1.93 C
2854 25-01-2015 16:15:00 3.1 C 92 % 1.93 C
2855 25-01-2015 16:20:00 3.1 C 92 % 1.93 C
2856 25-01-2015 16:25:00 3.1 C 92 % 1.93 C
2857 25-01-2015 16:30:00 3.1 C 92 % 1.93 C
2858 25-01-2015 16:35:00 3.1 C 93 % 2.08 C
2859 25-01-2015 16:40:00 3.1 C 93 % 2.08 C
2860 25-01-2015 16:45:00 3.1 C 93 % 2.08 C
2861 25-01-2015 16:50:00 3 C 93 % 1.98 C
2862 25-01-2015 16:55:00 2.9 C 93 % 1.88 C
2863 25-01-2015 17:00:00 2.9 C 93 % 1.88 C
2864 25-01-2015 17:05:00 2.9 C 94 % 2.03 C
2865 25-01-2015 17:10:00 2.9 C 94 % 2.03 C
2866 25-01-2015 17:15:00 2.8 C 94 % 1.93 C
2867 25-01-2015 17:20:00 2.8 C 94 % 1.93 C
2868 25-01-2015 17:25:00 2.8 C 94 % 1.93 C
2869 25-01-2015 17:30:00 2.8 C 94 % 1.93 C
2870 25-01-2015 17:35:00 2.8 C 95 % 2.08 C
2871 25-01-2015 17:40:00 2.7 C 94 % 1.83 C
2872 25-01-2015 17:45:00 2.7 C 95 % 1.98 C
2873 25-01-2015 17:50:00 2.7 C 95 % 1.98 C
2874 25-01-2015 17:55:00 2.7 C 95 % 1.98 C
2875 25-01-2015 18:00:00 2.7 C 95 % 1.98 C
Sensor: Nr:Datum:Temp:Feuchte:Taupunkt:
Aussen-T/F 2876 25-01-2015 18:05:00 2.7 C 95 % 1.98 C
2877 25-01-2015 18:10:00 2.7 C 94 % 1.83 C
2878 25-01-2015 18:15:00 2.7 C 94 % 1.83 C
2879 25-01-2015 18:20:00 2.7 C 94 % 1.83 C
2880 25-01-2015 18:25:00 2.7 C 94 % 1.83 C
2881 25-01-2015 18:30:00 2.7 C 94 % 1.83 C
2882 25-01-2015 18:35:00 2.7 C 94 % 1.83 C
2883 25-01-2015 18:40:00 2.7 C 94 % 1.83 C
2884 25-01-2015 18:45:00 2.7 C 94 % 1.83 C
2885 25-01-2015 18:50:00 2.7 C 94 % 1.83 C
2886 25-01-2015 18:55:00 2.7 C 94 % 1.83 C
2887 25-01-2015 19:00:00 2.7 C 94 % 1.83 C
2888 25-01-2015 19:05:00 2.7 C 95 % 1.98 C
2889 25-01-2015 19:10:00 2.7 C 95 % 1.98 C
2890 25-01-2015 19:15:00 2.7 C 95 % 1.98 C
2891 25-01-2015 19:20:00 2.6 C 95 % 1.88 C
2892 25-01-2015 19:25:00 2.6 C 95 % 1.88 C
2893 25-01-2015 19:30:00 2.6 C 95 % 1.88 C
2894 25-01-2015 19:35:00 2.6 C 95 % 1.88 C
2895 25-01-2015 19:40:00 2.5 C 95 % 1.78 C
2896 25-01-2015 19:45:00 2.5 C 95 % 1.78 C
2897 25-01-2015 19:50:00 2.5 C 95 % 1.78 C
2898 25-01-2015 19:55:00 2.5 C 96 % 1.93 C
2899 25-01-2015 20:00:00 2.5 C 96 % 1.93 C
2900 25-01-2015 20:05:00 2.4 C 96 % 1.83 C
Sensor: Nr:Datum:Temp:Feuchte:Taupunkt:
Aussen-T/F 2901 25-01-2015 20:10:00 2.4 C 96 % 1.83 C
2902 25-01-2015 20:15:00 2.4 C 96 % 1.83 C
2903 25-01-2015 20:20:00 2.3 C 96 % 1.73 C
2904 25-01-2015 20:25:00 2.3 C 96 % 1.73 C
2905 25-01-2015 20:30:00 2.3 C 96 % 1.73 C
2906 25-01-2015 20:35:00 2.3 C 96 % 1.73 C
2907 25-01-2015 20:40:00 2.3 C 96 % 1.73 C
2908 25-01-2015 20:45:00 2.3 C 96 % 1.73 C
2909 25-01-2015 20:50:00 2.3 C 96 % 1.73 C
2910 25-01-2015 20:55:00 2.3 C 96 % 1.73 C
2911 25-01-2015 21:00:00 2.3 C 96 % 1.73 C
2912 25-01-2015 21:05:00 2.3 C 96 % 1.73 C
2913 25-01-2015 21:10:00 2.3 C 96 % 1.73 C
2914 25-01-2015 21:15:00 2.3 C 96 % 1.73 C
2915 25-01-2015 21:20:00 2.2 C 96 % 1.63 C
2916 25-01-2015 21:25:00 2.2 C 96 % 1.63 C
2917 25-01-2015 21:30:00 2.2 C 96 % 1.63 C
2918 25-01-2015 21:35:00 2.2 C 96 % 1.63 C
2919 25-01-2015 21:40:00 2.2 C 96 % 1.63 C
2920 25-01-2015 21:45:00 2.1 C 96 % 1.53 C
2921 25-01-2015 21:50:00 2.1 C 96 % 1.53 C
2922 25-01-2015 21:55:00 2.1 C 96 % 1.53 C
2923 25-01-2015 22:00:00 2.1 C 96 % 1.53 C
2924 25-01-2015 22:05:00 2.1 C 96 % 1.53 C
2925 25-01-2015 22:10:00 2.1 C 96 % 1.53 C
Sensor: Nr:Datum:Temp:Feuchte:Taupunkt:
Aussen-T/F 2926 25-01-2015 22:15:00 2 C 96 % 1.43 C
2927 25-01-2015 22:20:00 1.9 C 96 % 1.33 C
2928 25-01-2015 22:25:00 1.9 C 96 % 1.33 C
2929 25-01-2015 22:30:00 1.9 C 96 % 1.33 C
2930 25-01-2015 22:35:00 1.9 C 96 % 1.33 C
2931 25-01-2015 22:40:00 2 C 96 % 1.43 C
2932 25-01-2015 22:45:00 2.1 C 96 % 1.53 C
2933 25-01-2015 22:50:00 2.1 C 96 % 1.53 C
2934 25-01-2015 22:55:00 2.1 C 96 % 1.53 C
2935 25-01-2015 23:00:00 2 C 96 % 1.43 C
2936 25-01-2015 23:05:00 1.9 C 96 % 1.33 C
2937 25-01-2015 23:10:00 1.9 C 96 % 1.33 C
2938 25-01-2015 23:15:00 1.9 C 96 % 1.33 C
2939 25-01-2015 23:20:00 1.9 C 96 % 1.33 C
2940 25-01-2015 23:25:00 1.9 C 96 % 1.33 C
2941 25-01-2015 23:30:00 1.9 C 96 % 1.33 C
2942 25-01-2015 23:35:00 1.8 C 96 % 1.23 C
2943 25-01-2015 23:40:00 1.8 C 96 % 1.23 C
2944 25-01-2015 23:45:00 1.8 C 96 % 1.23 C
2945 25-01-2015 23:50:00 1.8 C 96 % 1.23 C
2946 25-01-2015 23:55:00 1.8 C 96 % 1.23 C
2947 26-01-2015 00:00:00 1.9 C 96 % 1.33 C
2948 26-01-2015 00:05:00 1.9 C 96 % 1.33 C
2949 26-01-2015 00:10:00 1.9 C 97 % 1.48 C
2950 26-01-2015 00:15:00 1.9 C 96 % 1.33 C
Sensor: Nr:Datum:Temp:Feuchte:Taupunkt:
Aussen-T/F 2951 26-01-2015 00:20:00 1.9 C 96 % 1.33 C
2952 26-01-2015 00:25:00 1.9 C 97 % 1.48 C
2953 26-01-2015 00:30:00 1.9 C 97 % 1.48 C
2954 26-01-2015 00:35:00 1.9 C 97 % 1.48 C
2955 26-01-2015 00:40:00 1.9 C 97 % 1.48 C
2956 26-01-2015 00:45:00 1.8 C 97 % 1.38 C
2957 26-01-2015 00:50:00 1.8 C 97 % 1.38 C
2958 26-01-2015 00:55:00 1.8 C 97 % 1.38 C
2959 26-01-2015 01:00:00 1.8 C 97 % 1.38 C
2960 26-01-2015 01:05:00 1.8 C 97 % 1.38 C
2961 26-01-2015 01:10:00 1.8 C 97 % 1.38 C
2962 26-01-2015 01:15:00 1.8 C 97 % 1.38 C
2963 26-01-2015 01:20:00 1.8 C 97 % 1.38 C
2964 26-01-2015 01:25:00 1.9 C 97 % 1.48 C
2965 26-01-2015 01:30:00 1.9 C 97 % 1.48 C
2966 26-01-2015 01:35:00 1.9 C 97 % 1.48 C
2967 26-01-2015 01:40:00 1.9 C 97 % 1.48 C
2968 26-01-2015 01:45:00 1.9 C 97 % 1.48 C
2969 26-01-2015 01:50:00 1.9 C 97 % 1.48 C
2970 26-01-2015 01:55:00 1.9 C 97 % 1.48 C
2971 26-01-2015 02:00:00 1.9 C 97 % 1.48 C
2972 26-01-2015 02:05:00 1.9 C 97 % 1.48 C
2973 26-01-2015 02:10:00 1.9 C 97 % 1.48 C
2974 26-01-2015 02:15:00 1.9 C 97 % 1.48 C
2975 26-01-2015 02:20:00 1.9 C 97 % 1.48 C
Sensor: Nr:Datum:Temp:Feuchte:Taupunkt:
Aussen-T/F 2976 26-01-2015 02:25:00 1.8 C 97 % 1.38 C
2977 26-01-2015 02:30:00 1.8 C 97 % 1.38 C
2978 26-01-2015 02:35:00 1.8 C 97 % 1.38 C
2979 26-01-2015 02:40:00 1.8 C 97 % 1.38 C
2980 26-01-2015 02:45:00 1.8 C 97 % 1.38 C
2981 26-01-2015 02:50:00 1.9 C 97 % 1.48 C
2982 26-01-2015 02:55:00 1.9 C 97 % 1.48 C
2983 26-01-2015 03:00:00 2 C 97 % 1.58 C
2984 26-01-2015 03:05:00 2 C 97 % 1.58 C
2985 26-01-2015 03:10:00 2.1 C 97 % 1.67 C
2986 26-01-2015 03:15:00 2.1 C 97 % 1.67 C
2987 26-01-2015 03:20:00 2.2 C 97 % 1.77 C
2988 26-01-2015 03:25:00 2.2 C 97 % 1.77 C
2989 26-01-2015 03:30:00 2.2 C 96 % 1.63 C
2990 26-01-2015 03:35:00 2.2 C 96 % 1.63 C
2991 26-01-2015 03:40:00 2.2 C 96 % 1.63 C
2992 26-01-2015 03:45:00 2.3 C 96 % 1.73 C
2993 26-01-2015 03:50:00 2.3 C 96 % 1.73 C
2994 26-01-2015 03:55:00 2.3 C 96 % 1.73 C
2995 26-01-2015 04:00:00 2.3 C 96 % 1.73 C
2996 26-01-2015 04:05:00 2.3 C 95 % 1.58 C
2997 26-01-2015 04:10:00 2.3 C 95 % 1.58 C
2998 26-01-2015 04:15:00 2.3 C 95 % 1.58 C
2999 26-01-2015 04:20:00 2.3 C 95 % 1.58 C
3000 26-01-2015 04:25:00 2.3 C 95 % 1.58 C
Sensor: Nr:Datum:Temp:Feuchte:Taupunkt:
Aussen-T/F 3001 26-01-2015 04:30:00 2.4 C 95 % 1.68 C
3002 26-01-2015 04:35:00 2.4 C 95 % 1.68 C
3003 26-01-2015 04:40:00 2.4 C 95 % 1.68 C
3004 26-01-2015 04:45:00 2.4 C 95 % 1.68 C
3005 26-01-2015 04:50:00 2.4 C 95 % 1.68 C
3006 26-01-2015 04:55:00 2.4 C 95 % 1.68 C
3007 26-01-2015 05:00:00 2.4 C 95 % 1.68 C
3008 26-01-2015 05:05:00 2.4 C 95 % 1.68 C
3009 26-01-2015 05:10:00 2.4 C 94 % 1.54 C
3010 26-01-2015 05:15:00 2.4 C 94 % 1.54 C
3011 26-01-2015 05:20:00 2.4 C 94 % 1.54 C
3012 26-01-2015 05:25:00 2.4 C 94 % 1.54 C
3013 26-01-2015 05:30:00 2.4 C 94 % 1.54 C
3014 26-01-2015 05:35:00 2.4 C 94 % 1.54 C
3015 26-01-2015 05:40:00 2.4 C 95 % 1.68 C
3016 26-01-2015 05:45:00 2.4 C 95 % 1.68 C
3017 26-01-2015 05:50:00 2.4 C 95 % 1.68 C
3018 26-01-2015 05:55:00 2.4 C 95 % 1.68 C
3019 26-01-2015 06:00:00 2.4 C 95 % 1.68 C
3020 26-01-2015 06:05:00 2.4 C 95 % 1.68 C
3021 26-01-2015 06:10:00 2.4 C 95 % 1.68 C
3022 26-01-2015 06:15:00 2.5 C 94 % 1.63 C
3023 26-01-2015 06:20:00 2.5 C 94 % 1.63 C
3024 26-01-2015 06:25:00 2.6 C 94 % 1.73 C
3025 26-01-2015 06:30:00 2.6 C 94 % 1.73 C
Sensor: Nr:Datum:Temp:Feuchte:Taupunkt:
Aussen-T/F 3026 26-01-2015 06:35:00 2.6 C 94 % 1.73 C
3027 26-01-2015 06:40:00 2.6 C 94 % 1.73 C
3028 26-01-2015 06:45:00 2.6 C 94 % 1.73 C
3029 26-01-2015 06:50:00 2.6 C 94 % 1.73 C
3030 26-01-2015 06:55:00 2.6 C 95 % 1.88 C
3031 26-01-2015 07:00:00 2.6 C 95 % 1.88 C
3032 26-01-2015 07:05:00 2.6 C 95 % 1.88 C
3033 26-01-2015 07:10:00 2.6 C 95 % 1.88 C
3034 26-01-2015 07:15:00 2.6 C 95 % 1.88 C
3035 26-01-2015 07:20:00 2.5 C 95 % 1.78 C
3036 26-01-2015 07:25:00 2.5 C 95 % 1.78 C
3037 26-01-2015 07:30:00 2.4 C 95 % 1.68 C
3038 26-01-2015 07:35:00 2.4 C 95 % 1.68 C
3039 26-01-2015 07:40:00 2.4 C 95 % 1.68 C
3040 26-01-2015 07:45:00 2.4 C 95 % 1.68 C
3041 26-01-2015 07:50:00 2.4 C 95 % 1.68 C
3042 26-01-2015 07:55:00 2.4 C 95 % 1.68 C
3043 26-01-2015 08:00:00 2.4 C 95 % 1.68 C
3044 26-01-2015 08:05:00 2.4 C 95 % 1.68 C
3045 26-01-2015 08:10:00 2.4 C 95 % 1.68 C
3046 26-01-2015 08:15:00 2.4 C 95 % 1.68 C
3047 26-01-2015 08:20:00 2.4 C 95 % 1.68 C
3048 26-01-2015 08:25:00 2.4 C 96 % 1.83 C
3049 26-01-2015 08:30:00 2.5 C 96 % 1.93 C
3050 26-01-2015 08:35:00 2.5 C 96 % 1.93 C
Sensor: Nr:Datum:Temp:Feuchte:Taupunkt:
Aussen-T/F 3051 26-01-2015 08:40:00 2.5 C 96 % 1.93 C
3052 26-01-2015 08:45:00 2.6 C 96 % 2.03 C
3053 26-01-2015 08:50:00 2.6 C 95 % 1.88 C
3054 26-01-2015 08:55:00 2.6 C 95 % 1.88 C
3055 26-01-2015 09:00:00 2.7 C 95 % 1.98 C
3056 26-01-2015 09:05:00 2.7 C 95 % 1.98 C
3057 26-01-2015 09:10:00 2.7 C 95 % 1.98 C
3058 26-01-2015 09:15:00 2.7 C 95 % 1.98 C
3059 26-01-2015 09:20:00 2.8 C 95 % 2.08 C
3060 26-01-2015 09:25:00 2.8 C 95 % 2.08 C
3061 26-01-2015 09:30:00 2.8 C 95 % 2.08 C
3062 26-01-2015 09:35:00 2.8 C 95 % 2.08 C
3063 26-01-2015 09:40:00 2.7 C 95 % 1.98 C
3064 26-01-2015 09:45:00 2.7 C 95 % 1.98 C
3065 26-01-2015 09:50:00 2.7 C 95 % 1.98 C
3066 26-01-2015 09:55:00 2.7 C 95 % 1.98 C
3067 26-01-2015 10:00:00 2.6 C 95 % 1.88 C
3068 26-01-2015 10:05:00 2.6 C 95 % 1.88 C
3069 26-01-2015 10:10:00 2.6 C 95 % 1.88 C
3070 26-01-2015 10:15:00 2.6 C 95 % 1.88 C
3071 26-01-2015 10:20:00 2.6 C 95 % 1.88 C
3072 26-01-2015 10:25:00 2.6 C 95 % 1.88 C
3073 26-01-2015 10:30:00 2.6 C 95 % 1.88 C
3074 26-01-2015 10:35:00 2.6 C 95 % 1.88 C
3075 26-01-2015 10:40:00 2.7 C 95 % 1.98 C
Sensor: Nr:Datum:Temp:Feuchte:Taupunkt:
Aussen-T/F 3076 26-01-2015 10:45:00 2.8 C 95 % 2.08 C
3077 26-01-2015 10:50:00 2.8 C 95 % 2.08 C
3078 26-01-2015 10:55:00 2.8 C 96 % 2.23 C
3079 26-01-2015 11:00:00 2.9 C 96 % 2.33 C
3080 26-01-2015 11:05:00 2.9 C 95 % 2.18 C
3081 26-01-2015 11:10:00 2.9 C 95 % 2.18 C
3082 26-01-2015 11:15:00 2.9 C 95 % 2.18 C
3083 26-01-2015 11:20:00 2.9 C 95 % 2.18 C
3084 26-01-2015 11:25:00 2.9 C 95 % 2.18 C
3085 26-01-2015 11:30:00 2.8 C 95 % 2.08 C
3086 26-01-2015 11:35:00 2.8 C 95 % 2.08 C
3087 26-01-2015 11:40:00 2.8 C 95 % 2.08 C
3088 26-01-2015 11:45:00 2.8 C 95 % 2.08 C
3089 26-01-2015 11:50:00 2.9 C 95 % 2.18 C
3090 26-01-2015 11:55:00 2.9 C 95 % 2.18 C
3091 26-01-2015 12:00:00 3 C 95 % 2.28 C
3092 26-01-2015 12:05:00 3 C 95 % 2.28 C
3093 26-01-2015 12:10:00 3.1 C 95 % 2.38 C
3094 26-01-2015 12:15:00 3.1 C 95 % 2.38 C
3095 26-01-2015 12:20:00 3.1 C 95 % 2.38 C
3096 26-01-2015 12:25:00 3.1 C 95 % 2.38 C
3097 26-01-2015 12:30:00 3.1 C 95 % 2.38 C
3098 26-01-2015 12:35:00 3.1 C 95 % 2.38 C
3099 26-01-2015 12:40:00 3.1 C 95 % 2.38 C
3100 26-01-2015 12:45:00 3.1 C 95 % 2.38 C
Sensor: Nr:Datum:Temp:Feuchte:Taupunkt:
Aussen-T/F 3101 26-01-2015 12:50:00 3.2 C 95 % 2.48 C
3102 26-01-2015 12:55:00 3.2 C 95 % 2.48 C
3103 26-01-2015 13:00:00 3.2 C 95 % 2.48 C
3104 26-01-2015 13:05:00 3.2 C 95 % 2.48 C
3105 26-01-2015 13:10:00 3.2 C 95 % 2.48 C
3106 26-01-2015 13:15:00 3.3 C 95 % 2.58 C
3107 26-01-2015 13:20:00 3.3 C 95 % 2.58 C
3108 26-01-2015 13:25:00 3.3 C 94 % 2.43 C
3109 26-01-2015 13:30:00 3.3 C 94 % 2.43 C
3110 26-01-2015 13:35:00 3.3 C 94 % 2.43 C
3111 26-01-2015 13:40:00 3.3 C 94 % 2.43 C
3112 26-01-2015 13:45:00 3.4 C 94 % 2.53 C
3113 26-01-2015 13:50:00 3.4 C 94 % 2.53 C
3114 26-01-2015 13:55:00 3.4 C 94 % 2.53 C
3115 26-01-2015 14:00:00 3.4 C 94 % 2.53 C
3116 26-01-2015 14:05:00 3.4 C 94 % 2.53 C
3117 26-01-2015 14:10:00 3.5 C 94 % 2.63 C
3118 26-01-2015 14:15:00 3.5 C 94 % 2.63 C
3119 26-01-2015 14:20:00 3.6 C 94 % 2.73 C
3120 26-01-2015 14:25:00 3.5 C 94 % 2.63 C
3121 26-01-2015 14:30:00 3.5 C 94 % 2.63 C
3122 26-01-2015 14:35:00 3.5 C 94 % 2.63 C
3123 26-01-2015 14:40:00 3.4 C 94 % 2.53 C
3124 26-01-2015 14:45:00 3.4 C 94 % 2.53 C
3125 26-01-2015 14:50:00 3.3 C 94 % 2.43 C
Sensor: Nr:Datum:Temp:Feuchte:Taupunkt:
Aussen-T/F 3126 26-01-2015 14:55:00 3.3 C 94 % 2.43 C
3127 26-01-2015 15:00:00 3.3 C 94 % 2.43 C
3128 26-01-2015 15:05:00 3.3 C 95 % 2.58 C
3129 26-01-2015 15:10:00 3.3 C 95 % 2.58 C
3130 26-01-2015 15:15:00 3.3 C 95 % 2.58 C
3131 26-01-2015 15:20:00 3.3 C 95 % 2.58 C
3132 26-01-2015 15:25:00 3.2 C 95 % 2.48 C
3133 26-01-2015 15:30:00 3.2 C 95 % 2.48 C
3134 26-01-2015 15:35:00 3.2 C 95 % 2.48 C
3135 26-01-2015 15:40:00 3.2 C 95 % 2.48 C
3136 26-01-2015 15:45:00 3.2 C 95 % 2.48 C
3137 26-01-2015 15:50:00 3.2 C 95 % 2.48 C
3138 26-01-2015 15:55:00 3.2 C 95 % 2.48 C
3139 26-01-2015 16:00:00 3.2 C 95 % 2.48 C
3140 26-01-2015 16:05:00 3.2 C 95 % 2.48 C
3141 26-01-2015 16:10:00 3.2 C 95 % 2.48 C
3142 26-01-2015 16:15:00 3.2 C 95 % 2.48 C
3143 26-01-2015 16:20:00 3.3 C 95 % 2.58 C
3144 26-01-2015 16:25:00 3.3 C 95 % 2.58 C
3145 26-01-2015 16:30:00 3.3 C 95 % 2.58 C
3146 26-01-2015 16:35:00 3.3 C 94 % 2.43 C
3147 26-01-2015 16:40:00 3.3 C 94 % 2.43 C
3148 26-01-2015 16:45:00 3.3 C 94 % 2.43 C
3149 26-01-2015 16:50:00 3.3 C 95 % 2.58 C
3150 26-01-2015 16:55:00 3.3 C 95 % 2.58 C
Sensor: Nr:Datum:Temp:Feuchte:Taupunkt:
Aussen-T/F 3151 26-01-2015 17:00:00 3.3 C 95 % 2.58 C
3152 26-01-2015 17:05:00 3.2 C 95 % 2.48 C
3153 26-01-2015 17:10:00 3.2 C 95 % 2.48 C
3154 26-01-2015 17:15:00 3.2 C 95 % 2.48 C
3155 26-01-2015 17:20:00 3.2 C 95 % 2.48 C
3156 26-01-2015 17:25:00 3.2 C 95 % 2.48 C
3157 26-01-2015 17:30:00 3.2 C 95 % 2.48 C
3158 26-01-2015 17:35:00 3.2 C 95 % 2.48 C
3159 26-01-2015 17:40:00 3.2 C 95 % 2.48 C
3160 26-01-2015 17:45:00 3.2 C 95 % 2.48 C
3161 26-01-2015 17:50:00 3.2 C 95 % 2.48 C
3162 26-01-2015 17:55:00 3.2 C 95 % 2.48 C
3163 26-01-2015 18:00:00 3.2 C 95 % 2.48 C
3164 26-01-2015 18:05:00 3.2 C 95 % 2.48 C
3165 26-01-2015 18:10:00 3.2 C 95 % 2.48 C
3166 26-01-2015 18:15:00 3.2 C 95 % 2.48 C
3167 26-01-2015 18:20:00 3.3 C 95 % 2.58 C
3168 26-01-2015 18:25:00 3.3 C 95 % 2.58 C
3169 26-01-2015 18:30:00 3.3 C 95 % 2.58 C
3170 26-01-2015 18:35:00 3.4 C 95 % 2.68 C
3171 26-01-2015 18:40:00 3.4 C 95 % 2.68 C
3172 26-01-2015 18:45:00 3.4 C 95 % 2.68 C
3173 26-01-2015 18:50:00 3.4 C 95 % 2.68 C
3174 26-01-2015 18:55:00 3.4 C 95 % 2.68 C
3175 26-01-2015 19:00:00 3.5 C 95 % 2.78 C
Sensor: Nr:Datum:Temp:Feuchte:Taupunkt:
Aussen-T/F 3176 26-01-2015 19:05:00 3.6 C 95 % 2.88 C
3177 26-01-2015 19:10:00 3.7 C 95 % 2.98 C
3178 26-01-2015 19:15:00 3.7 C 95 % 2.98 C
3179 26-01-2015 19:20:00 3.7 C 95 % 2.98 C
3180 26-01-2015 19:25:00 3.7 C 95 % 2.98 C
3181 26-01-2015 19:30:00 3.7 C 95 % 2.98 C
3182 26-01-2015 19:35:00 3.8 C 95 % 3.07 C
3183 26-01-2015 19:40:00 3.8 C 95 % 3.07 C
3184 26-01-2015 19:45:00 3.8 C 95 % 3.07 C
3185 26-01-2015 19:50:00 3.8 C 95 % 3.07 C
3186 26-01-2015 19:55:00 3.9 C 96 % 3.32 C
3187 26-01-2015 20:00:00 4 C 96 % 3.42 C
3188 26-01-2015 20:05:00 4.1 C 96 % 3.52 C
3189 26-01-2015 20:10:00 4.2 C 96 % 3.62 C
3190 26-01-2015 20:15:00 4.2 C 96 % 3.62 C
3191 26-01-2015 20:20:00 4.1 C 96 % 3.52 C
3192 26-01-2015 20:25:00 4.1 C 96 % 3.52 C
3193 26-01-2015 20:30:00 3.9 C 96 % 3.32 C
3194 26-01-2015 20:35:00 4 C 96 % 3.42 C
3195 26-01-2015 20:40:00 4 C 96 % 3.42 C
3196 26-01-2015 20:45:00 3.9 C 96 % 3.32 C
3197 26-01-2015 20:50:00 4.1 C 97 % 3.67 C
3198 26-01-2015 20:55:00 4.2 C 97 % 3.77 C
3199 26-01-2015 21:00:00 4.4 C 97 % 3.97 C
3200 26-01-2015 21:05:00 4.4 C 97 % 3.97 C
Sensor: Nr:Datum:Temp:Feuchte:Taupunkt:
Aussen-T/F 3201 26-01-2015 21:10:00 4.2 C 96 % 3.62 C
3202 26-01-2015 21:15:00 4.2 C 97 % 3.77 C
3203 26-01-2015 21:20:00 4.3 C 97 % 3.87 C
3204 26-01-2015 21:25:00 4.4 C 97 % 3.97 C
3205 26-01-2015 21:30:00 4.5 C 97 % 4.07 C
3206 26-01-2015 21:35:00 4.6 C 97 % 4.17 C
3207 26-01-2015 21:40:00 4.6 C 97 % 4.17 C
3208 26-01-2015 21:45:00 4.7 C 97 % 4.27 C
3209 26-01-2015 21:50:00 4.8 C 96 % 4.22 C
3210 26-01-2015 21:55:00 4.9 C 95 % 4.17 C
3211 26-01-2015 22:00:00 5 C 95 % 4.27 C
3212 26-01-2015 22:05:00 5.1 C 94 % 4.22 C
3213 26-01-2015 22:10:00 5.1 C 94 % 4.22 C
3214 26-01-2015 22:15:00 5.1 C 94 % 4.22 C
3215 26-01-2015 22:20:00 5.1 C 93 % 4.06 C
3216 26-01-2015 22:25:00 5.1 C 92 % 3.91 C
3217 26-01-2015 22:30:00 5.2 C 92 % 4.01 C
3218 26-01-2015 22:35:00 5.2 C 91 % 3.85 C
3219 26-01-2015 22:40:00 5.2 C 91 % 3.85 C
3220 26-01-2015 22:45:00 5.2 C 90 % 3.7 C
3221 26-01-2015 22:50:00 5.2 C 90 % 3.7 C
3222 26-01-2015 22:55:00 5.1 C 91 % 3.76 C
3223 26-01-2015 23:00:00 5.1 C 90 % 3.6 C
3224 26-01-2015 23:05:00 5.1 C 91 % 3.76 C
3225 26-01-2015 23:10:00 5.1 C 91 % 3.76 C
Sensor: Nr:Datum:Temp:Feuchte:Taupunkt:
Aussen-T/F 3226 26-01-2015 23:15:00 5.1 C 90 % 3.6 C
3227 26-01-2015 23:20:00 5 C 89 % 3.34 C
3228 26-01-2015 23:25:00 4.9 C 89 % 3.24 C
3229 26-01-2015 23:30:00 4.9 C 90 % 3.4 C
3230 26-01-2015 23:35:00 4.8 C 90 % 3.3 C
3231 26-01-2015 23:40:00 4.7 C 90 % 3.2 C
3232 26-01-2015 23:45:00 4.5 C 91 % 3.16 C
3233 26-01-2015 23:50:00 4.3 C 91 % 2.96 C
3234 26-01-2015 23:55:00 4.2 C 91 % 2.87 C
3235 27-01-2015 00:00:00 4.1 C 92 % 2.92 C
3236 27-01-2015 00:05:00 4 C 92 % 2.82 C
3237 27-01-2015 00:10:00 3.9 C 92 % 2.72 C
3238 27-01-2015 00:15:00 3.8 C 92 % 2.62 C
3239 27-01-2015 00:20:00 3.6 C 92 % 2.42 C
3240 27-01-2015 00:25:00 3.4 C 93 % 2.38 C
3241 27-01-2015 00:30:00 3.3 C 94 % 2.43 C
3242 27-01-2015 00:35:00 3.3 C 94 % 2.43 C
3243 27-01-2015 00:40:00 3.4 C 94 % 2.53 C
3244 27-01-2015 00:45:00 3.5 C 94 % 2.63 C
3245 27-01-2015 00:50:00 3.5 C 94 % 2.63 C
3246 27-01-2015 00:55:00 3.5 C 93 % 2.48 C
3247 27-01-2015 01:00:00 3.5 C 94 % 2.63 C
3248 27-01-2015 01:05:00 3.5 C 94 % 2.63 C
3249 27-01-2015 01:10:00 3.4 C 94 % 2.53 C
3250 27-01-2015 01:15:00 3.3 C 94 % 2.43 C
Sensor: Nr:Datum:Temp:Feuchte:Taupunkt:
Aussen-T/F 3251 27-01-2015 01:20:00 3.3 C 94 % 2.43 C
3252 27-01-2015 01:25:00 3.3 C 95 % 2.58 C
3253 27-01-2015 01:30:00 3.3 C 95 % 2.58 C
3254 27-01-2015 01:35:00 3.4 C 95 % 2.68 C
3255 27-01-2015 01:40:00 3.6 C 95 % 2.88 C
3256 27-01-2015 01:45:00 3.7 C 95 % 2.98 C
3257 27-01-2015 01:50:00 3.8 C 94 % 2.93 C
3258 27-01-2015 01:55:00 3.8 C 94 % 2.93 C
3259 27-01-2015 02:00:00 3.9 C 94 % 3.02 C
3260 27-01-2015 02:05:00 3.9 C 94 % 3.02 C
3261 27-01-2015 02:10:00 3.9 C 94 % 3.02 C
3262 27-01-2015 02:15:00 4 C 93 % 2.97 C
3263 27-01-2015 02:20:00 4.1 C 93 % 3.07 C
3264 27-01-2015 02:25:00 4.1 C 93 % 3.07 C
3265 27-01-2015 02:30:00 4.1 C 93 % 3.07 C
3266 27-01-2015 02:35:00 4 C 93 % 2.97 C
3267 27-01-2015 02:40:00 4 C 93 % 2.97 C
3268 27-01-2015 02:45:00 4 C 94 % 3.12 C
3269 27-01-2015 02:50:00 4 C 93 % 2.97 C
3270 27-01-2015 02:55:00 4.1 C 92 % 2.92 C
3271 27-01-2015 03:00:00 4.1 C 92 % 2.92 C
3272 27-01-2015 03:05:00 4.1 C 92 % 2.92 C
3273 27-01-2015 03:10:00 4 C 92 % 2.82 C
3274 27-01-2015 03:15:00 3.9 C 92 % 2.72 C
3275 27-01-2015 03:20:00 3.9 C 93 % 2.87 C
Sensor: Nr:Datum:Temp:Feuchte:Taupunkt:
Aussen-T/F 3276 27-01-2015 03:25:00 3.9 C 93 % 2.87 C
3277 27-01-2015 03:30:00 3.9 C 93 % 2.87 C
3278 27-01-2015 03:35:00 3.9 C 93 % 2.87 C
3279 27-01-2015 03:40:00 3.8 C 93 % 2.77 C
3280 27-01-2015 03:45:00 3.8 C 93 % 2.77 C
3281 27-01-2015 03:50:00 3.8 C 94 % 2.93 C
3282 27-01-2015 03:55:00 3.8 C 94 % 2.93 C
3283 27-01-2015 04:00:00 3.8 C 94 % 2.93 C
3284 27-01-2015 04:05:00 3.8 C 94 % 2.93 C
3285 27-01-2015 04:10:00 3.7 C 94 % 2.83 C
3286 27-01-2015 04:15:00 3.7 C 94 % 2.83 C
3287 27-01-2015 04:20:00 3.7 C 94 % 2.83 C
3288 27-01-2015 04:25:00 3.7 C 94 % 2.83 C
3289 27-01-2015 04:30:00 3.7 C 94 % 2.83 C
3290 27-01-2015 04:35:00 3.7 C 94 % 2.83 C
3291 27-01-2015 04:40:00 3.7 C 94 % 2.83 C
3292 27-01-2015 04:45:00 3.7 C 94 % 2.83 C
3293 27-01-2015 04:50:00 3.7 C 93 % 2.68 C
3294 27-01-2015 04:55:00 3.7 C 93 % 2.68 C
3295 27-01-2015 05:00:00 3.6 C 93 % 2.58 C
3296 27-01-2015 05:05:00 3.6 C 93 % 2.58 C
3297 27-01-2015 05:10:00 3.5 C 93 % 2.48 C
3298 27-01-2015 05:15:00 3.3 C 93 % 2.28 C
3299 27-01-2015 05:20:00 3.2 C 94 % 2.33 C
3300 27-01-2015 05:25:00 3.1 C 94 % 2.23 C
Sensor: Nr:Datum:Temp:Feuchte:Taupunkt:
Aussen-T/F 3301 27-01-2015 05:30:00 3.1 C 95 % 2.38 C
3302 27-01-2015 05:35:00 3.2 C 95 % 2.48 C
3303 27-01-2015 05:40:00 3.2 C 95 % 2.48 C
3304 27-01-2015 05:45:00 3.1 C 95 % 2.38 C
3305 27-01-2015 05:50:00 3.1 C 95 % 2.38 C
3306 27-01-2015 05:55:00 3.1 C 95 % 2.38 C
3307 27-01-2015 06:00:00 3.2 C 95 % 2.48 C
3308 27-01-2015 06:05:00 3.3 C 95 % 2.58 C
3309 27-01-2015 06:10:00 3.3 C 95 % 2.58 C
3310 27-01-2015 06:15:00 3.4 C 94 % 2.53 C
3311 27-01-2015 06:20:00 3.5 C 94 % 2.63 C
3312 27-01-2015 06:25:00 3.6 C 93 % 2.58 C
3313 27-01-2015 06:30:00 3.5 C 93 % 2.48 C
3314 27-01-2015 06:35:00 3.5 C 93 % 2.48 C
3315 27-01-2015 06:40:00 3.5 C 93 % 2.48 C
3316 27-01-2015 06:45:00 3.5 C 93 % 2.48 C
3317 27-01-2015 06:50:00 3.5 C 94 % 2.63 C
3318 27-01-2015 06:55:00 3.5 C 94 % 2.63 C
3319 27-01-2015 07:00:00 3.5 C 94 % 2.63 C
3320 27-01-2015 07:05:00 3.4 C 94 % 2.53 C
3321 27-01-2015 07:10:00 3.4 C 94 % 2.53 C
3322 27-01-2015 07:15:00 3.3 C 94 % 2.43 C
3323 27-01-2015 07:20:00 3.3 C 94 % 2.43 C
3324 27-01-2015 07:25:00 3.4 C 94 % 2.53 C
3325 27-01-2015 07:30:00 3.4 C 94 % 2.53 C
Sensor: Nr:Datum:Temp:Feuchte:Taupunkt:
Aussen-T/F 3326 27-01-2015 07:35:00 3.4 C 94 % 2.53 C
3327 27-01-2015 07:40:00 3.4 C 94 % 2.53 C
3328 27-01-2015 07:45:00 3.5 C 93 % 2.48 C
3329 27-01-2015 07:50:00 3.6 C 93 % 2.58 C
3330 27-01-2015 07:55:00 3.7 C 92 % 2.52 C
3331 27-01-2015 08:00:00 3.8 C 91 % 2.47 C
3332 27-01-2015 08:05:00 3.8 C 91 % 2.47 C
3333 27-01-2015 08:10:00 3.7 C 92 % 2.52 C
3334 27-01-2015 08:15:00 3.7 C 92 % 2.52 C
3335 27-01-2015 08:20:00 3.7 C 92 % 2.52 C
3336 27-01-2015 08:25:00 3.7 C 92 % 2.52 C
3337 27-01-2015 08:30:00 3.7 C 92 % 2.52 C
3338 27-01-2015 08:35:00 3.7 C 92 % 2.52 C
3339 27-01-2015 08:40:00 3.7 C 91 % 2.37 C
3340 27-01-2015 08:45:00 3.7 C 91 % 2.37 C
3341 27-01-2015 08:50:00 3.7 C 91 % 2.37 C
3342 27-01-2015 08:55:00 3.8 C 91 % 2.47 C
3343 27-01-2015 09:00:00 3.8 C 91 % 2.47 C
3344 27-01-2015 09:05:00 3.8 C 91 % 2.47 C
3345 27-01-2015 09:10:00 3.8 C 91 % 2.47 C
3346 27-01-2015 09:15:00 3.8 C 91 % 2.47 C
3347 27-01-2015 09:20:00 3.8 C 91 % 2.47 C
3348 27-01-2015 09:25:00 3.8 C 91 % 2.47 C
3349 27-01-2015 09:30:00 3.8 C 91 % 2.47 C
3350 27-01-2015 09:35:00 3.9 C 91 % 2.57 C
Sensor: Nr:Datum:Temp:Feuchte:Taupunkt:
Aussen-T/F 3351 27-01-2015 09:40:00 3.9 C 90 % 2.41 C
3352 27-01-2015 09:45:00 3.9 C 90 % 2.41 C
3353 27-01-2015 09:50:00 3.9 C 90 % 2.41 C
3354 27-01-2015 09:55:00 3.9 C 90 % 2.41 C
3355 27-01-2015 10:00:00 3.9 C 90 % 2.41 C
3356 27-01-2015 10:05:00 3.9 C 90 % 2.41 C
3357 27-01-2015 10:10:00 3.9 C 90 % 2.41 C
3358 27-01-2015 10:15:00 3.9 C 91 % 2.57 C
3359 27-01-2015 10:20:00 3.9 C 91 % 2.57 C
3360 27-01-2015 10:25:00 3.8 C 92 % 2.62 C
3361 27-01-2015 10:30:00 3.8 C 92 % 2.62 C
3362 27-01-2015 10:35:00 3.7 C 92 % 2.52 C
3363 27-01-2015 10:40:00 3.7 C 93 % 2.68 C
3364 27-01-2015 10:45:00 3.7 C 93 % 2.68 C
3365 27-01-2015 10:50:00 3.8 C 93 % 2.77 C
3366 27-01-2015 10:55:00 3.8 C 93 % 2.77 C
3367 27-01-2015 11:00:00 3.8 C 93 % 2.77 C
3368 27-01-2015 11:05:00 3.9 C 93 % 2.87 C
3369 27-01-2015 11:10:00 3.9 C 94 % 3.02 C
3370 27-01-2015 11:15:00 3.9 C 93 % 2.87 C
3371 27-01-2015 11:20:00 4 C 93 % 2.97 C
3372 27-01-2015 11:25:00 4 C 94 % 3.12 C
3373 27-01-2015 11:30:00 4 C 94 % 3.12 C
3374 27-01-2015 11:35:00 4 C 94 % 3.12 C
3375 27-01-2015 11:40:00 4.1 C 94 % 3.22 C
Sensor: Nr:Datum:Temp:Feuchte:Taupunkt:
Aussen-T/F 3376 27-01-2015 11:45:00 4.1 C 94 % 3.22 C
3377 27-01-2015 11:50:00 4.2 C 94 % 3.32 C
3378 27-01-2015 11:55:00 4.3 C 94 % 3.42 C
3379 27-01-2015 12:00:00 4.4 C 93 % 3.37 C
3380 27-01-2015 12:05:00 4.5 C 93 % 3.47 C
3381 27-01-2015 12:10:00 4.6 C 94 % 3.72 C
3382 27-01-2015 12:15:00 4.7 C 93 % 3.67 C
3383 27-01-2015 12:20:00 4.7 C 93 % 3.67 C
3384 27-01-2015 12:25:00 4.8 C 93 % 3.77 C
3385 27-01-2015 12:30:00 4.8 C 93 % 3.77 C
3386 27-01-2015 12:35:00 4.8 C 92 % 3.61 C
3387 27-01-2015 12:40:00 4.9 C 92 % 3.71 C
3388 27-01-2015 12:45:00 4.9 C 92 % 3.71 C
3389 27-01-2015 12:50:00 4.9 C 91 % 3.56 C
3390 27-01-2015 12:55:00 4.9 C 91 % 3.56 C
3391 27-01-2015 13:00:00 5 C 91 % 3.66 C
3392 27-01-2015 13:05:00 5 C 91 % 3.66 C
3393 27-01-2015 13:10:00 4.9 C 91 % 3.56 C
3394 27-01-2015 13:15:00 4.9 C 90 % 3.4 C
3395 27-01-2015 13:20:00 4.8 C 91 % 3.46 C
3396 27-01-2015 13:25:00 4.7 C 90 % 3.2 C
3397 27-01-2015 13:30:00 4.7 C 91 % 3.36 C
3398 27-01-2015 13:35:00 4.7 C 91 % 3.36 C
3399 27-01-2015 13:40:00 4.7 C 91 % 3.36 C
3400 27-01-2015 13:45:00 4.6 C 91 % 3.26 C
Sensor: Nr:Datum:Temp:Feuchte:Taupunkt:
Aussen-T/F 3401 27-01-2015 13:50:00 4.6 C 92 % 3.42 C
3402 27-01-2015 13:55:00 4.6 C 92 % 3.42 C
3403 27-01-2015 14:00:00 4.6 C 92 % 3.42 C
3404 27-01-2015 14:05:00 4.6 C 92 % 3.42 C
3405 27-01-2015 14:10:00 4.7 C 92 % 3.51 C
3406 27-01-2015 14:15:00 4.8 C 92 % 3.61 C
3407 27-01-2015 14:20:00 4.9 C 92 % 3.71 C
3408 27-01-2015 14:25:00 5.1 C 91 % 3.76 C
3409 27-01-2015 14:30:00 5.1 C 90 % 3.6 C
3410 27-01-2015 14:35:00 5.2 C 90 % 3.7 C
3411 27-01-2015 14:40:00 5.2 C 90 % 3.7 C
3412 27-01-2015 14:45:00 5.3 C 90 % 3.8 C
3413 27-01-2015 14:50:00 5.2 C 90 % 3.7 C
3414 27-01-2015 14:55:00 5.2 C 90 % 3.7 C
3415 27-01-2015 15:00:00 5.1 C 90 % 3.6 C
3416 27-01-2015 15:05:00 5.1 C 90 % 3.6 C
3417 27-01-2015 15:10:00 5.1 C 90 % 3.6 C
3418 27-01-2015 15:15:00 5.1 C 89 % 3.44 C
3419 27-01-2015 15:20:00 5.2 C 89 % 3.54 C
3420 27-01-2015 15:25:00 5.2 C 88 % 3.38 C
3421 27-01-2015 15:30:00 5.2 C 89 % 3.54 C
3422 27-01-2015 15:35:00 5.1 C 89 % 3.44 C
3423 27-01-2015 15:40:00 5.1 C 89 % 3.44 C
3424 27-01-2015 15:45:00 4.9 C 90 % 3.4 C
3425 27-01-2015 15:50:00 4.7 C 90 % 3.2 C
Sensor: Nr:Datum:Temp:Feuchte:Taupunkt:
Aussen-T/F 3426 27-01-2015 15:55:00 4.6 C 91 % 3.26 C
3427 27-01-2015 16:00:00 4.4 C 91 % 3.06 C
3428 27-01-2015 16:05:00 4.3 C 92 % 3.12 C
3429 27-01-2015 16:10:00 4.2 C 92 % 3.02 C
3430 27-01-2015 16:15:00 4.1 C 92 % 2.92 C
3431 27-01-2015 16:20:00 3.9 C 92 % 2.72 C
3432 27-01-2015 16:25:00 3.8 C 93 % 2.77 C
3433 27-01-2015 16:30:00 3.8 C 93 % 2.77 C
3434 27-01-2015 16:35:00 3.7 C 93 % 2.68 C
3435 27-01-2015 16:40:00 3.7 C 93 % 2.68 C
3436 27-01-2015 16:45:00 3.7 C 93 % 2.68 C
3437 27-01-2015 16:50:00 3.6 C 93 % 2.58 C
3438 27-01-2015 16:55:00 3.6 C 94 % 2.73 C
3439 27-01-2015 17:00:00 3.6 C 94 % 2.73 C
3440 27-01-2015 17:05:00 3.6 C 94 % 2.73 C
3441 27-01-2015 17:10:00 3.6 C 94 % 2.73 C
3442 27-01-2015 17:15:00 3.6 C 94 % 2.73 C
3443 27-01-2015 17:20:00 3.6 C 94 % 2.73 C
3444 27-01-2015 17:25:00 3.6 C 94 % 2.73 C
3445 27-01-2015 17:30:00 3.6 C 95 % 2.88 C
3446 27-01-2015 17:35:00 3.6 C 95 % 2.88 C
3447 27-01-2015 17:40:00 3.6 C 95 % 2.88 C
3448 27-01-2015 17:45:00 3.6 C 95 % 2.88 C
3449 27-01-2015 17:50:00 3.6 C 95 % 2.88 C
3450 27-01-2015 17:55:00 3.6 C 95 % 2.88 C
Sensor: Nr:Datum:Temp:Feuchte:Taupunkt:
Aussen-T/F 3451 27-01-2015 18:00:00 3.6 C 96 % 3.02 C
3452 27-01-2015 18:05:00 3.6 C 96 % 3.02 C
3453 27-01-2015 18:10:00 3.6 C 96 % 3.02 C
3454 27-01-2015 18:15:00 3.6 C 96 % 3.02 C
3455 27-01-2015 18:20:00 3.6 C 96 % 3.02 C
3456 27-01-2015 18:25:00 3.6 C 96 % 3.02 C
3457 27-01-2015 18:30:00 3.6 C 96 % 3.02 C
3458 27-01-2015 18:35:00 3.6 C 96 % 3.02 C
3459 27-01-2015 18:40:00 3.6 C 96 % 3.02 C
3460 27-01-2015 18:45:00 3.6 C 96 % 3.02 C
3461 27-01-2015 18:50:00 3.6 C 96 % 3.02 C
3462 27-01-2015 18:55:00 3.6 C 96 % 3.02 C
3463 27-01-2015 19:00:00 3.6 C 96 % 3.02 C
3464 27-01-2015 19:05:00 3.6 C 96 % 3.02 C
3465 27-01-2015 19:10:00 3.6 C 97 % 3.17 C
3466 27-01-2015 19:15:00 3.6 C 97 % 3.17 C
3467 27-01-2015 19:20:00 3.6 C 97 % 3.17 C
3468 27-01-2015 19:25:00 3.6 C 97 % 3.17 C
3469 27-01-2015 19:30:00 3.6 C 97 % 3.17 C
3470 27-01-2015 19:35:00 3.6 C 97 % 3.17 C
3471 27-01-2015 19:40:00 3.7 C 97 % 3.27 C
3472 27-01-2015 19:45:00 3.6 C 97 % 3.17 C
3473 27-01-2015 19:50:00 3.6 C 97 % 3.17 C
3474 27-01-2015 19:55:00 3.6 C 97 % 3.17 C
3475 27-01-2015 20:00:00 3.6 C 97 % 3.17 C
Sensor: Nr:Datum:Temp:Feuchte:Taupunkt:
Aussen-T/F 3476 27-01-2015 20:05:00 3.6 C 97 % 3.17 C
3477 27-01-2015 20:10:00 3.6 C 97 % 3.17 C
3478 27-01-2015 20:15:00 3.6 C 97 % 3.17 C
3479 27-01-2015 20:20:00 3.6 C 97 % 3.17 C
3480 27-01-2015 20:25:00 3.6 C 97 % 3.17 C
3481 27-01-2015 20:30:00 3.6 C 97 % 3.17 C
3482 27-01-2015 20:35:00 3.6 C 97 % 3.17 C
3483 27-01-2015 20:40:00 3.6 C 97 % 3.17 C
3484 27-01-2015 20:45:00 3.6 C 97 % 3.17 C
3485 27-01-2015 20:50:00 3.6 C 97 % 3.17 C
3486 27-01-2015 20:55:00 3.6 C 97 % 3.17 C
3487 27-01-2015 21:00:00 3.5 C 97 % 3.07 C
3488 27-01-2015 21:05:00 3.5 C 97 % 3.07 C
3489 27-01-2015 21:10:00 3.5 C 97 % 3.07 C
3490 27-01-2015 21:15:00 3.5 C 97 % 3.07 C
3491 27-01-2015 21:20:00 3.5 C 97 % 3.07 C
3492 27-01-2015 21:25:00 3.4 C 97 % 2.97 C
3493 27-01-2015 21:30:00 3.4 C 97 % 2.97 C
3494 27-01-2015 21:35:00 3.4 C 97 % 2.97 C
3495 27-01-2015 21:40:00 3.4 C 97 % 2.97 C
3496 27-01-2015 21:45:00 3.4 C 97 % 2.97 C
3497 27-01-2015 21:50:00 3.4 C 97 % 2.97 C
3498 27-01-2015 21:55:00 3.4 C 97 % 2.97 C
3499 27-01-2015 22:00:00 3.4 C 97 % 2.97 C
3500 27-01-2015 22:05:00 3.4 C 97 % 2.97 C
Sensor: Nr:Datum:Temp:Feuchte:Taupunkt:
Aussen-T/F 3501 27-01-2015 22:10:00 3.4 C 97 % 2.97 C
3502 27-01-2015 22:15:00 3.4 C 97 % 2.97 C
3503 27-01-2015 22:20:00 3.4 C 97 % 2.97 C
3504 27-01-2015 22:25:00 3.4 C 97 % 2.97 C
3505 27-01-2015 22:30:00 3.4 C 97 % 2.97 C
3506 27-01-2015 22:35:00 3.4 C 97 % 2.97 C
3507 27-01-2015 22:40:00 3.4 C 97 % 2.97 C
3508 27-01-2015 22:45:00 3.4 C 97 % 2.97 C
3509 27-01-2015 22:50:00 3.4 C 97 % 2.97 C
3510 27-01-2015 22:55:00 3.4 C 97 % 2.97 C
3511 27-01-2015 23:00:00 3.4 C 97 % 2.97 C
3512 27-01-2015 23:05:00 3.4 C 97 % 2.97 C
3513 27-01-2015 23:10:00 3.5 C 97 % 3.07 C
3514 27-01-2015 23:15:00 3.5 C 97 % 3.07 C
3515 27-01-2015 23:20:00 3.5 C 97 % 3.07 C
3516 27-01-2015 23:25:00 3.5 C 97 % 3.07 C
3517 27-01-2015 23:30:00 3.5 C 97 % 3.07 C
3518 27-01-2015 23:35:00 3.5 C 97 % 3.07 C
3519 27-01-2015 23:40:00 3.5 C 97 % 3.07 C
3520 27-01-2015 23:45:00 3.5 C 97 % 3.07 C
3521 27-01-2015 23:50:00 3.5 C 97 % 3.07 C
3522 27-01-2015 23:55:00 3.6 C 97 % 3.17 C
3523 28-01-2015 00:00:00 3.6 C 97 % 3.17 C
3524 28-01-2015 00:05:00 3.6 C 97 % 3.17 C
3525 28-01-2015 00:10:00 3.6 C 97 % 3.17 C
Sensor: Nr:Datum:Temp:Feuchte:Taupunkt:
Aussen-T/F 3526 28-01-2015 00:15:00 3.5 C 96 % 2.92 C
3527 28-01-2015 00:20:00 3.5 C 96 % 2.92 C
3528 28-01-2015 00:25:00 3.4 C 96 % 2.82 C
3529 28-01-2015 00:30:00 3.4 C 96 % 2.82 C
3530 28-01-2015 00:35:00 3.4 C 96 % 2.82 C
3531 28-01-2015 00:40:00 3.4 C 97 % 2.97 C
3532 28-01-2015 00:45:00 3.3 C 96 % 2.72 C
3533 28-01-2015 00:50:00 3.3 C 96 % 2.72 C
3534 28-01-2015 00:55:00 3.2 C 96 % 2.63 C
3535 28-01-2015 01:00:00 3.1 C 96 % 2.53 C
3536 28-01-2015 01:05:00 3 C 96 % 2.43 C
3537 28-01-2015 01:10:00 2.8 C 96 % 2.23 C
3538 28-01-2015 01:15:00 2.7 C 96 % 2.13 C
3539 28-01-2015 01:20:00 2.6 C 96 % 2.03 C
3540 28-01-2015 01:25:00 2.6 C 96 % 2.03 C
3541 28-01-2015 01:30:00 2.5 C 96 % 1.93 C
3542 28-01-2015 01:35:00 2.4 C 96 % 1.83 C
3543 28-01-2015 01:40:00 2.3 C 97 % 1.87 C
3544 28-01-2015 01:45:00 2.3 C 97 % 1.87 C
3545 28-01-2015 01:50:00 2.3 C 97 % 1.87 C
3546 28-01-2015 01:55:00 2.3 C 97 % 1.87 C
3547 28-01-2015 02:00:00 2.3 C 97 % 1.87 C
3548 28-01-2015 02:05:00 2.3 C 97 % 1.87 C
3549 28-01-2015 02:10:00 2.2 C 97 % 1.77 C
3550 28-01-2015 02:15:00 2.1 C 97 % 1.67 C
Sensor: Nr:Datum:Temp:Feuchte:Taupunkt:
Aussen-T/F 3551 28-01-2015 02:20:00 2.1 C 97 % 1.67 C
3552 28-01-2015 02:25:00 1.9 C 97 % 1.48 C
3553 28-01-2015 02:30:00 1.9 C 97 % 1.48 C
3554 28-01-2015 02:35:00 1.8 C 97 % 1.38 C
3555 28-01-2015 02:40:00 1.8 C 97 % 1.38 C
3556 28-01-2015 02:45:00 1.8 C 97 % 1.38 C
3557 28-01-2015 02:50:00 1.8 C 97 % 1.38 C
3558 28-01-2015 02:55:00 1.9 C 97 % 1.48 C
3559 28-01-2015 03:00:00 1.9 C 97 % 1.48 C
3560 28-01-2015 03:05:00 1.9 C 97 % 1.48 C
3561 28-01-2015 03:10:00 1.9 C 97 % 1.48 C
3562 28-01-2015 03:15:00 1.8 C 97 % 1.38 C
3563 28-01-2015 03:20:00 1.8 C 97 % 1.38 C
3564 28-01-2015 03:25:00 1.8 C 97 % 1.38 C
3565 28-01-2015 03:30:00 1.9 C 97 % 1.48 C
3566 28-01-2015 03:35:00 1.9 C 97 % 1.48 C
3567 28-01-2015 03:40:00 1.9 C 97 % 1.48 C
3568 28-01-2015 03:45:00 1.9 C 97 % 1.48 C
3569 28-01-2015 03:50:00 1.9 C 97 % 1.48 C
3570 28-01-2015 03:55:00 1.9 C 97 % 1.48 C
3571 28-01-2015 04:00:00 1.9 C 97 % 1.48 C
3572 28-01-2015 04:05:00 1.9 C 97 % 1.48 C
3573 28-01-2015 04:10:00 1.9 C 97 % 1.48 C
3574 28-01-2015 04:15:00 1.9 C 97 % 1.48 C
3575 28-01-2015 04:20:00 1.9 C 97 % 1.48 C
Sensor: Nr:Datum:Temp:Feuchte:Taupunkt:
Aussen-T/F 3576 28-01-2015 04:25:00 2 C 97 % 1.58 C
3577 28-01-2015 04:30:00 2.1 C 97 % 1.67 C
3578 28-01-2015 04:35:00 2.1 C 97 % 1.67 C
3579 28-01-2015 04:40:00 2.2 C 98 % 1.92 C
3580 28-01-2015 04:45:00 2.3 C 98 % 2.02 C
3581 28-01-2015 04:50:00 2.4 C 98 % 2.12 C
3582 28-01-2015 04:55:00 2.4 C 98 % 2.12 C
3583 28-01-2015 05:00:00 2.4 C 97 % 1.97 C
3584 28-01-2015 05:05:00 2.4 C 97 % 1.97 C
3585 28-01-2015 05:10:00 2.3 C 97 % 1.87 C
3586 28-01-2015 05:15:00 2.3 C 97 % 1.87 C
3587 28-01-2015 05:20:00 2.3 C 97 % 1.87 C
3588 28-01-2015 05:25:00 2.3 C 97 % 1.87 C
3589 28-01-2015 05:30:00 2.3 C 97 % 1.87 C
3590 28-01-2015 05:35:00 2.3 C 97 % 1.87 C
3591 28-01-2015 05:40:00 2.3 C 97 % 1.87 C
3592 28-01-2015 05:45:00 2.3 C 97 % 1.87 C
3593 28-01-2015 05:50:00 2.2 C 97 % 1.77 C
3594 28-01-2015 05:55:00 2.2 C 97 % 1.77 C
3595 28-01-2015 06:00:00 2.2 C 97 % 1.77 C
3596 28-01-2015 06:05:00 2.3 C 97 % 1.87 C
3597 28-01-2015 06:10:00 2.4 C 97 % 1.97 C
3598 28-01-2015 06:15:00 2.5 C 97 % 2.07 C
3599 28-01-2015 06:20:00 2.6 C 97 % 2.17 C
3600 28-01-2015 06:25:00 2.6 C 96 % 2.03 C
Sensor: Nr:Datum:Temp:Feuchte:Taupunkt:
Aussen-T/F 3601 28-01-2015 06:30:00 2.7 C 96 % 2.13 C
3602 28-01-2015 06:35:00 2.7 C 96 % 2.13 C
3603 28-01-2015 06:40:00 2.8 C 96 % 2.23 C
3604 28-01-2015 06:45:00 2.8 C 96 % 2.23 C
3605 28-01-2015 06:50:00 2.9 C 95 % 2.18 C
3606 28-01-2015 06:55:00 2.9 C 95 % 2.18 C
3607 28-01-2015 07:00:00 2.9 C 95 % 2.18 C
3608 28-01-2015 07:05:00 2.9 C 94 % 2.03 C
3609 28-01-2015 07:10:00 2.9 C 94 % 2.03 C
3610 28-01-2015 07:15:00 2.8 C 95 % 2.08 C
3611 28-01-2015 07:20:00 2.8 C 95 % 2.08 C
3612 28-01-2015 07:25:00 2.9 C 95 % 2.18 C
3613 28-01-2015 07:30:00 2.8 C 95 % 2.08 C
3614 28-01-2015 07:35:00 2.8 C 95 % 2.08 C
3615 28-01-2015 07:40:00 2.9 C 95 % 2.18 C
3616 28-01-2015 07:45:00 2.9 C 95 % 2.18 C
3617 28-01-2015 07:50:00 2.9 C 95 % 2.18 C
3618 28-01-2015 07:55:00 3 C 95 % 2.28 C
3619 28-01-2015 08:00:00 3 C 95 % 2.28 C
3620 28-01-2015 08:05:00 3.1 C 95 % 2.38 C
3621 28-01-2015 08:10:00 3.1 C 95 % 2.38 C
3622 28-01-2015 08:15:00 3.2 C 95 % 2.48 C
3623 28-01-2015 08:20:00 3.2 C 95 % 2.48 C
3624 28-01-2015 08:25:00 3.3 C 94 % 2.43 C
3625 28-01-2015 08:30:00 3.4 C 94 % 2.53 C
Sensor: Nr:Datum:Temp:Feuchte:Taupunkt:
Aussen-T/F 3626 28-01-2015 08:35:00 3.4 C 94 % 2.53 C
3627 28-01-2015 08:40:00 3.4 C 93 % 2.38 C
3628 28-01-2015 08:45:00 3.5 C 93 % 2.48 C
3629 28-01-2015 08:50:00 3.5 C 94 % 2.63 C
3630 28-01-2015 08:55:00 3.5 C 94 % 2.63 C
3631 28-01-2015 09:00:00 3.5 C 94 % 2.63 C
3632 28-01-2015 09:05:00 3.6 C 94 % 2.73 C
3633 28-01-2015 09:10:00 3.6 C 94 % 2.73 C
3634 28-01-2015 09:15:00 3.6 C 94 % 2.73 C
3635 28-01-2015 09:20:00 3.6 C 94 % 2.73 C
3636 28-01-2015 09:25:00 3.6 C 94 % 2.73 C
3637 28-01-2015 09:30:00 3.7 C 94 % 2.83 C
3638 28-01-2015 09:35:00 3.7 C 94 % 2.83 C
3639 28-01-2015 09:40:00 3.7 C 93 % 2.68 C
3640 28-01-2015 09:45:00 3.8 C 93 % 2.77 C
3641 28-01-2015 09:50:00 3.9 C 93 % 2.87 C
3642 28-01-2015 09:55:00 4 C 93 % 2.97 C
3643 28-01-2015 10:00:00 4.1 C 93 % 3.07 C
3644 28-01-2015 10:05:00 4.1 C 93 % 3.07 C
3645 28-01-2015 10:10:00 4.2 C 92 % 3.02 C
3646 28-01-2015 10:15:00 4.2 C 92 % 3.02 C
3647 28-01-2015 10:20:00 4.2 C 92 % 3.02 C
3648 28-01-2015 10:25:00 4.3 C 92 % 3.12 C
3649 28-01-2015 10:30:00 4.2 C 92 % 3.02 C
3650 28-01-2015 10:35:00 4.3 C 92 % 3.12 C
Sensor: Nr:Datum:Temp:Feuchte:Taupunkt:
Aussen-T/F 3651 28-01-2015 10:40:00 4.3 C 92 % 3.12 C
3652 28-01-2015 10:45:00 4.3 C 91 % 2.96 C
3653 28-01-2015 10:50:00 4.4 C 91 % 3.06 C
3654 28-01-2015 10:55:00 4.6 C 91 % 3.26 C
3655 28-01-2015 11:00:00 4.6 C 91 % 3.26 C
3656 28-01-2015 11:05:00 4.7 C 90 % 3.2 C
3657 28-01-2015 11:10:00 4.8 C 90 % 3.3 C
3658 28-01-2015 11:15:00 4.8 C 90 % 3.3 C
3659 28-01-2015 11:20:00 4.9 C 89 % 3.24 C
3660 28-01-2015 11:25:00 4.9 C 89 % 3.24 C
3661 28-01-2015 11:30:00 5 C 89 % 3.34 C
3662 28-01-2015 11:35:00 5.1 C 89 % 3.44 C
3663 28-01-2015 11:40:00 5.1 C 89 % 3.44 C
3664 28-01-2015 11:45:00 5.2 C 88 % 3.38 C
3665 28-01-2015 11:50:00 5.3 C 88 % 3.48 C
3666 28-01-2015 11:55:00 5.4 C 88 % 3.58 C
3667 28-01-2015 12:00:00 5.5 C 88 % 3.67 C
3668 28-01-2015 12:05:00 5.6 C 87 % 3.61 C
3669 28-01-2015 12:10:00 5.6 C 87 % 3.61 C
3670 28-01-2015 12:15:00 5.6 C 87 % 3.61 C
3671 28-01-2015 12:20:00 5.6 C 87 % 3.61 C
3672 28-01-2015 12:25:00 5.5 C 86 % 3.35 C
3673 28-01-2015 12:30:00 5.6 C 86 % 3.45 C
3674 28-01-2015 12:35:00 5.6 C 86 % 3.45 C
3675 28-01-2015 12:40:00 5.7 C 86 % 3.55 C
Sensor: Nr:Datum:Temp:Feuchte:Taupunkt:
Aussen-T/F 3676 28-01-2015 12:45:00 5.7 C 86 % 3.55 C
3677 28-01-2015 12:50:00 5.8 C 85 % 3.48 C
3678 28-01-2015 12:55:00 5.9 C 85 % 3.58 C
3679 28-01-2015 13:00:00 5.9 C 84 % 3.41 C
3680 28-01-2015 13:05:00 5.9 C 85 % 3.58 C
3681 28-01-2015 13:10:00 5.9 C 84 % 3.41 C
3682 28-01-2015 13:15:00 5.9 C 85 % 3.58 C
3683 28-01-2015 13:20:00 5.9 C 85 % 3.58 C
3684 28-01-2015 13:25:00 5.9 C 84 % 3.41 C
3685 28-01-2015 13:30:00 5.9 C 84 % 3.41 C
3686 28-01-2015 13:35:00 5.9 C 85 % 3.58 C
3687 28-01-2015 13:40:00 5.8 C 85 % 3.48 C
3688 28-01-2015 13:45:00 5.8 C 86 % 3.64 C
3689 28-01-2015 13:50:00 5.9 C 85 % 3.58 C
3690 28-01-2015 13:55:00 6.1 C 84 % 3.61 C
3691 28-01-2015 14:00:00 6.2 C 82 % 3.36 C
3692 28-01-2015 14:05:00 6.3 C 82 % 3.46 C
3693 28-01-2015 14:10:00 6.4 C 81 % 3.38 C
3694 28-01-2015 14:15:00 6.5 C 80 % 3.31 C
3695 28-01-2015 14:20:00 6.5 C 80 % 3.31 C
3696 28-01-2015 14:25:00 6.5 C 80 % 3.31 C
3697 28-01-2015 14:30:00 6.4 C 80 % 3.21 C
3698 28-01-2015 14:35:00 6.4 C 79 % 3.03 C
3699 28-01-2015 14:40:00 6.4 C 80 % 3.21 C
3700 28-01-2015 14:45:00 6.4 C 79 % 3.03 C
Sensor: Nr:Datum:Temp:Feuchte:Taupunkt:
Aussen-T/F 3701 28-01-2015 14:50:00 6.4 C 79 % 3.03 C
3702 28-01-2015 14:55:00 6.4 C 79 % 3.03 C
3703 28-01-2015 15:00:00 6.3 C 80 % 3.11 C
3704 28-01-2015 15:05:00 6.3 C 80 % 3.11 C
3705 28-01-2015 15:10:00 6.3 C 81 % 3.29 C
3706 28-01-2015 15:15:00 6.2 C 81 % 3.19 C
3707 28-01-2015 15:20:00 6.2 C 80 % 3.01 C
3708 28-01-2015 15:25:00 6.2 C 80 % 3.01 C
3709 28-01-2015 15:30:00 6.3 C 80 % 3.11 C
3710 28-01-2015 15:35:00 6.2 C 80 % 3.01 C
3711 28-01-2015 15:40:00 6.2 C 80 % 3.01 C
3712 28-01-2015 15:45:00 6.2 C 80 % 3.01 C
3713 28-01-2015 15:50:00 6.2 C 80 % 3.01 C
3714 28-01-2015 15:55:00 6.3 C 80 % 3.11 C
3715 28-01-2015 16:00:00 6.3 C 80 % 3.11 C
3716 28-01-2015 16:05:00 6.3 C 80 % 3.11 C
3717 28-01-2015 16:10:00 6.3 C 80 % 3.11 C
3718 28-01-2015 16:15:00 6.3 C 80 % 3.11 C
3719 28-01-2015 16:20:00 6.3 C 80 % 3.11 C
3720 28-01-2015 16:25:00 6.3 C 81 % 3.29 C
3721 28-01-2015 16:30:00 6.3 C 81 % 3.29 C
3722 28-01-2015 16:35:00 6.2 C 81 % 3.19 C
3723 28-01-2015 16:40:00 6.2 C 82 % 3.36 C
3724 28-01-2015 16:45:00 6.2 C 83 % 3.53 C
3725 28-01-2015 16:50:00 6.1 C 84 % 3.61 C
Sensor: Nr:Datum:Temp:Feuchte:Taupunkt:
Aussen-T/F 3726 28-01-2015 16:55:00 6 C 84 % 3.51 C
3727 28-01-2015 17:00:00 5.9 C 85 % 3.58 C
3728 28-01-2015 17:05:00 5.8 C 86 % 3.64 C
3729 28-01-2015 17:10:00 5.8 C 86 % 3.64 C
3730 28-01-2015 17:15:00 5.7 C 87 % 3.71 C
3731 28-01-2015 17:20:00 5.6 C 88 % 3.77 C
3732 28-01-2015 17:25:00 5.5 C 89 % 3.84 C
3733 28-01-2015 17:30:00 5.4 C 89 % 3.74 C
3734 28-01-2015 17:35:00 5.4 C 89 % 3.74 C
3735 28-01-2015 17:40:00 5.4 C 89 % 3.74 C
3736 28-01-2015 17:45:00 5.4 C 89 % 3.74 C
3737 28-01-2015 17:50:00 5.4 C 89 % 3.74 C
3738 28-01-2015 17:55:00 5.5 C 89 % 3.84 C
3739 28-01-2015 18:00:00 5.5 C 89 % 3.84 C
3740 28-01-2015 18:05:00 5.5 C 89 % 3.84 C
3741 28-01-2015 18:10:00 5.6 C 89 % 3.93 C
3742 28-01-2015 18:15:00 5.6 C 90 % 4.09 C
3743 28-01-2015 18:20:00 5.7 C 90 % 4.19 C
3744 28-01-2015 18:25:00 5.7 C 90 % 4.19 C
3745 28-01-2015 18:30:00 5.7 C 90 % 4.19 C
3746 28-01-2015 18:35:00 5.7 C 90 % 4.19 C
3747 28-01-2015 18:40:00 5.7 C 90 % 4.19 C
3748 28-01-2015 18:45:00 5.7 C 90 % 4.19 C
3749 28-01-2015 18:50:00 5.7 C 91 % 4.35 C
3750 28-01-2015 18:55:00 5.7 C 92 % 4.5 C
Sensor: Nr:Datum:Temp:Feuchte:Taupunkt:
Aussen-T/F 3751 28-01-2015 19:00:00 5.7 C 91 % 4.35 C
3752 28-01-2015 19:05:00 5.7 C 90 % 4.19 C
3753 28-01-2015 19:10:00 5.8 C 90 % 4.29 C
3754 28-01-2015 19:15:00 5.8 C 90 % 4.29 C
3755 28-01-2015 19:20:00 5.8 C 90 % 4.29 C
3756 28-01-2015 19:25:00 5.9 C 89 % 4.23 C
3757 28-01-2015 19:30:00 5.9 C 89 % 4.23 C
3758 28-01-2015 19:35:00 6 C 89 % 4.33 C
3759 28-01-2015 19:40:00 6 C 89 % 4.33 C
3760 28-01-2015 19:45:00 6 C 88 % 4.17 C
3761 28-01-2015 19:50:00 6.1 C 88 % 4.27 C
3762 28-01-2015 19:55:00 6.1 C 88 % 4.27 C
3763 28-01-2015 20:00:00 6.1 C 88 % 4.27 C
3764 28-01-2015 20:05:00 6.1 C 89 % 4.43 C
3765 28-01-2015 20:10:00 6 C 90 % 4.49 C
3766 28-01-2015 20:15:00 5.9 C 92 % 4.7 C
3767 28-01-2015 20:20:00 5.7 C 92 % 4.5 C
3768 28-01-2015 20:25:00 5.4 C 92 % 4.21 C
3769 28-01-2015 20:30:00 5.2 C 91 % 3.85 C
3770 28-01-2015 20:35:00 5.2 C 92 % 4.01 C
3771 28-01-2015 20:40:00 5.1 C 92 % 3.91 C
3772 28-01-2015 20:45:00 4.9 C 91 % 3.56 C
3773 28-01-2015 20:50:00 4.8 C 91 % 3.46 C
3774 28-01-2015 20:55:00 4.6 C 91 % 3.26 C
3775 28-01-2015 21:00:00 4.3 C 90 % 2.81 C
Sensor: Nr:Datum:Temp:Feuchte:Taupunkt:
Aussen-T/F 3776 28-01-2015 21:05:00 4.2 C 89 % 2.55 C
3777 28-01-2015 21:10:00 4 C 88 % 2.2 C
3778 28-01-2015 21:15:00 3.9 C 89 % 2.26 C
3779 28-01-2015 21:20:00 3.8 C 90 % 2.31 C
3780 28-01-2015 21:25:00 3.7 C 92 % 2.52 C
3781 28-01-2015 21:30:00 3.5 C 92 % 2.33 C
3782 28-01-2015 21:35:00 3.4 C 93 % 2.38 C
3783 28-01-2015 21:40:00 3.3 C 93 % 2.28 C
3784 28-01-2015 21:45:00 3.3 C 93 % 2.28 C
3785 28-01-2015 21:50:00 3.3 C 93 % 2.28 C
3786 28-01-2015 21:55:00 3.5 C 91 % 2.17 C
3787 28-01-2015 22:00:00 3.6 C 90 % 2.12 C
3788 28-01-2015 22:05:00 3.6 C 89 % 1.96 C
3789 28-01-2015 22:10:00 3.6 C 90 % 2.12 C
3790 28-01-2015 22:15:00 3.5 C 88 % 1.7 C
3791 28-01-2015 22:20:00 3.5 C 88 % 1.7 C
3792 28-01-2015 22:25:00 3.4 C 88 % 1.61 C
3793 28-01-2015 22:30:00 3.4 C 87 % 1.45 C
3794 28-01-2015 22:35:00 3.4 C 86 % 1.29 C
3795 28-01-2015 22:40:00 3.5 C 86 % 1.38 C
3796 28-01-2015 22:45:00 3.4 C 87 % 1.45 C
3797 28-01-2015 22:50:00 3.3 C 86 % 1.19 C
3798 28-01-2015 22:55:00 3.3 C 86 % 1.19 C
3799 28-01-2015 23:00:00 3.2 C 87 % 1.25 C
3800 28-01-2015 23:05:00 3.1 C 87 % 1.15 C
Sensor: Nr:Datum:Temp:Feuchte:Taupunkt:
Aussen-T/F 3801 28-01-2015 23:10:00 2.9 C 88 % 1.11 C
3802 28-01-2015 23:15:00 2.8 C 88 % 1.02 C
3803 28-01-2015 23:20:00 2.7 C 88 % 0.92 C
3804 28-01-2015 23:25:00 2.7 C 88 % 0.92 C
3805 28-01-2015 23:30:00 2.7 C 88 % 0.92 C
3806 28-01-2015 23:35:00 2.7 C 88 % 0.92 C
3807 28-01-2015 23:40:00 2.7 C 88 % 0.92 C
3808 28-01-2015 23:45:00 2.6 C 88 % 0.82 C
3809 28-01-2015 23:50:00 2.5 C 88 % 0.72 C
3810 28-01-2015 23:55:00 2.5 C 88 % 0.72 C
3811 29-01-2015 00:00:00 2.5 C 88 % 0.72 C
3812 29-01-2015 00:05:00 2.5 C 88 % 0.72 C
3813 29-01-2015 00:10:00 2.4 C 88 % 0.62 C
3814 29-01-2015 00:15:00 2.4 C 88 % 0.62 C
3815 29-01-2015 00:20:00 2.3 C 88 % 0.52 C
3816 29-01-2015 00:25:00 2.4 C 88 % 0.62 C
3817 29-01-2015 00:30:00 2.4 C 88 % 0.62 C
3818 29-01-2015 00:35:00 2.4 C 87 % 0.46 C
3819 29-01-2015 00:40:00 2.4 C 88 % 0.62 C
3820 29-01-2015 00:45:00 2.3 C 88 % 0.52 C
3821 29-01-2015 00:50:00 2.3 C 88 % 0.52 C
3822 29-01-2015 00:55:00 2.4 C 87 % 0.46 C
3823 29-01-2015 01:00:00 2.6 C 86 % 0.5 C
3824 29-01-2015 01:05:00 2.8 C 85 % 0.54 C
3825 29-01-2015 01:10:00 2.8 C 84 % 0.37 C
Sensor: Nr:Datum:Temp:Feuchte:Taupunkt:
Aussen-T/F 3826 29-01-2015 01:15:00 2.9 C 83 % 0.31 C
3827 29-01-2015 01:20:00 3 C 83 % 0.4 C
3828 29-01-2015 01:25:00 2.9 C 83 % 0.31 C
3829 29-01-2015 01:30:00 2.9 C 84 % 0.47 C
3830 29-01-2015 01:35:00 2.8 C 84 % 0.37 C
3831 29-01-2015 01:40:00 2.8 C 84 % 0.37 C
3832 29-01-2015 01:45:00 2.7 C 84 % 0.27 C
3833 29-01-2015 01:50:00 2.7 C 84 % 0.27 C
3834 29-01-2015 01:55:00 2.6 C 84 % 0.18 C
3835 29-01-2015 02:00:00 2.5 C 85 % 0.24 C
3836 29-01-2015 02:05:00 2.4 C 85 % 0.14 C
3837 29-01-2015 02:10:00 2.3 C 85 % 0.04 C
3838 29-01-2015 02:15:00 2.4 C 84 % -0.02 C
3839 29-01-2015 02:20:00 2.4 C 84 % -0.02 C
3840 29-01-2015 02:25:00 2.3 C 85 % 0.04 C
3841 29-01-2015 02:30:00 2.2 C 85 % -0.05 C
3842 29-01-2015 02:35:00 2 C 86 % -0.09 C
3843 29-01-2015 02:40:00 1.9 C 87 % -0.03 C
3844 29-01-2015 02:45:00 1.8 C 87 % -0.13 C
3845 29-01-2015 02:50:00 2 C 86 % -0.09 C
3846 29-01-2015 02:55:00 2 C 86 % -0.09 C
3847 29-01-2015 03:00:00 2 C 85 % -0.25 C
3848 29-01-2015 03:05:00 2.1 C 85 % -0.15 C
3849 29-01-2015 03:10:00 2.1 C 85 % -0.15 C
3850 29-01-2015 03:15:00 2 C 86 % -0.09 C
Sensor: Nr:Datum:Temp:Feuchte:Taupunkt:
Aussen-T/F 3851 29-01-2015 03:20:00 1.9 C 86 % -0.19 C
3852 29-01-2015 03:25:00 2 C 86 % -0.09 C
3853 29-01-2015 03:30:00 2.1 C 85 % -0.15 C
3854 29-01-2015 03:35:00 2.1 C 85 % -0.15 C
3855 29-01-2015 03:40:00 2.1 C 85 % -0.15 C
3856 29-01-2015 03:45:00 2.1 C 85 % -0.15 C
3857 29-01-2015 03:50:00 2.1 C 85 % -0.15 C
3858 29-01-2015 03:55:00 2.1 C 84 % -0.31 C
3859 29-01-2015 04:00:00 2.1 C 84 % -0.31 C
3860 29-01-2015 04:05:00 2.1 C 84 % -0.31 C
3861 29-01-2015 04:10:00 2.1 C 84 % -0.31 C
3862 29-01-2015 04:15:00 2.1 C 84 % -0.31 C
3863 29-01-2015 04:20:00 2.1 C 83 % -0.48 C
3864 29-01-2015 04:25:00 2.1 C 84 % -0.31 C
3865 29-01-2015 04:30:00 2.1 C 84 % -0.31 C
3866 29-01-2015 04:35:00 1.9 C 84 % -0.51 C
3867 29-01-2015 04:40:00 1.8 C 85 % -0.45 C
3868 29-01-2015 04:45:00 1.8 C 85 % -0.45 C
3869 29-01-2015 04:50:00 1.9 C 85 % -0.35 C
3870 29-01-2015 04:55:00 1.8 C 85 % -0.45 C
3871 29-01-2015 05:00:00 1.8 C 85 % -0.45 C
3872 29-01-2015 05:05:00 1.7 C 86 % -0.38 C
3873 29-01-2015 05:10:00 1.7 C 86 % -0.38 C
3874 29-01-2015 05:15:00 1.6 C 86 % -0.48 C
3875 29-01-2015 05:20:00 1.7 C 86 % -0.38 C
Sensor: Nr:Datum:Temp:Feuchte:Taupunkt:
Aussen-T/F 3876 29-01-2015 05:25:00 1.7 C 87 % -0.23 C
3877 29-01-2015 05:30:00 1.7 C 86 % -0.38 C
3878 29-01-2015 05:35:00 1.8 C 86 % -0.29 C
3879 29-01-2015 05:40:00 1.8 C 86 % -0.29 C
3880 29-01-2015 05:45:00 1.8 C 87 % -0.13 C
3881 29-01-2015 05:50:00 1.8 C 87 % -0.13 C
3882 29-01-2015 05:55:00 1.8 C 87 % -0.13 C
3883 29-01-2015 06:00:00 1.9 C 87 % -0.03 C
3884 29-01-2015 06:05:00 2.1 C 86 % 0.01 C
3885 29-01-2015 06:10:00 2.1 C 86 % 0.01 C
3886 29-01-2015 06:15:00 2 C 86 % -0.09 C
3887 29-01-2015 06:20:00 2.1 C 86 % 0.01 C
3888 29-01-2015 06:25:00 2.1 C 86 % 0.01 C
3889 29-01-2015 06:30:00 2.1 C 86 % 0.01 C
3890 29-01-2015 06:35:00 2.1 C 86 % 0.01 C
3891 29-01-2015 06:40:00 2.2 C 86 % 0.11 C
3892 29-01-2015 06:45:00 2.2 C 86 % 0.11 C
3893 29-01-2015 06:50:00 2.3 C 86 % 0.21 C
3894 29-01-2015 06:55:00 2.3 C 86 % 0.21 C
3895 29-01-2015 07:00:00 2.3 C 86 % 0.21 C
3896 29-01-2015 07:05:00 2.3 C 86 % 0.21 C
3897 29-01-2015 07:10:00 2.4 C 86 % 0.3 C
3898 29-01-2015 07:15:00 2.4 C 86 % 0.3 C